<?xml version="1.0" encoding="UTF-8" standalone="no" ?>
<gpx xmlns="http://www.topografix.com/GPX/1/1" xmlns:xsi="http://www.w3.org/2001/XMLSchema-instance" xsi:schemaLocation="http://www.topografix.com/GPX/1/1 http://www.topografix.com/GPX/1/1/gpx.xsd" version="1.1" creator="VisuGPX - https://www.visugpx.com">
  <metadata>
    <name>Bessy sur Cure - Vezelay</name>
    <desc><![CDATA[Sur le chemin de Saint Jacques de Compostelle]]></desc>
  </metadata>
  <trk>
    <name><![CDATA[28-AVR-13 03:14:08 PM]]></name>
    <trkseg>
      <trkpt lat="47.62188" lon="3.74149">
        <ele>103.48</ele>
        <time>2013-04-28T07:17:06Z</time>
      </trkpt>
      <trkpt lat="47.62187" lon="3.7415">
        <ele>100.6</ele>
        <time>2013-04-28T07:17:07Z</time>
      </trkpt>
      <trkpt lat="47.62186" lon="3.74142">
        <ele>100.6</ele>
        <time>2013-04-28T07:17:29Z</time>
      </trkpt>
      <trkpt lat="47.62187" lon="3.74143">
        <ele>101.08</ele>
        <time>2013-04-28T07:17:50Z</time>
      </trkpt>
      <trkpt lat="47.62186" lon="3.74144">
        <ele>100.6</ele>
        <time>2013-04-28T07:18:12Z</time>
      </trkpt>
      <trkpt lat="47.62188" lon="3.7414">
        <ele>101.08</ele>
        <time>2013-04-28T07:18:38Z</time>
      </trkpt>
      <trkpt lat="47.62188" lon="3.7414">
        <ele>101.56</ele>
        <time>2013-04-28T07:19:03Z</time>
      </trkpt>
      <trkpt lat="47.62187" lon="3.74135">
        <ele>102.04</ele>
        <time>2013-04-28T07:19:22Z</time>
      </trkpt>
      <trkpt lat="47.62181" lon="3.74142">
        <ele>103</ele>
        <time>2013-04-28T07:19:42Z</time>
      </trkpt>
      <trkpt lat="47.6218" lon="3.74156">
        <ele>103</ele>
        <time>2013-04-28T07:20:08Z</time>
      </trkpt>
      <trkpt lat="47.6218" lon="3.74156">
        <ele>103.48</ele>
        <time>2013-04-28T07:20:32Z</time>
      </trkpt>
      <trkpt lat="47.62181" lon="3.74151">
        <ele>103.96</ele>
        <time>2013-04-28T07:20:55Z</time>
      </trkpt>
      <trkpt lat="47.62177" lon="3.74151">
        <ele>103.96</ele>
        <time>2013-04-28T07:21:21Z</time>
      </trkpt>
      <trkpt lat="47.62179" lon="3.74148">
        <ele>104.44</ele>
        <time>2013-04-28T07:21:43Z</time>
      </trkpt>
      <trkpt lat="47.6218" lon="3.74144">
        <ele>105.88</ele>
        <time>2013-04-28T07:22:00Z</time>
      </trkpt>
      <trkpt lat="47.62187" lon="3.74149">
        <ele>104.44</ele>
        <time>2013-04-28T07:22:16Z</time>
      </trkpt>
      <trkpt lat="47.62191" lon="3.74149">
        <ele>104.92</ele>
        <time>2013-04-28T07:22:30Z</time>
      </trkpt>
      <trkpt lat="47.62195" lon="3.74157">
        <ele>105.4</ele>
        <time>2013-04-28T07:22:48Z</time>
      </trkpt>
      <trkpt lat="47.62197" lon="3.74175">
        <ele>105.88</ele>
        <time>2013-04-28T07:23:08Z</time>
      </trkpt>
      <trkpt lat="47.622" lon="3.74179">
        <ele>105.88</ele>
        <time>2013-04-28T07:23:22Z</time>
      </trkpt>
      <trkpt lat="47.62196" lon="3.74172">
        <ele>105.88</ele>
        <time>2013-04-28T07:23:53Z</time>
      </trkpt>
      <trkpt lat="47.62197" lon="3.74176">
        <ele>106.36</ele>
        <time>2013-04-28T07:24:10Z</time>
      </trkpt>
      <trkpt lat="47.62203" lon="3.74179">
        <ele>106.36</ele>
        <time>2013-04-28T07:24:31Z</time>
      </trkpt>
      <trkpt lat="47.62197" lon="3.74179">
        <ele>105.88</ele>
        <time>2013-04-28T07:24:44Z</time>
      </trkpt>
      <trkpt lat="47.62199" lon="3.74179">
        <ele>106.84</ele>
        <time>2013-04-28T07:25:15Z</time>
      </trkpt>
      <trkpt lat="47.62198" lon="3.74177">
        <ele>107.32</ele>
        <time>2013-04-28T07:25:34Z</time>
      </trkpt>
      <trkpt lat="47.62178" lon="3.74203">
        <ele>106.84</ele>
        <time>2013-04-28T07:25:54Z</time>
      </trkpt>
      <trkpt lat="47.62165" lon="3.74231">
        <ele>105.88</ele>
        <time>2013-04-28T07:26:13Z</time>
      </trkpt>
      <trkpt lat="47.62148" lon="3.74252">
        <ele>107.32</ele>
        <time>2013-04-28T07:26:32Z</time>
      </trkpt>
      <trkpt lat="47.62124" lon="3.74274">
        <ele>107.32</ele>
        <time>2013-04-28T07:26:52Z</time>
      </trkpt>
      <trkpt lat="47.6212" lon="3.74277">
        <ele>106.84</ele>
        <time>2013-04-28T07:26:55Z</time>
      </trkpt>
      <trkpt lat="47.62099" lon="3.74293">
        <ele>107.81</ele>
        <time>2013-04-28T07:27:14Z</time>
      </trkpt>
      <trkpt lat="47.6208" lon="3.74313">
        <ele>107.81</ele>
        <time>2013-04-28T07:27:32Z</time>
      </trkpt>
      <trkpt lat="47.62075" lon="3.74318">
        <ele>107.32</ele>
        <time>2013-04-28T07:27:36Z</time>
      </trkpt>
      <trkpt lat="47.62063" lon="3.74323">
        <ele>107.32</ele>
        <time>2013-04-28T07:27:52Z</time>
      </trkpt>
      <trkpt lat="47.62061" lon="3.74324">
        <ele>107.32</ele>
        <time>2013-04-28T07:27:55Z</time>
      </trkpt>
      <trkpt lat="47.62047" lon="3.7434">
        <ele>106.84</ele>
        <time>2013-04-28T07:28:09Z</time>
      </trkpt>
      <trkpt lat="47.62025" lon="3.74358">
        <ele>106.36</ele>
        <time>2013-04-28T07:28:30Z</time>
      </trkpt>
      <trkpt lat="47.62017" lon="3.74369">
        <ele>106.84</ele>
        <time>2013-04-28T07:28:42Z</time>
      </trkpt>
      <trkpt lat="47.62019" lon="3.74379">
        <ele>106.84</ele>
        <time>2013-04-28T07:28:46Z</time>
      </trkpt>
      <trkpt lat="47.62019" lon="3.74415">
        <ele>106.36</ele>
        <time>2013-04-28T07:29:03Z</time>
      </trkpt>
      <trkpt lat="47.6202" lon="3.74416">
        <ele>106.84</ele>
        <time>2013-04-28T07:29:07Z</time>
      </trkpt>
      <trkpt lat="47.62007" lon="3.74421">
        <ele>106.84</ele>
        <time>2013-04-28T07:29:19Z</time>
      </trkpt>
      <trkpt lat="47.61992" lon="3.74422">
        <ele>106.84</ele>
        <time>2013-04-28T07:29:32Z</time>
      </trkpt>
      <trkpt lat="47.6197" lon="3.74406">
        <ele>106.36</ele>
        <time>2013-04-28T07:29:47Z</time>
      </trkpt>
      <trkpt lat="47.61959" lon="3.74388">
        <ele>106.36</ele>
        <time>2013-04-28T07:29:58Z</time>
      </trkpt>
      <trkpt lat="47.61951" lon="3.74362">
        <ele>107.32</ele>
        <time>2013-04-28T07:30:13Z</time>
      </trkpt>
      <trkpt lat="47.61941" lon="3.74332">
        <ele>106.84</ele>
        <time>2013-04-28T07:30:27Z</time>
      </trkpt>
      <trkpt lat="47.61933" lon="3.74302">
        <ele>106.84</ele>
        <time>2013-04-28T07:30:42Z</time>
      </trkpt>
      <trkpt lat="47.61922" lon="3.74265">
        <ele>107.32</ele>
        <time>2013-04-28T07:31:00Z</time>
      </trkpt>
      <trkpt lat="47.61915" lon="3.74242">
        <ele>106.84</ele>
        <time>2013-04-28T07:31:13Z</time>
      </trkpt>
      <trkpt lat="47.6191" lon="3.74219">
        <ele>107.32</ele>
        <time>2013-04-28T07:31:23Z</time>
      </trkpt>
      <trkpt lat="47.61899" lon="3.74185">
        <ele>106.84</ele>
        <time>2013-04-28T07:31:41Z</time>
      </trkpt>
      <trkpt lat="47.61891" lon="3.74181">
        <ele>107.81</ele>
        <time>2013-04-28T07:31:45Z</time>
      </trkpt>
      <trkpt lat="47.61875" lon="3.74163">
        <ele>108.29</ele>
        <time>2013-04-28T07:32:02Z</time>
      </trkpt>
      <trkpt lat="47.61873" lon="3.74152">
        <ele>108.77</ele>
        <time>2013-04-28T07:32:10Z</time>
      </trkpt>
      <trkpt lat="47.61854" lon="3.74142">
        <ele>110.69</ele>
        <time>2013-04-28T07:32:24Z</time>
      </trkpt>
      <trkpt lat="47.61825" lon="3.7413">
        <ele>113.09</ele>
        <time>2013-04-28T07:32:46Z</time>
      </trkpt>
      <trkpt lat="47.61796" lon="3.74132">
        <ele>113.09</ele>
        <time>2013-04-28T07:33:06Z</time>
      </trkpt>
      <trkpt lat="47.61776" lon="3.74149">
        <ele>114.05</ele>
        <time>2013-04-28T07:33:23Z</time>
      </trkpt>
      <trkpt lat="47.6175" lon="3.7417">
        <ele>114.05</ele>
        <time>2013-04-28T07:33:43Z</time>
      </trkpt>
      <trkpt lat="47.61736" lon="3.74185">
        <ele>115.5</ele>
        <time>2013-04-28T07:34:01Z</time>
      </trkpt>
      <trkpt lat="47.61723" lon="3.7419">
        <ele>115.98</ele>
        <time>2013-04-28T07:34:13Z</time>
      </trkpt>
      <trkpt lat="47.61699" lon="3.742">
        <ele>115.98</ele>
        <time>2013-04-28T07:34:31Z</time>
      </trkpt>
      <trkpt lat="47.61678" lon="3.7421">
        <ele>114.05</ele>
        <time>2013-04-28T07:34:50Z</time>
      </trkpt>
      <trkpt lat="47.6166" lon="3.74237">
        <ele>113.09</ele>
        <time>2013-04-28T07:35:11Z</time>
      </trkpt>
      <trkpt lat="47.61665" lon="3.74241">
        <ele>112.61</ele>
        <time>2013-04-28T07:35:24Z</time>
      </trkpt>
      <trkpt lat="47.6166" lon="3.74237">
        <ele>113.57</ele>
        <time>2013-04-28T07:35:32Z</time>
      </trkpt>
      <trkpt lat="47.61638" lon="3.7423">
        <ele>115.5</ele>
        <time>2013-04-28T07:35:46Z</time>
      </trkpt>
      <trkpt lat="47.61632" lon="3.7423">
        <ele>116.94</ele>
        <time>2013-04-28T07:35:51Z</time>
      </trkpt>
      <trkpt lat="47.61622" lon="3.74227">
        <ele>118.86</ele>
        <time>2013-04-28T07:35:59Z</time>
      </trkpt>
      <trkpt lat="47.61605" lon="3.7422">
        <ele>122.22</ele>
        <time>2013-04-28T07:36:15Z</time>
      </trkpt>
      <trkpt lat="47.61587" lon="3.7421">
        <ele>125.59</ele>
        <time>2013-04-28T07:36:30Z</time>
      </trkpt>
      <trkpt lat="47.61576" lon="3.74198">
        <ele>128.47</ele>
        <time>2013-04-28T07:36:46Z</time>
      </trkpt>
      <trkpt lat="47.61557" lon="3.74182">
        <ele>132.32</ele>
        <time>2013-04-28T07:37:03Z</time>
      </trkpt>
      <trkpt lat="47.61538" lon="3.74175">
        <ele>134.72</ele>
        <time>2013-04-28T07:37:21Z</time>
      </trkpt>
      <trkpt lat="47.61525" lon="3.74172">
        <ele>137.61</ele>
        <time>2013-04-28T07:37:32Z</time>
      </trkpt>
      <trkpt lat="47.61509" lon="3.74176">
        <ele>140.49</ele>
        <time>2013-04-28T07:37:49Z</time>
      </trkpt>
      <trkpt lat="47.61494" lon="3.74179">
        <ele>143.85</ele>
        <time>2013-04-28T07:38:05Z</time>
      </trkpt>
      <trkpt lat="47.6148" lon="3.74181">
        <ele>146.26</ele>
        <time>2013-04-28T07:38:21Z</time>
      </trkpt>
      <trkpt lat="47.61466" lon="3.74181">
        <ele>148.18</ele>
        <time>2013-04-28T07:38:37Z</time>
      </trkpt>
      <trkpt lat="47.61452" lon="3.74186">
        <ele>151.54</ele>
        <time>2013-04-28T07:38:52Z</time>
      </trkpt>
      <trkpt lat="47.6144" lon="3.74191">
        <ele>152.99</ele>
        <time>2013-04-28T07:39:05Z</time>
      </trkpt>
      <trkpt lat="47.61428" lon="3.74198">
        <ele>156.35</ele>
        <time>2013-04-28T07:39:23Z</time>
      </trkpt>
      <trkpt lat="47.61408" lon="3.74209">
        <ele>158.75</ele>
        <time>2013-04-28T07:39:42Z</time>
      </trkpt>
      <trkpt lat="47.61403" lon="3.74212">
        <ele>159.24</ele>
        <time>2013-04-28T07:39:47Z</time>
      </trkpt>
      <trkpt lat="47.61386" lon="3.74222">
        <ele>160.68</ele>
        <time>2013-04-28T07:40:04Z</time>
      </trkpt>
      <trkpt lat="47.61369" lon="3.74228">
        <ele>161.64</ele>
        <time>2013-04-28T07:40:20Z</time>
      </trkpt>
      <trkpt lat="47.6135" lon="3.74239">
        <ele>163.08</ele>
        <time>2013-04-28T07:40:35Z</time>
      </trkpt>
      <trkpt lat="47.61336" lon="3.74244">
        <ele>164.04</ele>
        <time>2013-04-28T07:40:49Z</time>
      </trkpt>
      <trkpt lat="47.61322" lon="3.74245">
        <ele>164.52</ele>
        <time>2013-04-28T07:41:01Z</time>
      </trkpt>
      <trkpt lat="47.61303" lon="3.74251">
        <ele>165.48</ele>
        <time>2013-04-28T07:41:17Z</time>
      </trkpt>
      <trkpt lat="47.6129" lon="3.74251">
        <ele>166.45</ele>
        <time>2013-04-28T07:41:30Z</time>
      </trkpt>
      <trkpt lat="47.6127" lon="3.74258">
        <ele>166.93</ele>
        <time>2013-04-28T07:41:46Z</time>
      </trkpt>
      <trkpt lat="47.61252" lon="3.74265">
        <ele>168.37</ele>
        <time>2013-04-28T07:42:01Z</time>
      </trkpt>
      <trkpt lat="47.61234" lon="3.74266">
        <ele>168.37</ele>
        <time>2013-04-28T07:42:17Z</time>
      </trkpt>
      <trkpt lat="47.61213" lon="3.74276">
        <ele>169.33</ele>
        <time>2013-04-28T07:42:34Z</time>
      </trkpt>
      <trkpt lat="47.61203" lon="3.74302">
        <ele>170.29</ele>
        <time>2013-04-28T07:42:48Z</time>
      </trkpt>
      <trkpt lat="47.61189" lon="3.74325">
        <ele>171.73</ele>
        <time>2013-04-28T07:43:05Z</time>
      </trkpt>
      <trkpt lat="47.61179" lon="3.74354">
        <ele>172.21</ele>
        <time>2013-04-28T07:43:22Z</time>
      </trkpt>
      <trkpt lat="47.61166" lon="3.74378">
        <ele>172.69</ele>
        <time>2013-04-28T07:43:39Z</time>
      </trkpt>
      <trkpt lat="47.61157" lon="3.74399">
        <ele>172.69</ele>
        <time>2013-04-28T07:43:56Z</time>
      </trkpt>
      <trkpt lat="47.61147" lon="3.74427">
        <ele>173.17</ele>
        <time>2013-04-28T07:44:11Z</time>
      </trkpt>
      <trkpt lat="47.61133" lon="3.74455">
        <ele>173.17</ele>
        <time>2013-04-28T07:44:27Z</time>
      </trkpt>
      <trkpt lat="47.61116" lon="3.74483">
        <ele>174.14</ele>
        <time>2013-04-28T07:44:46Z</time>
      </trkpt>
      <trkpt lat="47.61108" lon="3.74502">
        <ele>173.17</ele>
        <time>2013-04-28T07:45:00Z</time>
      </trkpt>
      <trkpt lat="47.61098" lon="3.74527">
        <ele>173.66</ele>
        <time>2013-04-28T07:45:15Z</time>
      </trkpt>
      <trkpt lat="47.61086" lon="3.74549">
        <ele>173.66</ele>
        <time>2013-04-28T07:45:30Z</time>
      </trkpt>
      <trkpt lat="47.61078" lon="3.74571">
        <ele>172.69</ele>
        <time>2013-04-28T07:45:44Z</time>
      </trkpt>
      <trkpt lat="47.61066" lon="3.74598">
        <ele>171.73</ele>
        <time>2013-04-28T07:45:59Z</time>
      </trkpt>
      <trkpt lat="47.61053" lon="3.74628">
        <ele>170.29</ele>
        <time>2013-04-28T07:46:14Z</time>
      </trkpt>
      <trkpt lat="47.61041" lon="3.74652">
        <ele>169.33</ele>
        <time>2013-04-28T07:46:29Z</time>
      </trkpt>
      <trkpt lat="47.6103" lon="3.74671">
        <ele>166.93</ele>
        <time>2013-04-28T07:46:42Z</time>
      </trkpt>
      <trkpt lat="47.61025" lon="3.7469">
        <ele>165</ele>
        <time>2013-04-28T07:46:58Z</time>
      </trkpt>
      <trkpt lat="47.61019" lon="3.74703">
        <ele>163.56</ele>
        <time>2013-04-28T07:47:17Z</time>
      </trkpt>
      <trkpt lat="47.61016" lon="3.74706">
        <ele>162.12</ele>
        <time>2013-04-28T07:47:34Z</time>
      </trkpt>
      <trkpt lat="47.61018" lon="3.74711">
        <ele>161.64</ele>
        <time>2013-04-28T07:47:56Z</time>
      </trkpt>
      <trkpt lat="47.61015" lon="3.7471">
        <ele>162.12</ele>
        <time>2013-04-28T07:48:08Z</time>
      </trkpt>
      <trkpt lat="47.61011" lon="3.74712">
        <ele>159.24</ele>
        <time>2013-04-28T07:48:28Z</time>
      </trkpt>
      <trkpt lat="47.61009" lon="3.74717">
        <ele>158.75</ele>
        <time>2013-04-28T07:48:38Z</time>
      </trkpt>
      <trkpt lat="47.61013" lon="3.7472">
        <ele>158.27</ele>
        <time>2013-04-28T07:48:59Z</time>
      </trkpt>
      <trkpt lat="47.61012" lon="3.74729">
        <ele>156.35</ele>
        <time>2013-04-28T07:49:22Z</time>
      </trkpt>
      <trkpt lat="47.61007" lon="3.74734">
        <ele>154.43</ele>
        <time>2013-04-28T07:49:43Z</time>
      </trkpt>
      <trkpt lat="47.61006" lon="3.74736">
        <ele>152.99</ele>
        <time>2013-04-28T07:50:06Z</time>
      </trkpt>
      <trkpt lat="47.61002" lon="3.74736">
        <ele>151.54</ele>
        <time>2013-04-28T07:50:29Z</time>
      </trkpt>
      <trkpt lat="47.61001" lon="3.74747">
        <ele>150.1</ele>
        <time>2013-04-28T07:50:50Z</time>
      </trkpt>
      <trkpt lat="47.60998" lon="3.74744">
        <ele>148.66</ele>
        <time>2013-04-28T07:51:15Z</time>
      </trkpt>
      <trkpt lat="47.60995" lon="3.7475">
        <ele>146.74</ele>
        <time>2013-04-28T07:51:37Z</time>
      </trkpt>
      <trkpt lat="47.60994" lon="3.74755">
        <ele>145.3</ele>
        <time>2013-04-28T07:51:58Z</time>
      </trkpt>
      <trkpt lat="47.60988" lon="3.74765">
        <ele>142.41</ele>
        <time>2013-04-28T07:52:19Z</time>
      </trkpt>
      <trkpt lat="47.60981" lon="3.74773">
        <ele>139.53</ele>
        <time>2013-04-28T07:52:39Z</time>
      </trkpt>
      <trkpt lat="47.60977" lon="3.74791">
        <ele>139.05</ele>
        <time>2013-04-28T07:52:58Z</time>
      </trkpt>
      <trkpt lat="47.60971" lon="3.74798">
        <ele>142.41</ele>
        <time>2013-04-28T07:53:07Z</time>
      </trkpt>
      <trkpt lat="47.60965" lon="3.74811">
        <ele>146.26</ele>
        <time>2013-04-28T07:53:19Z</time>
      </trkpt>
      <trkpt lat="47.60959" lon="3.74822">
        <ele>148.18</ele>
        <time>2013-04-28T07:53:28Z</time>
      </trkpt>
      <trkpt lat="47.6095" lon="3.74839">
        <ele>151.06</ele>
        <time>2013-04-28T07:53:45Z</time>
      </trkpt>
      <trkpt lat="47.60946" lon="3.7485">
        <ele>153.95</ele>
        <time>2013-04-28T07:53:55Z</time>
      </trkpt>
      <trkpt lat="47.6094" lon="3.74865">
        <ele>157.31</ele>
        <time>2013-04-28T07:54:09Z</time>
      </trkpt>
      <trkpt lat="47.60934" lon="3.74877">
        <ele>159.72</ele>
        <time>2013-04-28T07:54:25Z</time>
      </trkpt>
      <trkpt lat="47.60931" lon="3.74882">
        <ele>161.16</ele>
        <time>2013-04-28T07:54:31Z</time>
      </trkpt>
      <trkpt lat="47.60929" lon="3.74869">
        <ele>161.64</ele>
        <time>2013-04-28T07:54:53Z</time>
      </trkpt>
      <trkpt lat="47.60924" lon="3.74895">
        <ele>164.52</ele>
        <time>2013-04-28T07:55:09Z</time>
      </trkpt>
      <trkpt lat="47.60914" lon="3.74915">
        <ele>167.41</ele>
        <time>2013-04-28T07:55:24Z</time>
      </trkpt>
      <trkpt lat="47.60904" lon="3.74935">
        <ele>168.85</ele>
        <time>2013-04-28T07:55:41Z</time>
      </trkpt>
      <trkpt lat="47.60892" lon="3.74955">
        <ele>169.33</ele>
        <time>2013-04-28T07:55:57Z</time>
      </trkpt>
      <trkpt lat="47.60877" lon="3.74978">
        <ele>167.89</ele>
        <time>2013-04-28T07:56:15Z</time>
      </trkpt>
      <trkpt lat="47.60863" lon="3.74998">
        <ele>166.93</ele>
        <time>2013-04-28T07:56:32Z</time>
      </trkpt>
      <trkpt lat="47.60854" lon="3.75017">
        <ele>165.96</ele>
        <time>2013-04-28T07:56:48Z</time>
      </trkpt>
      <trkpt lat="47.60844" lon="3.75031">
        <ele>163.56</ele>
        <time>2013-04-28T07:57:03Z</time>
      </trkpt>
      <trkpt lat="47.60836" lon="3.75044">
        <ele>160.2</ele>
        <time>2013-04-28T07:57:15Z</time>
      </trkpt>
      <trkpt lat="47.60819" lon="3.75054">
        <ele>157.31</ele>
        <time>2013-04-28T07:57:31Z</time>
      </trkpt>
      <trkpt lat="47.60809" lon="3.75063">
        <ele>153.95</ele>
        <time>2013-04-28T07:57:42Z</time>
      </trkpt>
      <trkpt lat="47.60798" lon="3.75073">
        <ele>150.58</ele>
        <time>2013-04-28T07:57:56Z</time>
      </trkpt>
      <trkpt lat="47.60792" lon="3.75079">
        <ele>147.7</ele>
        <time>2013-04-28T07:58:04Z</time>
      </trkpt>
      <trkpt lat="47.60782" lon="3.75094">
        <ele>144.34</ele>
        <time>2013-04-28T07:58:15Z</time>
      </trkpt>
      <trkpt lat="47.60776" lon="3.75111">
        <ele>141.45</ele>
        <time>2013-04-28T07:58:27Z</time>
      </trkpt>
      <trkpt lat="47.60772" lon="3.75125">
        <ele>138.57</ele>
        <time>2013-04-28T07:58:39Z</time>
      </trkpt>
      <trkpt lat="47.60768" lon="3.75145">
        <ele>135.2</ele>
        <time>2013-04-28T07:58:54Z</time>
      </trkpt>
      <trkpt lat="47.60765" lon="3.75157">
        <ele>131.84</ele>
        <time>2013-04-28T07:59:06Z</time>
      </trkpt>
      <trkpt lat="47.60767" lon="3.75166">
        <ele>128.95</ele>
        <time>2013-04-28T07:59:18Z</time>
      </trkpt>
      <trkpt lat="47.60762" lon="3.75192">
        <ele>125.59</ele>
        <time>2013-04-28T07:59:30Z</time>
      </trkpt>
      <trkpt lat="47.60751" lon="3.75214">
        <ele>124.15</ele>
        <time>2013-04-28T07:59:46Z</time>
      </trkpt>
      <trkpt lat="47.60732" lon="3.7523">
        <ele>122.71</ele>
        <time>2013-04-28T08:00:01Z</time>
      </trkpt>
      <trkpt lat="47.60728" lon="3.75234">
        <ele>122.71</ele>
        <time>2013-04-28T08:00:06Z</time>
      </trkpt>
      <trkpt lat="47.60709" lon="3.75245">
        <ele>120.78</ele>
        <time>2013-04-28T08:00:23Z</time>
      </trkpt>
      <trkpt lat="47.60705" lon="3.75262">
        <ele>119.82</ele>
        <time>2013-04-28T08:00:37Z</time>
      </trkpt>
      <trkpt lat="47.60711" lon="3.75283">
        <ele>117.9</ele>
        <time>2013-04-28T08:00:51Z</time>
      </trkpt>
      <trkpt lat="47.6072" lon="3.75303">
        <ele>114.53</ele>
        <time>2013-04-28T08:01:06Z</time>
      </trkpt>
      <trkpt lat="47.60719" lon="3.75331">
        <ele>112.61</ele>
        <time>2013-04-28T08:01:21Z</time>
      </trkpt>
      <trkpt lat="47.60706" lon="3.75342">
        <ele>113.09</ele>
        <time>2013-04-28T08:01:35Z</time>
      </trkpt>
      <trkpt lat="47.60685" lon="3.75366">
        <ele>111.65</ele>
        <time>2013-04-28T08:01:55Z</time>
      </trkpt>
      <trkpt lat="47.60664" lon="3.75384">
        <ele>112.13</ele>
        <time>2013-04-28T08:02:13Z</time>
      </trkpt>
      <trkpt lat="47.60639" lon="3.75405">
        <ele>112.61</ele>
        <time>2013-04-28T08:02:31Z</time>
      </trkpt>
      <trkpt lat="47.60615" lon="3.75426">
        <ele>112.61</ele>
        <time>2013-04-28T08:02:49Z</time>
      </trkpt>
      <trkpt lat="47.60592" lon="3.75445">
        <ele>113.57</ele>
        <time>2013-04-28T08:03:07Z</time>
      </trkpt>
      <trkpt lat="47.60569" lon="3.75464">
        <ele>113.57</ele>
        <time>2013-04-28T08:03:26Z</time>
      </trkpt>
      <trkpt lat="47.60545" lon="3.7548">
        <ele>113.09</ele>
        <time>2013-04-28T08:03:45Z</time>
      </trkpt>
      <trkpt lat="47.60521" lon="3.75491">
        <ele>114.05</ele>
        <time>2013-04-28T08:04:03Z</time>
      </trkpt>
      <trkpt lat="47.60493" lon="3.75498">
        <ele>114.05</ele>
        <time>2013-04-28T08:04:23Z</time>
      </trkpt>
      <trkpt lat="47.60475" lon="3.75503">
        <ele>114.53</ele>
        <time>2013-04-28T08:04:39Z</time>
      </trkpt>
      <trkpt lat="47.60451" lon="3.75503">
        <ele>115.5</ele>
        <time>2013-04-28T08:04:57Z</time>
      </trkpt>
      <trkpt lat="47.60432" lon="3.75505">
        <ele>116.46</ele>
        <time>2013-04-28T08:05:12Z</time>
      </trkpt>
      <trkpt lat="47.6042" lon="3.7551">
        <ele>117.42</ele>
        <time>2013-04-28T08:05:27Z</time>
      </trkpt>
      <trkpt lat="47.60414" lon="3.75506">
        <ele>117.9</ele>
        <time>2013-04-28T08:05:43Z</time>
      </trkpt>
      <trkpt lat="47.60416" lon="3.75503">
        <ele>117.9</ele>
        <time>2013-04-28T08:05:56Z</time>
      </trkpt>
      <trkpt lat="47.60412" lon="3.75507">
        <ele>117.9</ele>
        <time>2013-04-28T08:06:18Z</time>
      </trkpt>
      <trkpt lat="47.60412" lon="3.75508">
        <ele>118.86</ele>
        <time>2013-04-28T08:06:35Z</time>
      </trkpt>
      <trkpt lat="47.6041" lon="3.75505">
        <ele>118.38</ele>
        <time>2013-04-28T08:06:55Z</time>
      </trkpt>
      <trkpt lat="47.60408" lon="3.75509">
        <ele>119.34</ele>
        <time>2013-04-28T08:07:11Z</time>
      </trkpt>
      <trkpt lat="47.60409" lon="3.75508">
        <ele>118.86</ele>
        <time>2013-04-28T08:07:26Z</time>
      </trkpt>
      <trkpt lat="47.60413" lon="3.75514">
        <ele>118.86</ele>
        <time>2013-04-28T08:07:38Z</time>
      </trkpt>
      <trkpt lat="47.60412" lon="3.75514">
        <ele>119.82</ele>
        <time>2013-04-28T08:07:50Z</time>
      </trkpt>
      <trkpt lat="47.6041" lon="3.75509">
        <ele>118.38</ele>
        <time>2013-04-28T08:08:09Z</time>
      </trkpt>
      <trkpt lat="47.60406" lon="3.75505">
        <ele>119.34</ele>
        <time>2013-04-28T08:08:24Z</time>
      </trkpt>
      <trkpt lat="47.60408" lon="3.75515">
        <ele>119.34</ele>
        <time>2013-04-28T08:08:39Z</time>
      </trkpt>
      <trkpt lat="47.60412" lon="3.75516">
        <ele>119.82</ele>
        <time>2013-04-28T08:08:58Z</time>
      </trkpt>
      <trkpt lat="47.60414" lon="3.75515">
        <ele>119.34</ele>
        <time>2013-04-28T08:09:17Z</time>
      </trkpt>
      <trkpt lat="47.60407" lon="3.75513">
        <ele>119.82</ele>
        <time>2013-04-28T08:09:38Z</time>
      </trkpt>
      <trkpt lat="47.60407" lon="3.75511">
        <ele>119.82</ele>
        <time>2013-04-28T08:09:52Z</time>
      </trkpt>
      <trkpt lat="47.60411" lon="3.75514">
        <ele>119.34</ele>
        <time>2013-04-28T08:10:08Z</time>
      </trkpt>
      <trkpt lat="47.60409" lon="3.75517">
        <ele>119.34</ele>
        <time>2013-04-28T08:10:29Z</time>
      </trkpt>
      <trkpt lat="47.60409" lon="3.75515">
        <ele>120.3</ele>
        <time>2013-04-28T08:10:49Z</time>
      </trkpt>
      <trkpt lat="47.60413" lon="3.75516">
        <ele>119.82</ele>
        <time>2013-04-28T08:11:07Z</time>
      </trkpt>
      <trkpt lat="47.60409" lon="3.75512">
        <ele>120.78</ele>
        <time>2013-04-28T08:11:22Z</time>
      </trkpt>
      <trkpt lat="47.60409" lon="3.75513">
        <ele>119.82</ele>
        <time>2013-04-28T08:11:37Z</time>
      </trkpt>
      <trkpt lat="47.60408" lon="3.75516">
        <ele>120.3</ele>
        <time>2013-04-28T08:11:51Z</time>
      </trkpt>
      <trkpt lat="47.60415" lon="3.75508">
        <ele>119.34</ele>
        <time>2013-04-28T08:12:02Z</time>
      </trkpt>
      <trkpt lat="47.60433" lon="3.75497">
        <ele>118.86</ele>
        <time>2013-04-28T08:12:17Z</time>
      </trkpt>
      <trkpt lat="47.60452" lon="3.7548">
        <ele>120.3</ele>
        <time>2013-04-28T08:12:34Z</time>
      </trkpt>
      <trkpt lat="47.60453" lon="3.75475">
        <ele>121.26</ele>
        <time>2013-04-28T08:12:37Z</time>
      </trkpt>
      <trkpt lat="47.60453" lon="3.75466">
        <ele>121.26</ele>
        <time>2013-04-28T08:12:43Z</time>
      </trkpt>
      <trkpt lat="47.60446" lon="3.75444">
        <ele>123.67</ele>
        <time>2013-04-28T08:12:59Z</time>
      </trkpt>
      <trkpt lat="47.60446" lon="3.75443">
        <ele>122.71</ele>
        <time>2013-04-28T08:13:00Z</time>
      </trkpt>
      <trkpt lat="47.60444" lon="3.75414">
        <ele>124.15</ele>
        <time>2013-04-28T08:13:14Z</time>
      </trkpt>
      <trkpt lat="47.60444" lon="3.75409">
        <ele>124.15</ele>
        <time>2013-04-28T08:13:17Z</time>
      </trkpt>
      <trkpt lat="47.60438" lon="3.75378">
        <ele>126.07</ele>
        <time>2013-04-28T08:13:33Z</time>
      </trkpt>
      <trkpt lat="47.60433" lon="3.75349">
        <ele>127.99</ele>
        <time>2013-04-28T08:13:49Z</time>
      </trkpt>
      <trkpt lat="47.60429" lon="3.75324">
        <ele>128.95</ele>
        <time>2013-04-28T08:14:03Z</time>
      </trkpt>
      <trkpt lat="47.60414" lon="3.753">
        <ele>129.92</ele>
        <time>2013-04-28T08:14:19Z</time>
      </trkpt>
      <trkpt lat="47.60394" lon="3.75294">
        <ele>129.43</ele>
        <time>2013-04-28T08:14:34Z</time>
      </trkpt>
      <trkpt lat="47.60376" lon="3.75306">
        <ele>129.43</ele>
        <time>2013-04-28T08:14:49Z</time>
      </trkpt>
      <trkpt lat="47.60357" lon="3.75318">
        <ele>130.4</ele>
        <time>2013-04-28T08:15:03Z</time>
      </trkpt>
      <trkpt lat="47.60346" lon="3.75325">
        <ele>130.88</ele>
        <time>2013-04-28T08:15:12Z</time>
      </trkpt>
      <trkpt lat="47.60325" lon="3.75339">
        <ele>130.88</ele>
        <time>2013-04-28T08:15:28Z</time>
      </trkpt>
      <trkpt lat="47.60303" lon="3.75351">
        <ele>131.36</ele>
        <time>2013-04-28T08:15:45Z</time>
      </trkpt>
      <trkpt lat="47.60274" lon="3.75367">
        <ele>130.88</ele>
        <time>2013-04-28T08:16:05Z</time>
      </trkpt>
      <trkpt lat="47.60252" lon="3.7538">
        <ele>132.32</ele>
        <time>2013-04-28T08:16:22Z</time>
      </trkpt>
      <trkpt lat="47.60231" lon="3.75399">
        <ele>133.28</ele>
        <time>2013-04-28T08:16:39Z</time>
      </trkpt>
      <trkpt lat="47.6021" lon="3.75422">
        <ele>134.72</ele>
        <time>2013-04-28T08:16:57Z</time>
      </trkpt>
      <trkpt lat="47.60201" lon="3.75433">
        <ele>134.72</ele>
        <time>2013-04-28T08:17:06Z</time>
      </trkpt>
      <trkpt lat="47.60196" lon="3.75439">
        <ele>134.24</ele>
        <time>2013-04-28T08:17:11Z</time>
      </trkpt>
      <trkpt lat="47.60192" lon="3.75442">
        <ele>133.76</ele>
        <time>2013-04-28T08:17:14Z</time>
      </trkpt>
      <trkpt lat="47.60177" lon="3.75465">
        <ele>132.8</ele>
        <time>2013-04-28T08:17:31Z</time>
      </trkpt>
      <trkpt lat="47.60169" lon="3.75491">
        <ele>130.4</ele>
        <time>2013-04-28T08:17:47Z</time>
      </trkpt>
      <trkpt lat="47.60161" lon="3.75505">
        <ele>128.95</ele>
        <time>2013-04-28T08:17:56Z</time>
      </trkpt>
      <trkpt lat="47.6016" lon="3.75508">
        <ele>128.47</ele>
        <time>2013-04-28T08:17:58Z</time>
      </trkpt>
      <trkpt lat="47.60152" lon="3.75518">
        <ele>127.03</ele>
        <time>2013-04-28T08:18:06Z</time>
      </trkpt>
      <trkpt lat="47.6013" lon="3.75532">
        <ele>127.51</ele>
        <time>2013-04-28T08:18:22Z</time>
      </trkpt>
      <trkpt lat="47.60111" lon="3.75547">
        <ele>128.95</ele>
        <time>2013-04-28T08:18:38Z</time>
      </trkpt>
      <trkpt lat="47.60092" lon="3.75575">
        <ele>129.92</ele>
        <time>2013-04-28T08:18:55Z</time>
      </trkpt>
      <trkpt lat="47.60091" lon="3.75579">
        <ele>129.92</ele>
        <time>2013-04-28T08:18:57Z</time>
      </trkpt>
      <trkpt lat="47.60092" lon="3.75597">
        <ele>130.4</ele>
        <time>2013-04-28T08:19:07Z</time>
      </trkpt>
      <trkpt lat="47.60106" lon="3.75611">
        <ele>128.95</ele>
        <time>2013-04-28T08:19:21Z</time>
      </trkpt>
      <trkpt lat="47.60112" lon="3.75627">
        <ele>127.51</ele>
        <time>2013-04-28T08:19:34Z</time>
      </trkpt>
      <trkpt lat="47.60094" lon="3.75648">
        <ele>130.88</ele>
        <time>2013-04-28T08:19:52Z</time>
      </trkpt>
      <trkpt lat="47.6008" lon="3.75666">
        <ele>131.84</ele>
        <time>2013-04-28T08:20:08Z</time>
      </trkpt>
      <trkpt lat="47.60067" lon="3.75675">
        <ele>133.28</ele>
        <time>2013-04-28T08:20:20Z</time>
      </trkpt>
      <trkpt lat="47.60046" lon="3.75692">
        <ele>134.72</ele>
        <time>2013-04-28T08:20:36Z</time>
      </trkpt>
      <trkpt lat="47.6003" lon="3.75705">
        <ele>135.2</ele>
        <time>2013-04-28T08:20:50Z</time>
      </trkpt>
      <trkpt lat="47.60009" lon="3.75725">
        <ele>135.2</ele>
        <time>2013-04-28T08:21:07Z</time>
      </trkpt>
      <trkpt lat="47.59994" lon="3.75747">
        <ele>133.28</ele>
        <time>2013-04-28T08:21:23Z</time>
      </trkpt>
      <trkpt lat="47.59982" lon="3.75757">
        <ele>132.8</ele>
        <time>2013-04-28T08:21:38Z</time>
      </trkpt>
      <trkpt lat="47.59964" lon="3.7577">
        <ele>130.88</ele>
        <time>2013-04-28T08:21:55Z</time>
      </trkpt>
      <trkpt lat="47.59933" lon="3.75797">
        <ele>128.47</ele>
        <time>2013-04-28T08:22:13Z</time>
      </trkpt>
      <trkpt lat="47.59916" lon="3.75809">
        <ele>125.11</ele>
        <time>2013-04-28T08:22:30Z</time>
      </trkpt>
      <trkpt lat="47.59903" lon="3.75811">
        <ele>124.63</ele>
        <time>2013-04-28T08:22:44Z</time>
      </trkpt>
      <trkpt lat="47.59895" lon="3.75814">
        <ele>124.15</ele>
        <time>2013-04-28T08:22:51Z</time>
      </trkpt>
      <trkpt lat="47.59872" lon="3.75811">
        <ele>127.51</ele>
        <time>2013-04-28T08:23:07Z</time>
      </trkpt>
      <trkpt lat="47.59861" lon="3.75813">
        <ele>128.95</ele>
        <time>2013-04-28T08:23:20Z</time>
      </trkpt>
      <trkpt lat="47.59852" lon="3.75826">
        <ele>131.84</ele>
        <time>2013-04-28T08:23:35Z</time>
      </trkpt>
      <trkpt lat="47.59841" lon="3.7585">
        <ele>134.24</ele>
        <time>2013-04-28T08:23:49Z</time>
      </trkpt>
      <trkpt lat="47.59827" lon="3.75875">
        <ele>136.64</ele>
        <time>2013-04-28T08:24:07Z</time>
      </trkpt>
      <trkpt lat="47.59821" lon="3.7588">
        <ele>137.13</ele>
        <time>2013-04-28T08:24:14Z</time>
      </trkpt>
      <trkpt lat="47.59816" lon="3.75888">
        <ele>138.09</ele>
        <time>2013-04-28T08:24:19Z</time>
      </trkpt>
      <trkpt lat="47.59803" lon="3.75905">
        <ele>140.01</ele>
        <time>2013-04-28T08:24:35Z</time>
      </trkpt>
      <trkpt lat="47.59787" lon="3.75921">
        <ele>141.93</ele>
        <time>2013-04-28T08:24:49Z</time>
      </trkpt>
      <trkpt lat="47.59777" lon="3.75929">
        <ele>142.89</ele>
        <time>2013-04-28T08:25:01Z</time>
      </trkpt>
      <trkpt lat="47.59767" lon="3.75943">
        <ele>144.34</ele>
        <time>2013-04-28T08:25:12Z</time>
      </trkpt>
      <trkpt lat="47.59752" lon="3.75953">
        <ele>145.78</ele>
        <time>2013-04-28T08:25:26Z</time>
      </trkpt>
      <trkpt lat="47.59731" lon="3.75969">
        <ele>146.74</ele>
        <time>2013-04-28T08:25:43Z</time>
      </trkpt>
      <trkpt lat="47.59719" lon="3.75988">
        <ele>148.18</ele>
        <time>2013-04-28T08:25:57Z</time>
      </trkpt>
      <trkpt lat="47.59703" lon="3.7601">
        <ele>148.18</ele>
        <time>2013-04-28T08:26:14Z</time>
      </trkpt>
      <trkpt lat="47.59699" lon="3.76014">
        <ele>148.18</ele>
        <time>2013-04-28T08:26:17Z</time>
      </trkpt>
      <trkpt lat="47.59695" lon="3.76021">
        <ele>148.18</ele>
        <time>2013-04-28T08:26:21Z</time>
      </trkpt>
      <trkpt lat="47.59692" lon="3.76025">
        <ele>148.66</ele>
        <time>2013-04-28T08:26:24Z</time>
      </trkpt>
      <trkpt lat="47.5967" lon="3.76041">
        <ele>150.58</ele>
        <time>2013-04-28T08:26:42Z</time>
      </trkpt>
      <trkpt lat="47.59654" lon="3.76031">
        <ele>153.47</ele>
        <time>2013-04-28T08:26:56Z</time>
      </trkpt>
      <trkpt lat="47.59637" lon="3.76013">
        <ele>156.35</ele>
        <time>2013-04-28T08:27:16Z</time>
      </trkpt>
      <trkpt lat="47.59618" lon="3.75997">
        <ele>159.24</ele>
        <time>2013-04-28T08:27:33Z</time>
      </trkpt>
      <trkpt lat="47.59602" lon="3.75995">
        <ele>161.64</ele>
        <time>2013-04-28T08:27:49Z</time>
      </trkpt>
      <trkpt lat="47.59596" lon="3.75994">
        <ele>162.6</ele>
        <time>2013-04-28T08:27:53Z</time>
      </trkpt>
      <trkpt lat="47.59576" lon="3.75988">
        <ele>165.48</ele>
        <time>2013-04-28T08:28:10Z</time>
      </trkpt>
      <trkpt lat="47.59557" lon="3.75983">
        <ele>166.93</ele>
        <time>2013-04-28T08:28:26Z</time>
      </trkpt>
      <trkpt lat="47.59536" lon="3.75976">
        <ele>168.37</ele>
        <time>2013-04-28T08:28:43Z</time>
      </trkpt>
      <trkpt lat="47.59517" lon="3.75967">
        <ele>171.25</ele>
        <time>2013-04-28T08:29:00Z</time>
      </trkpt>
      <trkpt lat="47.59498" lon="3.75953">
        <ele>172.69</ele>
        <time>2013-04-28T08:29:16Z</time>
      </trkpt>
      <trkpt lat="47.59481" lon="3.7594">
        <ele>175.1</ele>
        <time>2013-04-28T08:29:31Z</time>
      </trkpt>
      <trkpt lat="47.59466" lon="3.75922">
        <ele>176.54</ele>
        <time>2013-04-28T08:29:47Z</time>
      </trkpt>
      <trkpt lat="47.59446" lon="3.75901">
        <ele>178.94</ele>
        <time>2013-04-28T08:30:06Z</time>
      </trkpt>
      <trkpt lat="47.59437" lon="3.75893">
        <ele>179.42</ele>
        <time>2013-04-28T08:30:14Z</time>
      </trkpt>
      <trkpt lat="47.59417" lon="3.75879">
        <ele>180.38</ele>
        <time>2013-04-28T08:30:32Z</time>
      </trkpt>
      <trkpt lat="47.59395" lon="3.75861">
        <ele>181.83</ele>
        <time>2013-04-28T08:30:50Z</time>
      </trkpt>
      <trkpt lat="47.59375" lon="3.75845">
        <ele>183.27</ele>
        <time>2013-04-28T08:31:09Z</time>
      </trkpt>
      <trkpt lat="47.59356" lon="3.75825">
        <ele>184.23</ele>
        <time>2013-04-28T08:31:25Z</time>
      </trkpt>
      <trkpt lat="47.59339" lon="3.75809">
        <ele>184.23</ele>
        <time>2013-04-28T08:31:41Z</time>
      </trkpt>
      <trkpt lat="47.5932" lon="3.75795">
        <ele>185.67</ele>
        <time>2013-04-28T08:31:57Z</time>
      </trkpt>
      <trkpt lat="47.59296" lon="3.75781">
        <ele>186.15</ele>
        <time>2013-04-28T08:32:15Z</time>
      </trkpt>
      <trkpt lat="47.59274" lon="3.75771">
        <ele>186.63</ele>
        <time>2013-04-28T08:32:32Z</time>
      </trkpt>
      <trkpt lat="47.59252" lon="3.75753">
        <ele>186.15</ele>
        <time>2013-04-28T08:32:50Z</time>
      </trkpt>
      <trkpt lat="47.59249" lon="3.75749">
        <ele>186.63</ele>
        <time>2013-04-28T08:32:53Z</time>
      </trkpt>
      <trkpt lat="47.59243" lon="3.75744">
        <ele>186.63</ele>
        <time>2013-04-28T08:32:58Z</time>
      </trkpt>
      <trkpt lat="47.59225" lon="3.75719">
        <ele>186.63</ele>
        <time>2013-04-28T08:33:15Z</time>
      </trkpt>
      <trkpt lat="47.5921" lon="3.75695">
        <ele>186.63</ele>
        <time>2013-04-28T08:33:32Z</time>
      </trkpt>
      <trkpt lat="47.59192" lon="3.75669">
        <ele>188.08</ele>
        <time>2013-04-28T08:33:51Z</time>
      </trkpt>
      <trkpt lat="47.59182" lon="3.75653">
        <ele>188.08</ele>
        <time>2013-04-28T08:34:02Z</time>
      </trkpt>
      <trkpt lat="47.59167" lon="3.75628">
        <ele>188.08</ele>
        <time>2013-04-28T08:34:20Z</time>
      </trkpt>
      <trkpt lat="47.59149" lon="3.756">
        <ele>189.04</ele>
        <time>2013-04-28T08:34:38Z</time>
      </trkpt>
      <trkpt lat="47.59135" lon="3.75572">
        <ele>188.56</ele>
        <time>2013-04-28T08:34:55Z</time>
      </trkpt>
      <trkpt lat="47.59117" lon="3.75534">
        <ele>189.52</ele>
        <time>2013-04-28T08:35:16Z</time>
      </trkpt>
      <trkpt lat="47.59107" lon="3.75503">
        <ele>189.52</ele>
        <time>2013-04-28T08:35:34Z</time>
      </trkpt>
      <trkpt lat="47.59102" lon="3.75468">
        <ele>190</ele>
        <time>2013-04-28T08:35:51Z</time>
      </trkpt>
      <trkpt lat="47.59096" lon="3.75431">
        <ele>190</ele>
        <time>2013-04-28T08:36:07Z</time>
      </trkpt>
      <trkpt lat="47.59097" lon="3.75394">
        <ele>190</ele>
        <time>2013-04-28T08:36:26Z</time>
      </trkpt>
      <trkpt lat="47.59097" lon="3.75357">
        <ele>189.52</ele>
        <time>2013-04-28T08:36:45Z</time>
      </trkpt>
      <trkpt lat="47.59097" lon="3.75327">
        <ele>190.48</ele>
        <time>2013-04-28T08:37:01Z</time>
      </trkpt>
      <trkpt lat="47.59093" lon="3.75321">
        <ele>190.96</ele>
        <time>2013-04-28T08:37:05Z</time>
      </trkpt>
      <trkpt lat="47.5909" lon="3.75322">
        <ele>190.96</ele>
        <time>2013-04-28T08:37:07Z</time>
      </trkpt>
      <trkpt lat="47.59067" lon="3.7533">
        <ele>192.4</ele>
        <time>2013-04-28T08:37:26Z</time>
      </trkpt>
      <trkpt lat="47.59044" lon="3.75332">
        <ele>192.88</ele>
        <time>2013-04-28T08:37:43Z</time>
      </trkpt>
      <trkpt lat="47.59024" lon="3.75334">
        <ele>193.36</ele>
        <time>2013-04-28T08:37:59Z</time>
      </trkpt>
      <trkpt lat="47.59" lon="3.75346">
        <ele>192.4</ele>
        <time>2013-04-28T08:38:18Z</time>
      </trkpt>
      <trkpt lat="47.58984" lon="3.75353">
        <ele>192.4</ele>
        <time>2013-04-28T08:38:30Z</time>
      </trkpt>
      <trkpt lat="47.58975" lon="3.75356">
        <ele>191.44</ele>
        <time>2013-04-28T08:38:37Z</time>
      </trkpt>
      <trkpt lat="47.58966" lon="3.7536">
        <ele>191.92</ele>
        <time>2013-04-28T08:38:45Z</time>
      </trkpt>
      <trkpt lat="47.58943" lon="3.75368">
        <ele>190.96</ele>
        <time>2013-04-28T08:39:03Z</time>
      </trkpt>
      <trkpt lat="47.58936" lon="3.75368">
        <ele>190.48</ele>
        <time>2013-04-28T08:39:09Z</time>
      </trkpt>
      <trkpt lat="47.58928" lon="3.7537">
        <ele>190.48</ele>
        <time>2013-04-28T08:39:15Z</time>
      </trkpt>
      <trkpt lat="47.58906" lon="3.75372">
        <ele>189.04</ele>
        <time>2013-04-28T08:39:32Z</time>
      </trkpt>
      <trkpt lat="47.58881" lon="3.75373">
        <ele>189.04</ele>
        <time>2013-04-28T08:39:49Z</time>
      </trkpt>
      <trkpt lat="47.58869" lon="3.7537">
        <ele>189.04</ele>
        <time>2013-04-28T08:39:58Z</time>
      </trkpt>
      <trkpt lat="47.58858" lon="3.7537">
        <ele>188.08</ele>
        <time>2013-04-28T08:40:05Z</time>
      </trkpt>
      <trkpt lat="47.58837" lon="3.75367">
        <ele>187.59</ele>
        <time>2013-04-28T08:40:21Z</time>
      </trkpt>
      <trkpt lat="47.58821" lon="3.75364">
        <ele>188.08</ele>
        <time>2013-04-28T08:40:34Z</time>
      </trkpt>
      <trkpt lat="47.58801" lon="3.75374">
        <ele>190.48</ele>
        <time>2013-04-28T08:40:51Z</time>
      </trkpt>
      <trkpt lat="47.58794" lon="3.75379">
        <ele>191.44</ele>
        <time>2013-04-28T08:40:56Z</time>
      </trkpt>
      <trkpt lat="47.58781" lon="3.75387">
        <ele>194.32</ele>
        <time>2013-04-28T08:41:09Z</time>
      </trkpt>
      <trkpt lat="47.58762" lon="3.754">
        <ele>197.21</ele>
        <time>2013-04-28T08:41:29Z</time>
      </trkpt>
      <trkpt lat="47.58751" lon="3.75417">
        <ele>201.05</ele>
        <time>2013-04-28T08:41:46Z</time>
      </trkpt>
      <trkpt lat="47.58742" lon="3.75435">
        <ele>202.98</ele>
        <time>2013-04-28T08:42:04Z</time>
      </trkpt>
      <trkpt lat="47.58734" lon="3.75444">
        <ele>205.86</ele>
        <time>2013-04-28T08:42:15Z</time>
      </trkpt>
      <trkpt lat="47.58731" lon="3.7545">
        <ele>207.3</ele>
        <time>2013-04-28T08:42:23Z</time>
      </trkpt>
      <trkpt lat="47.58718" lon="3.75455">
        <ele>210.67</ele>
        <time>2013-04-28T08:42:37Z</time>
      </trkpt>
      <trkpt lat="47.58706" lon="3.75462">
        <ele>214.03</ele>
        <time>2013-04-28T08:42:52Z</time>
      </trkpt>
      <trkpt lat="47.5869" lon="3.75461">
        <ele>216.91</ele>
        <time>2013-04-28T08:43:09Z</time>
      </trkpt>
      <trkpt lat="47.58679" lon="3.75463">
        <ele>218.84</ele>
        <time>2013-04-28T08:43:22Z</time>
      </trkpt>
      <trkpt lat="47.58665" lon="3.75462">
        <ele>221.24</ele>
        <time>2013-04-28T08:43:38Z</time>
      </trkpt>
      <trkpt lat="47.58652" lon="3.75459">
        <ele>223.16</ele>
        <time>2013-04-28T08:43:55Z</time>
      </trkpt>
      <trkpt lat="47.58639" lon="3.75459">
        <ele>225.09</ele>
        <time>2013-04-28T08:44:09Z</time>
      </trkpt>
      <trkpt lat="47.58624" lon="3.7546">
        <ele>226.53</ele>
        <time>2013-04-28T08:44:23Z</time>
      </trkpt>
      <trkpt lat="47.58606" lon="3.75459">
        <ele>227.01</ele>
        <time>2013-04-28T08:44:38Z</time>
      </trkpt>
      <trkpt lat="47.58588" lon="3.75456">
        <ele>227.49</ele>
        <time>2013-04-28T08:44:53Z</time>
      </trkpt>
      <trkpt lat="47.58572" lon="3.75452">
        <ele>227.97</ele>
        <time>2013-04-28T08:45:07Z</time>
      </trkpt>
      <trkpt lat="47.58555" lon="3.75449">
        <ele>229.89</ele>
        <time>2013-04-28T08:45:22Z</time>
      </trkpt>
      <trkpt lat="47.58539" lon="3.75442">
        <ele>228.93</ele>
        <time>2013-04-28T08:45:34Z</time>
      </trkpt>
      <trkpt lat="47.58522" lon="3.75438">
        <ele>230.85</ele>
        <time>2013-04-28T08:45:47Z</time>
      </trkpt>
      <trkpt lat="47.58505" lon="3.7543">
        <ele>229.41</ele>
        <time>2013-04-28T08:45:58Z</time>
      </trkpt>
      <trkpt lat="47.58499" lon="3.75427">
        <ele>229.89</ele>
        <time>2013-04-28T08:46:02Z</time>
      </trkpt>
      <trkpt lat="47.58476" lon="3.75423">
        <ele>228.93</ele>
        <time>2013-04-28T08:46:18Z</time>
      </trkpt>
      <trkpt lat="47.58456" lon="3.75427">
        <ele>228.45</ele>
        <time>2013-04-28T08:46:33Z</time>
      </trkpt>
      <trkpt lat="47.58442" lon="3.7543">
        <ele>227.97</ele>
        <time>2013-04-28T08:46:45Z</time>
      </trkpt>
      <trkpt lat="47.58438" lon="3.75431">
        <ele>228.45</ele>
        <time>2013-04-28T08:46:48Z</time>
      </trkpt>
      <trkpt lat="47.58417" lon="3.75431">
        <ele>228.45</ele>
        <time>2013-04-28T08:47:03Z</time>
      </trkpt>
      <trkpt lat="47.58404" lon="3.75433">
        <ele>227.97</ele>
        <time>2013-04-28T08:47:13Z</time>
      </trkpt>
      <trkpt lat="47.58399" lon="3.75435">
        <ele>227.49</ele>
        <time>2013-04-28T08:47:16Z</time>
      </trkpt>
      <trkpt lat="47.58377" lon="3.75443">
        <ele>227.49</ele>
        <time>2013-04-28T08:47:32Z</time>
      </trkpt>
      <trkpt lat="47.58362" lon="3.75452">
        <ele>228.45</ele>
        <time>2013-04-28T08:47:44Z</time>
      </trkpt>
      <trkpt lat="47.58342" lon="3.75471">
        <ele>227.97</ele>
        <time>2013-04-28T08:48:00Z</time>
      </trkpt>
      <trkpt lat="47.58329" lon="3.75484">
        <ele>227.01</ele>
        <time>2013-04-28T08:48:12Z</time>
      </trkpt>
      <trkpt lat="47.58316" lon="3.75519">
        <ele>226.05</ele>
        <time>2013-04-28T08:48:29Z</time>
      </trkpt>
      <trkpt lat="47.58307" lon="3.75541">
        <ele>226.05</ele>
        <time>2013-04-28T08:48:43Z</time>
      </trkpt>
      <trkpt lat="47.58302" lon="3.75563">
        <ele>226.53</ele>
        <time>2013-04-28T08:48:57Z</time>
      </trkpt>
      <trkpt lat="47.58296" lon="3.75584">
        <ele>226.53</ele>
        <time>2013-04-28T08:49:12Z</time>
      </trkpt>
      <trkpt lat="47.5829" lon="3.75603">
        <ele>226.53</ele>
        <time>2013-04-28T08:49:25Z</time>
      </trkpt>
      <trkpt lat="47.58284" lon="3.7562">
        <ele>226.53</ele>
        <time>2013-04-28T08:49:35Z</time>
      </trkpt>
      <trkpt lat="47.5827" lon="3.75644">
        <ele>227.97</ele>
        <time>2013-04-28T08:49:54Z</time>
      </trkpt>
      <trkpt lat="47.58256" lon="3.75658">
        <ele>228.93</ele>
        <time>2013-04-28T08:50:09Z</time>
      </trkpt>
      <trkpt lat="47.58248" lon="3.75663">
        <ele>228.45</ele>
        <time>2013-04-28T08:50:16Z</time>
      </trkpt>
      <trkpt lat="47.58231" lon="3.75685">
        <ele>226.53</ele>
        <time>2013-04-28T08:50:34Z</time>
      </trkpt>
      <trkpt lat="47.58216" lon="3.757">
        <ele>225.57</ele>
        <time>2013-04-28T08:50:50Z</time>
      </trkpt>
      <trkpt lat="47.58203" lon="3.75711">
        <ele>223.64</ele>
        <time>2013-04-28T08:51:01Z</time>
      </trkpt>
      <trkpt lat="47.58197" lon="3.75717">
        <ele>222.68</ele>
        <time>2013-04-28T08:51:05Z</time>
      </trkpt>
      <trkpt lat="47.58185" lon="3.75732">
        <ele>221.24</ele>
        <time>2013-04-28T08:51:19Z</time>
      </trkpt>
      <trkpt lat="47.58178" lon="3.75743">
        <ele>219.32</ele>
        <time>2013-04-28T08:51:30Z</time>
      </trkpt>
      <trkpt lat="47.58173" lon="3.7575">
        <ele>218.84</ele>
        <time>2013-04-28T08:51:35Z</time>
      </trkpt>
      <trkpt lat="47.58156" lon="3.75772">
        <ele>217.4</ele>
        <time>2013-04-28T08:51:52Z</time>
      </trkpt>
      <trkpt lat="47.58136" lon="3.75798">
        <ele>215.95</ele>
        <time>2013-04-28T08:52:09Z</time>
      </trkpt>
      <trkpt lat="47.58124" lon="3.75825">
        <ele>214.99</ele>
        <time>2013-04-28T08:52:27Z</time>
      </trkpt>
      <trkpt lat="47.58113" lon="3.7585">
        <ele>214.99</ele>
        <time>2013-04-28T08:52:42Z</time>
      </trkpt>
      <trkpt lat="47.58102" lon="3.7587">
        <ele>214.51</ele>
        <time>2013-04-28T08:52:57Z</time>
      </trkpt>
      <trkpt lat="47.58096" lon="3.75897">
        <ele>213.55</ele>
        <time>2013-04-28T08:53:11Z</time>
      </trkpt>
      <trkpt lat="47.58097" lon="3.75924">
        <ele>211.63</ele>
        <time>2013-04-28T08:53:26Z</time>
      </trkpt>
      <trkpt lat="47.58095" lon="3.75948">
        <ele>211.15</ele>
        <time>2013-04-28T08:53:39Z</time>
      </trkpt>
      <trkpt lat="47.58094" lon="3.75975">
        <ele>210.19</ele>
        <time>2013-04-28T08:53:53Z</time>
      </trkpt>
      <trkpt lat="47.58089" lon="3.76006">
        <ele>209.7</ele>
        <time>2013-04-28T08:54:10Z</time>
      </trkpt>
      <trkpt lat="47.58086" lon="3.76027">
        <ele>208.74</ele>
        <time>2013-04-28T08:54:23Z</time>
      </trkpt>
      <trkpt lat="47.58081" lon="3.76056">
        <ele>209.22</ele>
        <time>2013-04-28T08:54:38Z</time>
      </trkpt>
      <trkpt lat="47.58078" lon="3.76093">
        <ele>208.26</ele>
        <time>2013-04-28T08:54:57Z</time>
      </trkpt>
      <trkpt lat="47.58076" lon="3.76124">
        <ele>207.78</ele>
        <time>2013-04-28T08:55:14Z</time>
      </trkpt>
      <trkpt lat="47.58074" lon="3.7615">
        <ele>206.34</ele>
        <time>2013-04-28T08:55:29Z</time>
      </trkpt>
      <trkpt lat="47.58073" lon="3.7618">
        <ele>204.42</ele>
        <time>2013-04-28T08:55:45Z</time>
      </trkpt>
      <trkpt lat="47.58071" lon="3.76208">
        <ele>202.49</ele>
        <time>2013-04-28T08:56:00Z</time>
      </trkpt>
      <trkpt lat="47.58067" lon="3.7624">
        <ele>202.01</ele>
        <time>2013-04-28T08:56:17Z</time>
      </trkpt>
      <trkpt lat="47.58063" lon="3.7627">
        <ele>199.61</ele>
        <time>2013-04-28T08:56:34Z</time>
      </trkpt>
      <trkpt lat="47.58059" lon="3.7629">
        <ele>198.17</ele>
        <time>2013-04-28T08:56:48Z</time>
      </trkpt>
      <trkpt lat="47.58057" lon="3.76297">
        <ele>197.21</ele>
        <time>2013-04-28T08:56:52Z</time>
      </trkpt>
      <trkpt lat="47.58051" lon="3.7631">
        <ele>195.28</ele>
        <time>2013-04-28T08:57:02Z</time>
      </trkpt>
      <trkpt lat="47.58037" lon="3.76324">
        <ele>193.84</ele>
        <time>2013-04-28T08:57:18Z</time>
      </trkpt>
      <trkpt lat="47.58026" lon="3.76329">
        <ele>191.44</ele>
        <time>2013-04-28T08:57:31Z</time>
      </trkpt>
      <trkpt lat="47.58005" lon="3.76313">
        <ele>191.44</ele>
        <time>2013-04-28T08:57:48Z</time>
      </trkpt>
      <trkpt lat="47.57981" lon="3.76307">
        <ele>191.44</ele>
        <time>2013-04-28T08:58:03Z</time>
      </trkpt>
      <trkpt lat="47.57976" lon="3.76319">
        <ele>192.4</ele>
        <time>2013-04-28T08:58:12Z</time>
      </trkpt>
      <trkpt lat="47.57978" lon="3.76345">
        <ele>191.92</ele>
        <time>2013-04-28T08:58:26Z</time>
      </trkpt>
      <trkpt lat="47.57979" lon="3.76348">
        <ele>192.88</ele>
        <time>2013-04-28T08:58:28Z</time>
      </trkpt>
      <trkpt lat="47.57982" lon="3.76382">
        <ele>191.44</ele>
        <time>2013-04-28T08:58:44Z</time>
      </trkpt>
      <trkpt lat="47.57982" lon="3.7641">
        <ele>190.96</ele>
        <time>2013-04-28T08:58:58Z</time>
      </trkpt>
      <trkpt lat="47.57982" lon="3.76429">
        <ele>190</ele>
        <time>2013-04-28T08:59:09Z</time>
      </trkpt>
      <trkpt lat="47.57985" lon="3.76459">
        <ele>188.56</ele>
        <time>2013-04-28T08:59:22Z</time>
      </trkpt>
      <trkpt lat="47.57986" lon="3.76468">
        <ele>188.08</ele>
        <time>2013-04-28T08:59:27Z</time>
      </trkpt>
      <trkpt lat="47.5799" lon="3.76498">
        <ele>186.63</ele>
        <time>2013-04-28T08:59:42Z</time>
      </trkpt>
      <trkpt lat="47.57991" lon="3.76504">
        <ele>185.67</ele>
        <time>2013-04-28T08:59:45Z</time>
      </trkpt>
      <trkpt lat="47.57993" lon="3.76514">
        <ele>185.67</ele>
        <time>2013-04-28T08:59:51Z</time>
      </trkpt>
      <trkpt lat="47.57996" lon="3.76534">
        <ele>183.27</ele>
        <time>2013-04-28T09:00:04Z</time>
      </trkpt>
      <trkpt lat="47.57998" lon="3.7656">
        <ele>180.87</ele>
        <time>2013-04-28T09:00:18Z</time>
      </trkpt>
      <trkpt lat="47.57998" lon="3.76574">
        <ele>178.46</ele>
        <time>2013-04-28T09:00:27Z</time>
      </trkpt>
      <trkpt lat="47.57994" lon="3.76599">
        <ele>177.5</ele>
        <time>2013-04-28T09:00:41Z</time>
      </trkpt>
      <trkpt lat="47.57995" lon="3.76603">
        <ele>177.98</ele>
        <time>2013-04-28T09:00:44Z</time>
      </trkpt>
      <trkpt lat="47.57997" lon="3.76612">
        <ele>176.54</ele>
        <time>2013-04-28T09:00:48Z</time>
      </trkpt>
      <trkpt lat="47.57998" lon="3.76621">
        <ele>176.54</ele>
        <time>2013-04-28T09:00:53Z</time>
      </trkpt>
      <trkpt lat="47.58002" lon="3.76643">
        <ele>173.66</ele>
        <time>2013-04-28T09:01:06Z</time>
      </trkpt>
      <trkpt lat="47.58021" lon="3.76653">
        <ele>173.66</ele>
        <time>2013-04-28T09:01:22Z</time>
      </trkpt>
      <trkpt lat="47.5804" lon="3.76663">
        <ele>172.69</ele>
        <time>2013-04-28T09:01:37Z</time>
      </trkpt>
      <trkpt lat="47.58061" lon="3.76679">
        <ele>171.25</ele>
        <time>2013-04-28T09:01:55Z</time>
      </trkpt>
      <trkpt lat="47.58078" lon="3.76693">
        <ele>168.85</ele>
        <time>2013-04-28T09:02:11Z</time>
      </trkpt>
      <trkpt lat="47.58079" lon="3.76695">
        <ele>168.85</ele>
        <time>2013-04-28T09:02:13Z</time>
      </trkpt>
      <trkpt lat="47.58081" lon="3.76697">
        <ele>167.89</ele>
        <time>2013-04-28T09:02:15Z</time>
      </trkpt>
      <trkpt lat="47.58099" lon="3.76722">
        <ele>165.96</ele>
        <time>2013-04-28T09:02:31Z</time>
      </trkpt>
      <trkpt lat="47.58108" lon="3.76746">
        <ele>164.52</ele>
        <time>2013-04-28T09:02:46Z</time>
      </trkpt>
      <trkpt lat="47.58118" lon="3.76771">
        <ele>162.6</ele>
        <time>2013-04-28T09:03:02Z</time>
      </trkpt>
      <trkpt lat="47.58124" lon="3.76792">
        <ele>161.64</ele>
        <time>2013-04-28T09:03:15Z</time>
      </trkpt>
      <trkpt lat="47.58126" lon="3.76799">
        <ele>160.68</ele>
        <time>2013-04-28T09:03:19Z</time>
      </trkpt>
      <trkpt lat="47.58131" lon="3.76812">
        <ele>160.2</ele>
        <time>2013-04-28T09:03:27Z</time>
      </trkpt>
      <trkpt lat="47.58133" lon="3.76819">
        <ele>159.72</ele>
        <time>2013-04-28T09:03:31Z</time>
      </trkpt>
      <trkpt lat="47.58142" lon="3.76852">
        <ele>158.27</ele>
        <time>2013-04-28T09:03:49Z</time>
      </trkpt>
      <trkpt lat="47.58144" lon="3.76862">
        <ele>157.79</ele>
        <time>2013-04-28T09:03:54Z</time>
      </trkpt>
      <trkpt lat="47.58155" lon="3.76883">
        <ele>156.83</ele>
        <time>2013-04-28T09:04:09Z</time>
      </trkpt>
      <trkpt lat="47.58164" lon="3.76906">
        <ele>155.39</ele>
        <time>2013-04-28T09:04:23Z</time>
      </trkpt>
      <trkpt lat="47.58172" lon="3.76934">
        <ele>153.47</ele>
        <time>2013-04-28T09:04:39Z</time>
      </trkpt>
      <trkpt lat="47.58178" lon="3.76948">
        <ele>152.51</ele>
        <time>2013-04-28T09:04:49Z</time>
      </trkpt>
      <trkpt lat="47.58181" lon="3.76959">
        <ele>152.99</ele>
        <time>2013-04-28T09:04:55Z</time>
      </trkpt>
      <trkpt lat="47.58182" lon="3.76962">
        <ele>152.99</ele>
        <time>2013-04-28T09:04:57Z</time>
      </trkpt>
      <trkpt lat="47.58189" lon="3.76975">
        <ele>151.54</ele>
        <time>2013-04-28T09:05:06Z</time>
      </trkpt>
      <trkpt lat="47.58193" lon="3.76984">
        <ele>151.54</ele>
        <time>2013-04-28T09:05:11Z</time>
      </trkpt>
      <trkpt lat="47.58205" lon="3.77013">
        <ele>150.58</ele>
        <time>2013-04-28T09:05:28Z</time>
      </trkpt>
      <trkpt lat="47.58217" lon="3.77038">
        <ele>149.62</ele>
        <time>2013-04-28T09:05:43Z</time>
      </trkpt>
      <trkpt lat="47.58229" lon="3.77063">
        <ele>147.22</ele>
        <time>2013-04-28T09:05:59Z</time>
      </trkpt>
      <trkpt lat="47.58235" lon="3.77079">
        <ele>146.26</ele>
        <time>2013-04-28T09:06:09Z</time>
      </trkpt>
      <trkpt lat="47.58244" lon="3.77099">
        <ele>145.3</ele>
        <time>2013-04-28T09:06:23Z</time>
      </trkpt>
      <trkpt lat="47.58254" lon="3.77121">
        <ele>142.89</ele>
        <time>2013-04-28T09:06:35Z</time>
      </trkpt>
      <trkpt lat="47.58256" lon="3.77124">
        <ele>141.93</ele>
        <time>2013-04-28T09:06:47Z</time>
      </trkpt>
      <trkpt lat="47.5826" lon="3.77141">
        <ele>140.97</ele>
        <time>2013-04-28T09:07:05Z</time>
      </trkpt>
      <trkpt lat="47.58269" lon="3.77159">
        <ele>139.53</ele>
        <time>2013-04-28T09:07:17Z</time>
      </trkpt>
      <trkpt lat="47.5828" lon="3.7718">
        <ele>137.13</ele>
        <time>2013-04-28T09:07:31Z</time>
      </trkpt>
      <trkpt lat="47.58283" lon="3.77186">
        <ele>136.64</ele>
        <time>2013-04-28T09:07:35Z</time>
      </trkpt>
      <trkpt lat="47.58284" lon="3.77187">
        <ele>136.64</ele>
        <time>2013-04-28T09:07:36Z</time>
      </trkpt>
      <trkpt lat="47.58285" lon="3.77188">
        <ele>136.64</ele>
        <time>2013-04-28T09:07:37Z</time>
      </trkpt>
      <trkpt lat="47.58286" lon="3.7719">
        <ele>137.13</ele>
        <time>2013-04-28T09:07:38Z</time>
      </trkpt>
      <trkpt lat="47.58288" lon="3.77191">
        <ele>136.16</ele>
        <time>2013-04-28T09:07:39Z</time>
      </trkpt>
      <trkpt lat="47.58288" lon="3.77192">
        <ele>136.16</ele>
        <time>2013-04-28T09:07:40Z</time>
      </trkpt>
      <trkpt lat="47.58289" lon="3.77194">
        <ele>136.64</ele>
        <time>2013-04-28T09:07:41Z</time>
      </trkpt>
      <trkpt lat="47.5829" lon="3.77195">
        <ele>135.68</ele>
        <time>2013-04-28T09:07:42Z</time>
      </trkpt>
      <trkpt lat="47.58291" lon="3.77196">
        <ele>136.16</ele>
        <time>2013-04-28T09:07:43Z</time>
      </trkpt>
      <trkpt lat="47.58292" lon="3.77198">
        <ele>135.68</ele>
        <time>2013-04-28T09:07:44Z</time>
      </trkpt>
      <trkpt lat="47.58293" lon="3.77199">
        <ele>135.68</ele>
        <time>2013-04-28T09:07:45Z</time>
      </trkpt>
      <trkpt lat="47.58305" lon="3.77226">
        <ele>133.76</ele>
        <time>2013-04-28T09:08:03Z</time>
      </trkpt>
      <trkpt lat="47.58315" lon="3.77247">
        <ele>132.32</ele>
        <time>2013-04-28T09:08:16Z</time>
      </trkpt>
      <trkpt lat="47.58328" lon="3.77273">
        <ele>130.88</ele>
        <time>2013-04-28T09:08:32Z</time>
      </trkpt>
      <trkpt lat="47.58329" lon="3.77274">
        <ele>130.88</ele>
        <time>2013-04-28T09:08:33Z</time>
      </trkpt>
      <trkpt lat="47.5833" lon="3.77275">
        <ele>130.88</ele>
        <time>2013-04-28T09:08:34Z</time>
      </trkpt>
      <trkpt lat="47.5833" lon="3.77277">
        <ele>130.4</ele>
        <time>2013-04-28T09:08:35Z</time>
      </trkpt>
      <trkpt lat="47.58339" lon="3.77284">
        <ele>129.92</ele>
        <time>2013-04-28T09:08:42Z</time>
      </trkpt>
      <trkpt lat="47.58361" lon="3.77301">
        <ele>128.47</ele>
        <time>2013-04-28T09:09:00Z</time>
      </trkpt>
      <trkpt lat="47.58383" lon="3.77288">
        <ele>128.47</ele>
        <time>2013-04-28T09:09:17Z</time>
      </trkpt>
      <trkpt lat="47.58398" lon="3.77261">
        <ele>127.99</ele>
        <time>2013-04-28T09:09:35Z</time>
      </trkpt>
      <trkpt lat="47.58411" lon="3.77239">
        <ele>127.51</ele>
        <time>2013-04-28T09:09:49Z</time>
      </trkpt>
      <trkpt lat="47.58433" lon="3.77207">
        <ele>126.07</ele>
        <time>2013-04-28T09:10:12Z</time>
      </trkpt>
      <trkpt lat="47.58457" lon="3.7718">
        <ele>125.11</ele>
        <time>2013-04-28T09:10:35Z</time>
      </trkpt>
      <trkpt lat="47.58474" lon="3.77163">
        <ele>124.63</ele>
        <time>2013-04-28T09:10:51Z</time>
      </trkpt>
      <trkpt lat="47.58481" lon="3.77154">
        <ele>124.63</ele>
        <time>2013-04-28T09:11:00Z</time>
      </trkpt>
      <trkpt lat="47.58498" lon="3.77144">
        <ele>124.15</ele>
        <time>2013-04-28T09:11:13Z</time>
      </trkpt>
      <trkpt lat="47.5852" lon="3.77128">
        <ele>124.15</ele>
        <time>2013-04-28T09:11:29Z</time>
      </trkpt>
      <trkpt lat="47.58552" lon="3.77112">
        <ele>123.67</ele>
        <time>2013-04-28T09:11:54Z</time>
      </trkpt>
      <trkpt lat="47.58587" lon="3.77098">
        <ele>122.71</ele>
        <time>2013-04-28T09:12:21Z</time>
      </trkpt>
      <trkpt lat="47.58592" lon="3.77098">
        <ele>122.22</ele>
        <time>2013-04-28T09:12:25Z</time>
      </trkpt>
      <trkpt lat="47.58603" lon="3.77099">
        <ele>122.22</ele>
        <time>2013-04-28T09:12:43Z</time>
      </trkpt>
      <trkpt lat="47.58602" lon="3.77106">
        <ele>122.71</ele>
        <time>2013-04-28T09:12:48Z</time>
      </trkpt>
      <trkpt lat="47.58595" lon="3.77146">
        <ele>122.71</ele>
        <time>2013-04-28T09:13:12Z</time>
      </trkpt>
      <trkpt lat="47.5859" lon="3.77166">
        <ele>123.19</ele>
        <time>2013-04-28T09:13:23Z</time>
      </trkpt>
      <trkpt lat="47.58589" lon="3.77169">
        <ele>123.67</ele>
        <time>2013-04-28T09:13:24Z</time>
      </trkpt>
      <trkpt lat="47.58582" lon="3.7721">
        <ele>124.15</ele>
        <time>2013-04-28T09:13:42Z</time>
      </trkpt>
      <trkpt lat="47.58571" lon="3.77254">
        <ele>124.63</ele>
        <time>2013-04-28T09:14:05Z</time>
      </trkpt>
      <trkpt lat="47.58556" lon="3.77294">
        <ele>124.63</ele>
        <time>2013-04-28T09:14:28Z</time>
      </trkpt>
      <trkpt lat="47.58542" lon="3.77327">
        <ele>124.63</ele>
        <time>2013-04-28T09:14:48Z</time>
      </trkpt>
      <trkpt lat="47.58518" lon="3.77367">
        <ele>124.63</ele>
        <time>2013-04-28T09:15:13Z</time>
      </trkpt>
      <trkpt lat="47.58492" lon="3.77401">
        <ele>125.11</ele>
        <time>2013-04-28T09:15:38Z</time>
      </trkpt>
      <trkpt lat="47.58461" lon="3.77438">
        <ele>125.59</ele>
        <time>2013-04-28T09:16:05Z</time>
      </trkpt>
      <trkpt lat="47.58436" lon="3.77469">
        <ele>126.07</ele>
        <time>2013-04-28T09:16:29Z</time>
      </trkpt>
      <trkpt lat="47.58414" lon="3.77495">
        <ele>126.55</ele>
        <time>2013-04-28T09:16:51Z</time>
      </trkpt>
      <trkpt lat="47.58382" lon="3.7752">
        <ele>126.55</ele>
        <time>2013-04-28T09:17:16Z</time>
      </trkpt>
      <trkpt lat="47.58361" lon="3.77529">
        <ele>125.59</ele>
        <time>2013-04-28T09:17:32Z</time>
      </trkpt>
      <trkpt lat="47.58343" lon="3.77534">
        <ele>126.07</ele>
        <time>2013-04-28T09:17:49Z</time>
      </trkpt>
      <trkpt lat="47.5832" lon="3.77539">
        <ele>125.59</ele>
        <time>2013-04-28T09:18:03Z</time>
      </trkpt>
      <trkpt lat="47.58304" lon="3.77544">
        <ele>125.59</ele>
        <time>2013-04-28T09:18:15Z</time>
      </trkpt>
      <trkpt lat="47.58285" lon="3.77549">
        <ele>125.11</ele>
        <time>2013-04-28T09:18:29Z</time>
      </trkpt>
      <trkpt lat="47.58259" lon="3.77553">
        <ele>124.63</ele>
        <time>2013-04-28T09:18:46Z</time>
      </trkpt>
      <trkpt lat="47.58242" lon="3.77568">
        <ele>123.67</ele>
        <time>2013-04-28T09:19:01Z</time>
      </trkpt>
      <trkpt lat="47.58237" lon="3.77572">
        <ele>124.63</ele>
        <time>2013-04-28T09:19:05Z</time>
      </trkpt>
      <trkpt lat="47.58236" lon="3.77574">
        <ele>124.15</ele>
        <time>2013-04-28T09:19:06Z</time>
      </trkpt>
      <trkpt lat="47.58219" lon="3.77588">
        <ele>124.15</ele>
        <time>2013-04-28T09:19:22Z</time>
      </trkpt>
      <trkpt lat="47.58195" lon="3.77604">
        <ele>124.15</ele>
        <time>2013-04-28T09:19:39Z</time>
      </trkpt>
      <trkpt lat="47.58171" lon="3.77617">
        <ele>124.63</ele>
        <time>2013-04-28T09:19:55Z</time>
      </trkpt>
      <trkpt lat="47.58154" lon="3.77625">
        <ele>124.63</ele>
        <time>2013-04-28T09:20:08Z</time>
      </trkpt>
      <trkpt lat="47.58141" lon="3.7763">
        <ele>124.15</ele>
        <time>2013-04-28T09:20:20Z</time>
      </trkpt>
      <trkpt lat="47.58126" lon="3.77636">
        <ele>125.11</ele>
        <time>2013-04-28T09:20:32Z</time>
      </trkpt>
      <trkpt lat="47.58106" lon="3.77642">
        <ele>124.63</ele>
        <time>2013-04-28T09:20:46Z</time>
      </trkpt>
      <trkpt lat="47.58103" lon="3.77643">
        <ele>124.15</ele>
        <time>2013-04-28T09:20:48Z</time>
      </trkpt>
      <trkpt lat="47.58102" lon="3.77644">
        <ele>124.15</ele>
        <time>2013-04-28T09:20:49Z</time>
      </trkpt>
      <trkpt lat="47.58101" lon="3.77645">
        <ele>124.63</ele>
        <time>2013-04-28T09:20:50Z</time>
      </trkpt>
      <trkpt lat="47.58096" lon="3.77647">
        <ele>124.63</ele>
        <time>2013-04-28T09:20:54Z</time>
      </trkpt>
      <trkpt lat="47.58095" lon="3.77647">
        <ele>124.15</ele>
        <time>2013-04-28T09:20:55Z</time>
      </trkpt>
      <trkpt lat="47.58093" lon="3.77647">
        <ele>123.67</ele>
        <time>2013-04-28T09:20:56Z</time>
      </trkpt>
      <trkpt lat="47.5807" lon="3.77653">
        <ele>123.67</ele>
        <time>2013-04-28T09:21:11Z</time>
      </trkpt>
      <trkpt lat="47.58049" lon="3.77656">
        <ele>124.15</ele>
        <time>2013-04-28T09:21:25Z</time>
      </trkpt>
      <trkpt lat="47.58025" lon="3.77652">
        <ele>123.67</ele>
        <time>2013-04-28T09:21:38Z</time>
      </trkpt>
      <trkpt lat="47.58006" lon="3.77649">
        <ele>123.67</ele>
        <time>2013-04-28T09:21:51Z</time>
      </trkpt>
      <trkpt lat="47.58005" lon="3.77648">
        <ele>124.15</ele>
        <time>2013-04-28T09:21:52Z</time>
      </trkpt>
      <trkpt lat="47.58003" lon="3.77647">
        <ele>124.63</ele>
        <time>2013-04-28T09:21:53Z</time>
      </trkpt>
      <trkpt lat="47.57992" lon="3.77646">
        <ele>124.15</ele>
        <time>2013-04-28T09:22:01Z</time>
      </trkpt>
      <trkpt lat="47.5799" lon="3.77646">
        <ele>124.15</ele>
        <time>2013-04-28T09:22:02Z</time>
      </trkpt>
      <trkpt lat="47.57989" lon="3.77646">
        <ele>123.67</ele>
        <time>2013-04-28T09:22:03Z</time>
      </trkpt>
      <trkpt lat="47.57975" lon="3.77653">
        <ele>124.15</ele>
        <time>2013-04-28T09:22:16Z</time>
      </trkpt>
      <trkpt lat="47.57959" lon="3.77661">
        <ele>123.67</ele>
        <time>2013-04-28T09:22:28Z</time>
      </trkpt>
      <trkpt lat="47.57942" lon="3.77666">
        <ele>123.67</ele>
        <time>2013-04-28T09:22:39Z</time>
      </trkpt>
      <trkpt lat="47.5794" lon="3.77666">
        <ele>124.15</ele>
        <time>2013-04-28T09:22:40Z</time>
      </trkpt>
      <trkpt lat="47.57938" lon="3.77667">
        <ele>123.67</ele>
        <time>2013-04-28T09:22:41Z</time>
      </trkpt>
      <trkpt lat="47.57937" lon="3.77667">
        <ele>123.67</ele>
        <time>2013-04-28T09:22:42Z</time>
      </trkpt>
      <trkpt lat="47.57935" lon="3.77668">
        <ele>123.67</ele>
        <time>2013-04-28T09:22:43Z</time>
      </trkpt>
      <trkpt lat="47.57934" lon="3.77668">
        <ele>123.67</ele>
        <time>2013-04-28T09:22:44Z</time>
      </trkpt>
      <trkpt lat="47.57932" lon="3.77669">
        <ele>123.67</ele>
        <time>2013-04-28T09:22:45Z</time>
      </trkpt>
      <trkpt lat="47.5792" lon="3.77678">
        <ele>124.15</ele>
        <time>2013-04-28T09:22:55Z</time>
      </trkpt>
      <trkpt lat="47.579" lon="3.77689">
        <ele>123.19</ele>
        <time>2013-04-28T09:23:09Z</time>
      </trkpt>
      <trkpt lat="47.57898" lon="3.7769">
        <ele>123.67</ele>
        <time>2013-04-28T09:23:10Z</time>
      </trkpt>
      <trkpt lat="47.57897" lon="3.77691">
        <ele>123.19</ele>
        <time>2013-04-28T09:23:11Z</time>
      </trkpt>
      <trkpt lat="47.57877" lon="3.77705">
        <ele>123.67</ele>
        <time>2013-04-28T09:23:27Z</time>
      </trkpt>
      <trkpt lat="47.57856" lon="3.77725">
        <ele>122.71</ele>
        <time>2013-04-28T09:23:45Z</time>
      </trkpt>
      <trkpt lat="47.57835" lon="3.77745">
        <ele>123.19</ele>
        <time>2013-04-28T09:24:01Z</time>
      </trkpt>
      <trkpt lat="47.57815" lon="3.77763">
        <ele>123.19</ele>
        <time>2013-04-28T09:24:17Z</time>
      </trkpt>
      <trkpt lat="47.57798" lon="3.77771">
        <ele>122.71</ele>
        <time>2013-04-28T09:24:32Z</time>
      </trkpt>
      <trkpt lat="47.57771" lon="3.77771">
        <ele>122.71</ele>
        <time>2013-04-28T09:24:47Z</time>
      </trkpt>
      <trkpt lat="47.5775" lon="3.77775">
        <ele>122.71</ele>
        <time>2013-04-28T09:25:02Z</time>
      </trkpt>
      <trkpt lat="47.57727" lon="3.77778">
        <ele>122.71</ele>
        <time>2013-04-28T09:25:18Z</time>
      </trkpt>
      <trkpt lat="47.57706" lon="3.77785">
        <ele>122.71</ele>
        <time>2013-04-28T09:25:33Z</time>
      </trkpt>
      <trkpt lat="47.57684" lon="3.7778">
        <ele>122.22</ele>
        <time>2013-04-28T09:25:49Z</time>
      </trkpt>
      <trkpt lat="47.57682" lon="3.7778">
        <ele>123.19</ele>
        <time>2013-04-28T09:25:50Z</time>
      </trkpt>
      <trkpt lat="47.57681" lon="3.77779">
        <ele>123.19</ele>
        <time>2013-04-28T09:25:51Z</time>
      </trkpt>
      <trkpt lat="47.5768" lon="3.77778">
        <ele>123.19</ele>
        <time>2013-04-28T09:25:52Z</time>
      </trkpt>
      <trkpt lat="47.57669" lon="3.77774">
        <ele>123.19</ele>
        <time>2013-04-28T09:25:59Z</time>
      </trkpt>
      <trkpt lat="47.57668" lon="3.77773">
        <ele>123.67</ele>
        <time>2013-04-28T09:26:00Z</time>
      </trkpt>
      <trkpt lat="47.57666" lon="3.77772">
        <ele>123.67</ele>
        <time>2013-04-28T09:26:01Z</time>
      </trkpt>
      <trkpt lat="47.57665" lon="3.77771">
        <ele>123.19</ele>
        <time>2013-04-28T09:26:02Z</time>
      </trkpt>
      <trkpt lat="47.57664" lon="3.77771">
        <ele>124.15</ele>
        <time>2013-04-28T09:26:03Z</time>
      </trkpt>
      <trkpt lat="47.57663" lon="3.7777">
        <ele>123.19</ele>
        <time>2013-04-28T09:26:04Z</time>
      </trkpt>
      <trkpt lat="47.57662" lon="3.7777">
        <ele>123.67</ele>
        <time>2013-04-28T09:26:05Z</time>
      </trkpt>
      <trkpt lat="47.5766" lon="3.77768">
        <ele>124.15</ele>
        <time>2013-04-28T09:26:07Z</time>
      </trkpt>
      <trkpt lat="47.57639" lon="3.77752">
        <ele>123.67</ele>
        <time>2013-04-28T09:26:25Z</time>
      </trkpt>
      <trkpt lat="47.57626" lon="3.77739">
        <ele>124.63</ele>
        <time>2013-04-28T09:26:38Z</time>
      </trkpt>
      <trkpt lat="47.57624" lon="3.77734">
        <ele>123.67</ele>
        <time>2013-04-28T09:26:41Z</time>
      </trkpt>
      <trkpt lat="47.57622" lon="3.77707">
        <ele>124.63</ele>
        <time>2013-04-28T09:26:57Z</time>
      </trkpt>
      <trkpt lat="47.57639" lon="3.77673">
        <ele>125.11</ele>
        <time>2013-04-28T09:27:15Z</time>
      </trkpt>
      <trkpt lat="47.57651" lon="3.77642">
        <ele>125.11</ele>
        <time>2013-04-28T09:27:34Z</time>
      </trkpt>
      <trkpt lat="47.57661" lon="3.77623">
        <ele>124.15</ele>
        <time>2013-04-28T09:27:47Z</time>
      </trkpt>
      <trkpt lat="47.57662" lon="3.77619">
        <ele>125.59</ele>
        <time>2013-04-28T09:27:49Z</time>
      </trkpt>
      <trkpt lat="47.57668" lon="3.77607">
        <ele>125.11</ele>
        <time>2013-04-28T09:27:57Z</time>
      </trkpt>
      <trkpt lat="47.57668" lon="3.77605">
        <ele>125.11</ele>
        <time>2013-04-28T09:27:58Z</time>
      </trkpt>
      <trkpt lat="47.57669" lon="3.77604">
        <ele>126.07</ele>
        <time>2013-04-28T09:27:59Z</time>
      </trkpt>
      <trkpt lat="47.57683" lon="3.77577">
        <ele>125.59</ele>
        <time>2013-04-28T09:28:17Z</time>
      </trkpt>
      <trkpt lat="47.57681" lon="3.77571">
        <ele>125.11</ele>
        <time>2013-04-28T09:28:21Z</time>
      </trkpt>
      <trkpt lat="47.57673" lon="3.77564">
        <ele>126.07</ele>
        <time>2013-04-28T09:28:28Z</time>
      </trkpt>
      <trkpt lat="47.57672" lon="3.77564">
        <ele>125.59</ele>
        <time>2013-04-28T09:28:29Z</time>
      </trkpt>
      <trkpt lat="47.57671" lon="3.77564">
        <ele>125.59</ele>
        <time>2013-04-28T09:28:30Z</time>
      </trkpt>
      <trkpt lat="47.5767" lon="3.77564">
        <ele>125.59</ele>
        <time>2013-04-28T09:28:31Z</time>
      </trkpt>
      <trkpt lat="47.57669" lon="3.77564">
        <ele>125.11</ele>
        <time>2013-04-28T09:28:32Z</time>
      </trkpt>
      <trkpt lat="47.57668" lon="3.77564">
        <ele>125.59</ele>
        <time>2013-04-28T09:28:33Z</time>
      </trkpt>
      <trkpt lat="47.57662" lon="3.77566">
        <ele>125.11</ele>
        <time>2013-04-28T09:28:38Z</time>
      </trkpt>
      <trkpt lat="47.57661" lon="3.77566">
        <ele>125.59</ele>
        <time>2013-04-28T09:28:39Z</time>
      </trkpt>
      <trkpt lat="47.57643" lon="3.7757">
        <ele>124.63</ele>
        <time>2013-04-28T09:28:52Z</time>
      </trkpt>
      <trkpt lat="47.57613" lon="3.77572">
        <ele>125.11</ele>
        <time>2013-04-28T09:29:15Z</time>
      </trkpt>
      <trkpt lat="47.57588" lon="3.77571">
        <ele>125.59</ele>
        <time>2013-04-28T09:29:32Z</time>
      </trkpt>
      <trkpt lat="47.57569" lon="3.77571">
        <ele>125.59</ele>
        <time>2013-04-28T09:29:47Z</time>
      </trkpt>
      <trkpt lat="47.57541" lon="3.77572">
        <ele>126.07</ele>
        <time>2013-04-28T09:30:07Z</time>
      </trkpt>
      <trkpt lat="47.57517" lon="3.77578">
        <ele>127.03</ele>
        <time>2013-04-28T09:30:26Z</time>
      </trkpt>
      <trkpt lat="47.57491" lon="3.77583">
        <ele>127.51</ele>
        <time>2013-04-28T09:30:43Z</time>
      </trkpt>
      <trkpt lat="47.57468" lon="3.77591">
        <ele>127.51</ele>
        <time>2013-04-28T09:30:59Z</time>
      </trkpt>
      <trkpt lat="47.57446" lon="3.77599">
        <ele>127.99</ele>
        <time>2013-04-28T09:31:17Z</time>
      </trkpt>
      <trkpt lat="47.57424" lon="3.7761">
        <ele>128.47</ele>
        <time>2013-04-28T09:31:34Z</time>
      </trkpt>
      <trkpt lat="47.57401" lon="3.77622">
        <ele>129.43</ele>
        <time>2013-04-28T09:31:52Z</time>
      </trkpt>
      <trkpt lat="47.57394" lon="3.77623">
        <ele>129.92</ele>
        <time>2013-04-28T09:32:08Z</time>
      </trkpt>
      <trkpt lat="47.57381" lon="3.77628">
        <ele>129.92</ele>
        <time>2013-04-28T09:32:22Z</time>
      </trkpt>
      <trkpt lat="47.57359" lon="3.77642">
        <ele>129.92</ele>
        <time>2013-04-28T09:32:39Z</time>
      </trkpt>
      <trkpt lat="47.5734" lon="3.77657">
        <ele>130.88</ele>
        <time>2013-04-28T09:32:56Z</time>
      </trkpt>
      <trkpt lat="47.57314" lon="3.77679">
        <ele>131.36</ele>
        <time>2013-04-28T09:33:17Z</time>
      </trkpt>
      <trkpt lat="47.57306" lon="3.77686">
        <ele>131.36</ele>
        <time>2013-04-28T09:33:24Z</time>
      </trkpt>
      <trkpt lat="47.57305" lon="3.77687">
        <ele>132.32</ele>
        <time>2013-04-28T09:33:25Z</time>
      </trkpt>
      <trkpt lat="47.57285" lon="3.77696">
        <ele>132.8</ele>
        <time>2013-04-28T09:33:40Z</time>
      </trkpt>
      <trkpt lat="47.57263" lon="3.77709">
        <ele>133.76</ele>
        <time>2013-04-28T09:33:57Z</time>
      </trkpt>
      <trkpt lat="47.57253" lon="3.77717">
        <ele>134.24</ele>
        <time>2013-04-28T09:34:07Z</time>
      </trkpt>
      <trkpt lat="47.57237" lon="3.77732">
        <ele>135.68</ele>
        <time>2013-04-28T09:34:21Z</time>
      </trkpt>
      <trkpt lat="47.57219" lon="3.77744">
        <ele>136.64</ele>
        <time>2013-04-28T09:34:37Z</time>
      </trkpt>
      <trkpt lat="47.57199" lon="3.77757">
        <ele>137.61</ele>
        <time>2013-04-28T09:34:52Z</time>
      </trkpt>
      <trkpt lat="47.57196" lon="3.77758">
        <ele>138.57</ele>
        <time>2013-04-28T09:34:55Z</time>
      </trkpt>
      <trkpt lat="47.57195" lon="3.77758">
        <ele>139.05</ele>
        <time>2013-04-28T09:34:56Z</time>
      </trkpt>
      <trkpt lat="47.57193" lon="3.77758">
        <ele>138.09</ele>
        <time>2013-04-28T09:34:57Z</time>
      </trkpt>
      <trkpt lat="47.57192" lon="3.77758">
        <ele>138.09</ele>
        <time>2013-04-28T09:34:58Z</time>
      </trkpt>
      <trkpt lat="47.57191" lon="3.77757">
        <ele>138.57</ele>
        <time>2013-04-28T09:34:59Z</time>
      </trkpt>
      <trkpt lat="47.57189" lon="3.77757">
        <ele>138.57</ele>
        <time>2013-04-28T09:35:00Z</time>
      </trkpt>
      <trkpt lat="47.57184" lon="3.7775">
        <ele>139.05</ele>
        <time>2013-04-28T09:35:06Z</time>
      </trkpt>
      <trkpt lat="47.57174" lon="3.77729">
        <ele>139.53</ele>
        <time>2013-04-28T09:35:20Z</time>
      </trkpt>
      <trkpt lat="47.57162" lon="3.77707">
        <ele>140.49</ele>
        <time>2013-04-28T09:35:35Z</time>
      </trkpt>
      <trkpt lat="47.57148" lon="3.77684">
        <ele>141.45</ele>
        <time>2013-04-28T09:35:50Z</time>
      </trkpt>
      <trkpt lat="47.57144" lon="3.77678">
        <ele>142.41</ele>
        <time>2013-04-28T09:35:55Z</time>
      </trkpt>
      <trkpt lat="47.57144" lon="3.77677">
        <ele>143.37</ele>
        <time>2013-04-28T09:35:56Z</time>
      </trkpt>
      <trkpt lat="47.57133" lon="3.77664">
        <ele>145.3</ele>
        <time>2013-04-28T09:36:11Z</time>
      </trkpt>
      <trkpt lat="47.57123" lon="3.77647">
        <ele>147.7</ele>
        <time>2013-04-28T09:36:25Z</time>
      </trkpt>
      <trkpt lat="47.57111" lon="3.77626">
        <ele>150.1</ele>
        <time>2013-04-28T09:36:42Z</time>
      </trkpt>
      <trkpt lat="47.57095" lon="3.77618">
        <ele>152.51</ele>
        <time>2013-04-28T09:36:56Z</time>
      </trkpt>
      <trkpt lat="47.57094" lon="3.77617">
        <ele>152.99</ele>
        <time>2013-04-28T09:36:57Z</time>
      </trkpt>
      <trkpt lat="47.57077" lon="3.77621">
        <ele>155.87</ele>
        <time>2013-04-28T09:37:13Z</time>
      </trkpt>
      <trkpt lat="47.57061" lon="3.77624">
        <ele>157.79</ele>
        <time>2013-04-28T09:37:28Z</time>
      </trkpt>
      <trkpt lat="47.5706" lon="3.77625">
        <ele>158.75</ele>
        <time>2013-04-28T09:37:29Z</time>
      </trkpt>
      <trkpt lat="47.57047" lon="3.77626">
        <ele>160.2</ele>
        <time>2013-04-28T09:37:41Z</time>
      </trkpt>
      <trkpt lat="47.57033" lon="3.7763">
        <ele>162.6</ele>
        <time>2013-04-28T09:37:55Z</time>
      </trkpt>
      <trkpt lat="47.57018" lon="3.77634">
        <ele>165.48</ele>
        <time>2013-04-28T09:38:10Z</time>
      </trkpt>
      <trkpt lat="47.57009" lon="3.77625">
        <ele>166.93</ele>
        <time>2013-04-28T09:38:23Z</time>
      </trkpt>
      <trkpt lat="47.57009" lon="3.77624">
        <ele>166.93</ele>
        <time>2013-04-28T09:38:24Z</time>
      </trkpt>
      <trkpt lat="47.57006" lon="3.77619">
        <ele>167.41</ele>
        <time>2013-04-28T09:38:28Z</time>
      </trkpt>
      <trkpt lat="47.57006" lon="3.77618">
        <ele>167.89</ele>
        <time>2013-04-28T09:38:29Z</time>
      </trkpt>
      <trkpt lat="47.56999" lon="3.77601">
        <ele>169.81</ele>
        <time>2013-04-28T09:38:42Z</time>
      </trkpt>
      <trkpt lat="47.56999" lon="3.77584">
        <ele>171.73</ele>
        <time>2013-04-28T09:38:55Z</time>
      </trkpt>
      <trkpt lat="47.57001" lon="3.77571">
        <ele>173.66</ele>
        <time>2013-04-28T09:39:04Z</time>
      </trkpt>
      <trkpt lat="47.57001" lon="3.77569">
        <ele>174.14</ele>
        <time>2013-04-28T09:39:05Z</time>
      </trkpt>
      <trkpt lat="47.57" lon="3.77564">
        <ele>174.62</ele>
        <time>2013-04-28T09:39:09Z</time>
      </trkpt>
      <trkpt lat="47.57" lon="3.77554">
        <ele>176.06</ele>
        <time>2013-04-28T09:39:16Z</time>
      </trkpt>
      <trkpt lat="47.57" lon="3.77552">
        <ele>176.54</ele>
        <time>2013-04-28T09:39:17Z</time>
      </trkpt>
      <trkpt lat="47.57" lon="3.7755">
        <ele>176.54</ele>
        <time>2013-04-28T09:39:18Z</time>
      </trkpt>
      <trkpt lat="47.57" lon="3.77548">
        <ele>175.58</ele>
        <time>2013-04-28T09:39:19Z</time>
      </trkpt>
      <trkpt lat="47.57" lon="3.77546">
        <ele>176.06</ele>
        <time>2013-04-28T09:39:20Z</time>
      </trkpt>
      <trkpt lat="47.57002" lon="3.77518">
        <ele>177.98</ele>
        <time>2013-04-28T09:39:36Z</time>
      </trkpt>
      <trkpt lat="47.57003" lon="3.77505">
        <ele>179.42</ele>
        <time>2013-04-28T09:39:43Z</time>
      </trkpt>
      <trkpt lat="47.57003" lon="3.77503">
        <ele>179.42</ele>
        <time>2013-04-28T09:39:44Z</time>
      </trkpt>
      <trkpt lat="47.57003" lon="3.77501">
        <ele>179.42</ele>
        <time>2013-04-28T09:39:45Z</time>
      </trkpt>
      <trkpt lat="47.57003" lon="3.77474">
        <ele>181.35</ele>
        <time>2013-04-28T09:40:01Z</time>
      </trkpt>
      <trkpt lat="47.57" lon="3.7745">
        <ele>182.79</ele>
        <time>2013-04-28T09:40:15Z</time>
      </trkpt>
      <trkpt lat="47.56995" lon="3.77427">
        <ele>185.67</ele>
        <time>2013-04-28T09:40:29Z</time>
      </trkpt>
      <trkpt lat="47.5699" lon="3.77406">
        <ele>188.08</ele>
        <time>2013-04-28T09:40:44Z</time>
      </trkpt>
      <trkpt lat="47.56984" lon="3.77388">
        <ele>189.04</ele>
        <time>2013-04-28T09:40:55Z</time>
      </trkpt>
      <trkpt lat="47.56977" lon="3.77361">
        <ele>191.92</ele>
        <time>2013-04-28T09:41:12Z</time>
      </trkpt>
      <trkpt lat="47.56972" lon="3.77343">
        <ele>194.8</ele>
        <time>2013-04-28T09:41:25Z</time>
      </trkpt>
      <trkpt lat="47.56966" lon="3.77327">
        <ele>196.73</ele>
        <time>2013-04-28T09:41:39Z</time>
      </trkpt>
      <trkpt lat="47.56958" lon="3.77307">
        <ele>199.13</ele>
        <time>2013-04-28T09:41:54Z</time>
      </trkpt>
      <trkpt lat="47.56955" lon="3.77283">
        <ele>200.09</ele>
        <time>2013-04-28T09:42:08Z</time>
      </trkpt>
      <trkpt lat="47.56955" lon="3.77282">
        <ele>201.05</ele>
        <time>2013-04-28T09:42:09Z</time>
      </trkpt>
      <trkpt lat="47.56952" lon="3.77254">
        <ele>201.05</ele>
        <time>2013-04-28T09:42:25Z</time>
      </trkpt>
      <trkpt lat="47.56955" lon="3.77233">
        <ele>200.09</ele>
        <time>2013-04-28T09:42:39Z</time>
      </trkpt>
      <trkpt lat="47.56956" lon="3.77207">
        <ele>199.61</ele>
        <time>2013-04-28T09:42:53Z</time>
      </trkpt>
      <trkpt lat="47.56955" lon="3.77178">
        <ele>199.61</ele>
        <time>2013-04-28T09:43:09Z</time>
      </trkpt>
      <trkpt lat="47.56953" lon="3.77147">
        <ele>199.61</ele>
        <time>2013-04-28T09:43:22Z</time>
      </trkpt>
      <trkpt lat="47.56953" lon="3.77146">
        <ele>199.13</ele>
        <time>2013-04-28T09:43:23Z</time>
      </trkpt>
      <trkpt lat="47.56948" lon="3.77119">
        <ele>200.57</ele>
        <time>2013-04-28T09:43:40Z</time>
      </trkpt>
      <trkpt lat="47.56947" lon="3.771">
        <ele>202.49</ele>
        <time>2013-04-28T09:43:53Z</time>
      </trkpt>
      <trkpt lat="47.56951" lon="3.77079">
        <ele>203.46</ele>
        <time>2013-04-28T09:44:04Z</time>
      </trkpt>
      <trkpt lat="47.56959" lon="3.77062">
        <ele>202.98</ele>
        <time>2013-04-28T09:44:18Z</time>
      </trkpt>
      <trkpt lat="47.56963" lon="3.77049">
        <ele>202.49</ele>
        <time>2013-04-28T09:44:26Z</time>
      </trkpt>
      <trkpt lat="47.56965" lon="3.77047">
        <ele>202.49</ele>
        <time>2013-04-28T09:44:27Z</time>
      </trkpt>
      <trkpt lat="47.56974" lon="3.77029">
        <ele>202.01</ele>
        <time>2013-04-28T09:44:40Z</time>
      </trkpt>
      <trkpt lat="47.56979" lon="3.77008">
        <ele>202.01</ele>
        <time>2013-04-28T09:44:53Z</time>
      </trkpt>
      <trkpt lat="47.56984" lon="3.7699">
        <ele>202.49</ele>
        <time>2013-04-28T09:45:07Z</time>
      </trkpt>
      <trkpt lat="47.56976" lon="3.76987">
        <ele>203.94</ele>
        <time>2013-04-28T09:45:22Z</time>
      </trkpt>
      <trkpt lat="47.56977" lon="3.76985">
        <ele>203.94</ele>
        <time>2013-04-28T09:45:44Z</time>
      </trkpt>
      <trkpt lat="47.56976" lon="3.76975">
        <ele>204.42</ele>
        <time>2013-04-28T09:46:05Z</time>
      </trkpt>
      <trkpt lat="47.56968" lon="3.76964">
        <ele>204.9</ele>
        <time>2013-04-28T09:46:18Z</time>
      </trkpt>
      <trkpt lat="47.56958" lon="3.76952">
        <ele>206.34</ele>
        <time>2013-04-28T09:46:34Z</time>
      </trkpt>
      <trkpt lat="47.56948" lon="3.76936">
        <ele>207.3</ele>
        <time>2013-04-28T09:46:51Z</time>
      </trkpt>
      <trkpt lat="47.56947" lon="3.76935">
        <ele>208.26</ele>
        <time>2013-04-28T09:46:52Z</time>
      </trkpt>
      <trkpt lat="47.56946" lon="3.76934">
        <ele>208.26</ele>
        <time>2013-04-28T09:46:53Z</time>
      </trkpt>
      <trkpt lat="47.56944" lon="3.76933">
        <ele>208.74</ele>
        <time>2013-04-28T09:46:54Z</time>
      </trkpt>
      <trkpt lat="47.56931" lon="3.76921">
        <ele>208.26</ele>
        <time>2013-04-28T09:47:09Z</time>
      </trkpt>
      <trkpt lat="47.56915" lon="3.76905">
        <ele>209.7</ele>
        <time>2013-04-28T09:47:25Z</time>
      </trkpt>
      <trkpt lat="47.56903" lon="3.76884">
        <ele>208.74</ele>
        <time>2013-04-28T09:47:40Z</time>
      </trkpt>
      <trkpt lat="47.56891" lon="3.76867">
        <ele>208.26</ele>
        <time>2013-04-28T09:47:54Z</time>
      </trkpt>
      <trkpt lat="47.56889" lon="3.76859">
        <ele>208.26</ele>
        <time>2013-04-28T09:47:58Z</time>
      </trkpt>
      <trkpt lat="47.56888" lon="3.76858">
        <ele>208.26</ele>
        <time>2013-04-28T09:47:59Z</time>
      </trkpt>
      <trkpt lat="47.56876" lon="3.76837">
        <ele>206.34</ele>
        <time>2013-04-28T09:48:14Z</time>
      </trkpt>
      <trkpt lat="47.56864" lon="3.76806">
        <ele>203.94</ele>
        <time>2013-04-28T09:48:37Z</time>
      </trkpt>
      <trkpt lat="47.56863" lon="3.76784">
        <ele>201.53</ele>
        <time>2013-04-28T09:48:51Z</time>
      </trkpt>
      <trkpt lat="47.56857" lon="3.76777">
        <ele>199.13</ele>
        <time>2013-04-28T09:48:58Z</time>
      </trkpt>
      <trkpt lat="47.56849" lon="3.76773">
        <ele>195.28</ele>
        <time>2013-04-28T09:49:10Z</time>
      </trkpt>
      <trkpt lat="47.56846" lon="3.76774">
        <ele>195.28</ele>
        <time>2013-04-28T09:49:11Z</time>
      </trkpt>
      <trkpt lat="47.56836" lon="3.76771">
        <ele>194.32</ele>
        <time>2013-04-28T09:49:17Z</time>
      </trkpt>
      <trkpt lat="47.56822" lon="3.76768">
        <ele>190.96</ele>
        <time>2013-04-28T09:49:28Z</time>
      </trkpt>
      <trkpt lat="47.56801" lon="3.76765">
        <ele>188.08</ele>
        <time>2013-04-28T09:49:43Z</time>
      </trkpt>
      <trkpt lat="47.5679" lon="3.76757">
        <ele>184.71</ele>
        <time>2013-04-28T09:49:54Z</time>
      </trkpt>
      <trkpt lat="47.56781" lon="3.76747">
        <ele>181.83</ele>
        <time>2013-04-28T09:50:05Z</time>
      </trkpt>
      <trkpt lat="47.56777" lon="3.7674">
        <ele>180.87</ele>
        <time>2013-04-28T09:50:11Z</time>
      </trkpt>
      <trkpt lat="47.56771" lon="3.76733">
        <ele>179.9</ele>
        <time>2013-04-28T09:50:17Z</time>
      </trkpt>
      <trkpt lat="47.56768" lon="3.76729">
        <ele>178.46</ele>
        <time>2013-04-28T09:50:20Z</time>
      </trkpt>
      <trkpt lat="47.56767" lon="3.76728">
        <ele>178.46</ele>
        <time>2013-04-28T09:50:21Z</time>
      </trkpt>
      <trkpt lat="47.56765" lon="3.76727">
        <ele>177.98</ele>
        <time>2013-04-28T09:50:22Z</time>
      </trkpt>
      <trkpt lat="47.56761" lon="3.7672">
        <ele>177.02</ele>
        <time>2013-04-28T09:50:27Z</time>
      </trkpt>
      <trkpt lat="47.56753" lon="3.76707">
        <ele>173.66</ele>
        <time>2013-04-28T09:50:38Z</time>
      </trkpt>
      <trkpt lat="47.56746" lon="3.76698">
        <ele>170.77</ele>
        <time>2013-04-28T09:50:48Z</time>
      </trkpt>
      <trkpt lat="47.56729" lon="3.76685">
        <ele>167.89</ele>
        <time>2013-04-28T09:51:03Z</time>
      </trkpt>
      <trkpt lat="47.56716" lon="3.76677">
        <ele>164.52</ele>
        <time>2013-04-28T09:51:15Z</time>
      </trkpt>
      <trkpt lat="47.56705" lon="3.76675">
        <ele>161.16</ele>
        <time>2013-04-28T09:51:28Z</time>
      </trkpt>
      <trkpt lat="47.56702" lon="3.76674">
        <ele>160.68</ele>
        <time>2013-04-28T09:51:30Z</time>
      </trkpt>
      <trkpt lat="47.56687" lon="3.76666">
        <ele>157.31</ele>
        <time>2013-04-28T09:51:43Z</time>
      </trkpt>
      <trkpt lat="47.5668" lon="3.76662">
        <ele>155.87</ele>
        <time>2013-04-28T09:51:49Z</time>
      </trkpt>
      <trkpt lat="47.56667" lon="3.76658">
        <ele>153.47</ele>
        <time>2013-04-28T09:52:02Z</time>
      </trkpt>
      <trkpt lat="47.56666" lon="3.76658">
        <ele>152.51</ele>
        <time>2013-04-28T09:52:03Z</time>
      </trkpt>
      <trkpt lat="47.56653" lon="3.76653">
        <ele>151.54</ele>
        <time>2013-04-28T09:52:11Z</time>
      </trkpt>
      <trkpt lat="47.56651" lon="3.76654">
        <ele>151.06</ele>
        <time>2013-04-28T09:52:12Z</time>
      </trkpt>
      <trkpt lat="47.56643" lon="3.76661">
        <ele>150.1</ele>
        <time>2013-04-28T09:52:17Z</time>
      </trkpt>
      <trkpt lat="47.56642" lon="3.76662">
        <ele>150.58</ele>
        <time>2013-04-28T09:52:18Z</time>
      </trkpt>
      <trkpt lat="47.56641" lon="3.76664">
        <ele>150.58</ele>
        <time>2013-04-28T09:52:19Z</time>
      </trkpt>
      <trkpt lat="47.56634" lon="3.76672">
        <ele>150.1</ele>
        <time>2013-04-28T09:52:25Z</time>
      </trkpt>
      <trkpt lat="47.56633" lon="3.76674">
        <ele>149.14</ele>
        <time>2013-04-28T09:52:26Z</time>
      </trkpt>
      <trkpt lat="47.56631" lon="3.76675">
        <ele>149.62</ele>
        <time>2013-04-28T09:52:27Z</time>
      </trkpt>
      <trkpt lat="47.56629" lon="3.76676">
        <ele>150.1</ele>
        <time>2013-04-28T09:52:28Z</time>
      </trkpt>
      <trkpt lat="47.56628" lon="3.76678">
        <ele>149.14</ele>
        <time>2013-04-28T09:52:29Z</time>
      </trkpt>
      <trkpt lat="47.56627" lon="3.76679">
        <ele>150.1</ele>
        <time>2013-04-28T09:52:30Z</time>
      </trkpt>
      <trkpt lat="47.56613" lon="3.76702">
        <ele>148.66</ele>
        <time>2013-04-28T09:52:42Z</time>
      </trkpt>
      <trkpt lat="47.56597" lon="3.76726">
        <ele>147.7</ele>
        <time>2013-04-28T09:52:56Z</time>
      </trkpt>
      <trkpt lat="47.56576" lon="3.76737">
        <ele>147.22</ele>
        <time>2013-04-28T09:53:11Z</time>
      </trkpt>
      <trkpt lat="47.56554" lon="3.7674">
        <ele>146.74</ele>
        <time>2013-04-28T09:53:26Z</time>
      </trkpt>
      <trkpt lat="47.56534" lon="3.76739">
        <ele>146.26</ele>
        <time>2013-04-28T09:53:40Z</time>
      </trkpt>
      <trkpt lat="47.56513" lon="3.76733">
        <ele>144.82</ele>
        <time>2013-04-28T09:53:57Z</time>
      </trkpt>
      <trkpt lat="47.56495" lon="3.76731">
        <ele>144.34</ele>
        <time>2013-04-28T09:54:12Z</time>
      </trkpt>
      <trkpt lat="47.56477" lon="3.7673">
        <ele>143.37</ele>
        <time>2013-04-28T09:54:26Z</time>
      </trkpt>
      <trkpt lat="47.56459" lon="3.7673">
        <ele>143.37</ele>
        <time>2013-04-28T09:54:40Z</time>
      </trkpt>
      <trkpt lat="47.56462" lon="3.7672">
        <ele>141.93</ele>
        <time>2013-04-28T09:54:50Z</time>
      </trkpt>
      <trkpt lat="47.56466" lon="3.76717">
        <ele>141.45</ele>
        <time>2013-04-28T09:54:53Z</time>
      </trkpt>
      <trkpt lat="47.5648" lon="3.76699">
        <ele>140.49</ele>
        <time>2013-04-28T09:55:08Z</time>
      </trkpt>
      <trkpt lat="47.56495" lon="3.76675">
        <ele>139.53</ele>
        <time>2013-04-28T09:55:23Z</time>
      </trkpt>
      <trkpt lat="47.56507" lon="3.7666">
        <ele>140.01</ele>
        <time>2013-04-28T09:55:36Z</time>
      </trkpt>
      <trkpt lat="47.56528" lon="3.76651">
        <ele>140.97</ele>
        <time>2013-04-28T09:55:56Z</time>
      </trkpt>
      <trkpt lat="47.56545" lon="3.76633">
        <ele>144.34</ele>
        <time>2013-04-28T09:56:14Z</time>
      </trkpt>
      <trkpt lat="47.56553" lon="3.76619">
        <ele>144.82</ele>
        <time>2013-04-28T09:56:25Z</time>
      </trkpt>
      <trkpt lat="47.56558" lon="3.7659">
        <ele>145.3</ele>
        <time>2013-04-28T09:56:42Z</time>
      </trkpt>
      <trkpt lat="47.56555" lon="3.76571">
        <ele>145.78</ele>
        <time>2013-04-28T09:56:53Z</time>
      </trkpt>
      <trkpt lat="47.56545" lon="3.7653">
        <ele>146.26</ele>
        <time>2013-04-28T09:57:15Z</time>
      </trkpt>
      <trkpt lat="47.56526" lon="3.76496">
        <ele>147.22</ele>
        <time>2013-04-28T09:57:38Z</time>
      </trkpt>
      <trkpt lat="47.56519" lon="3.76462">
        <ele>147.7</ele>
        <time>2013-04-28T09:57:58Z</time>
      </trkpt>
      <trkpt lat="47.56505" lon="3.76425">
        <ele>148.66</ele>
        <time>2013-04-28T09:58:20Z</time>
      </trkpt>
      <trkpt lat="47.56504" lon="3.76418">
        <ele>148.66</ele>
        <time>2013-04-28T09:58:23Z</time>
      </trkpt>
      <trkpt lat="47.5649" lon="3.76378">
        <ele>149.62</ele>
        <time>2013-04-28T09:58:49Z</time>
      </trkpt>
      <trkpt lat="47.56474" lon="3.76335">
        <ele>150.58</ele>
        <time>2013-04-28T09:59:12Z</time>
      </trkpt>
      <trkpt lat="47.56471" lon="3.76284">
        <ele>152.03</ele>
        <time>2013-04-28T09:59:35Z</time>
      </trkpt>
      <trkpt lat="47.56478" lon="3.7625">
        <ele>153.95</ele>
        <time>2013-04-28T09:59:59Z</time>
      </trkpt>
      <trkpt lat="47.56478" lon="3.76249">
        <ele>153.95</ele>
        <time>2013-04-28T10:00:01Z</time>
      </trkpt>
      <trkpt lat="47.56479" lon="3.76247">
        <ele>153.95</ele>
        <time>2013-04-28T10:00:02Z</time>
      </trkpt>
      <trkpt lat="47.5648" lon="3.76244">
        <ele>154.43</ele>
        <time>2013-04-28T10:00:03Z</time>
      </trkpt>
      <trkpt lat="47.56481" lon="3.76242">
        <ele>154.43</ele>
        <time>2013-04-28T10:00:04Z</time>
      </trkpt>
      <trkpt lat="47.56481" lon="3.76239">
        <ele>153.47</ele>
        <time>2013-04-28T10:00:05Z</time>
      </trkpt>
      <trkpt lat="47.5649" lon="3.76192">
        <ele>155.39</ele>
        <time>2013-04-28T10:00:26Z</time>
      </trkpt>
      <trkpt lat="47.56486" lon="3.76156">
        <ele>157.31</ele>
        <time>2013-04-28T10:00:49Z</time>
      </trkpt>
      <trkpt lat="47.56474" lon="3.76133">
        <ele>157.79</ele>
        <time>2013-04-28T10:01:09Z</time>
      </trkpt>
      <trkpt lat="47.56463" lon="3.76114">
        <ele>159.72</ele>
        <time>2013-04-28T10:01:28Z</time>
      </trkpt>
      <trkpt lat="47.56449" lon="3.7609">
        <ele>160.2</ele>
        <time>2013-04-28T10:01:43Z</time>
      </trkpt>
      <trkpt lat="47.56437" lon="3.76077">
        <ele>160.2</ele>
        <time>2013-04-28T10:01:58Z</time>
      </trkpt>
      <trkpt lat="47.5642" lon="3.76064">
        <ele>161.16</ele>
        <time>2013-04-28T10:02:11Z</time>
      </trkpt>
      <trkpt lat="47.56413" lon="3.76053">
        <ele>163.08</ele>
        <time>2013-04-28T10:02:23Z</time>
      </trkpt>
      <trkpt lat="47.56403" lon="3.76047">
        <ele>161.64</ele>
        <time>2013-04-28T10:02:35Z</time>
      </trkpt>
      <trkpt lat="47.56388" lon="3.76038">
        <ele>162.6</ele>
        <time>2013-04-28T10:02:49Z</time>
      </trkpt>
      <trkpt lat="47.5637" lon="3.76025">
        <ele>164.04</ele>
        <time>2013-04-28T10:03:06Z</time>
      </trkpt>
      <trkpt lat="47.56341" lon="3.76012">
        <ele>165.48</ele>
        <time>2013-04-28T10:03:24Z</time>
      </trkpt>
      <trkpt lat="47.56317" lon="3.76006">
        <ele>166.45</ele>
        <time>2013-04-28T10:03:39Z</time>
      </trkpt>
      <trkpt lat="47.56299" lon="3.76008">
        <ele>166.93</ele>
        <time>2013-04-28T10:03:54Z</time>
      </trkpt>
      <trkpt lat="47.56281" lon="3.76012">
        <ele>167.41</ele>
        <time>2013-04-28T10:04:09Z</time>
      </trkpt>
      <trkpt lat="47.56258" lon="3.76019">
        <ele>168.37</ele>
        <time>2013-04-28T10:04:25Z</time>
      </trkpt>
      <trkpt lat="47.56239" lon="3.76022">
        <ele>169.33</ele>
        <time>2013-04-28T10:04:40Z</time>
      </trkpt>
      <trkpt lat="47.56217" lon="3.76021">
        <ele>169.33</ele>
        <time>2013-04-28T10:04:55Z</time>
      </trkpt>
      <trkpt lat="47.562" lon="3.7602">
        <ele>170.29</ele>
        <time>2013-04-28T10:05:08Z</time>
      </trkpt>
      <trkpt lat="47.56181" lon="3.76012">
        <ele>171.25</ele>
        <time>2013-04-28T10:05:25Z</time>
      </trkpt>
      <trkpt lat="47.56164" lon="3.75997">
        <ele>171.73</ele>
        <time>2013-04-28T10:05:41Z</time>
      </trkpt>
      <trkpt lat="47.56143" lon="3.75973">
        <ele>172.69</ele>
        <time>2013-04-28T10:05:57Z</time>
      </trkpt>
      <trkpt lat="47.56131" lon="3.75956">
        <ele>173.66</ele>
        <time>2013-04-28T10:06:12Z</time>
      </trkpt>
      <trkpt lat="47.56119" lon="3.75939">
        <ele>175.1</ele>
        <time>2013-04-28T10:06:26Z</time>
      </trkpt>
      <trkpt lat="47.56109" lon="3.75921">
        <ele>174.62</ele>
        <time>2013-04-28T10:06:40Z</time>
      </trkpt>
      <trkpt lat="47.56101" lon="3.75898">
        <ele>175.58</ele>
        <time>2013-04-28T10:06:55Z</time>
      </trkpt>
      <trkpt lat="47.56097" lon="3.75879">
        <ele>176.06</ele>
        <time>2013-04-28T10:07:07Z</time>
      </trkpt>
      <trkpt lat="47.5609" lon="3.75859">
        <ele>176.54</ele>
        <time>2013-04-28T10:07:20Z</time>
      </trkpt>
      <trkpt lat="47.56077" lon="3.75832">
        <ele>177.02</ele>
        <time>2013-04-28T10:07:37Z</time>
      </trkpt>
      <trkpt lat="47.56074" lon="3.75824">
        <ele>177.5</ele>
        <time>2013-04-28T10:07:41Z</time>
      </trkpt>
      <trkpt lat="47.56064" lon="3.75791">
        <ele>177.5</ele>
        <time>2013-04-28T10:07:58Z</time>
      </trkpt>
      <trkpt lat="47.56055" lon="3.75765">
        <ele>179.42</ele>
        <time>2013-04-28T10:08:14Z</time>
      </trkpt>
      <trkpt lat="47.56044" lon="3.75734">
        <ele>179.42</ele>
        <time>2013-04-28T10:08:30Z</time>
      </trkpt>
      <trkpt lat="47.5604" lon="3.75724">
        <ele>180.87</ele>
        <time>2013-04-28T10:08:36Z</time>
      </trkpt>
      <trkpt lat="47.5603" lon="3.75698">
        <ele>180.87</ele>
        <time>2013-04-28T10:08:51Z</time>
      </trkpt>
      <trkpt lat="47.56029" lon="3.75681">
        <ele>181.35</ele>
        <time>2013-04-28T10:09:01Z</time>
      </trkpt>
      <trkpt lat="47.56023" lon="3.75662">
        <ele>182.79</ele>
        <time>2013-04-28T10:09:14Z</time>
      </trkpt>
      <trkpt lat="47.56021" lon="3.75657">
        <ele>183.27</ele>
        <time>2013-04-28T10:09:17Z</time>
      </trkpt>
      <trkpt lat="47.56008" lon="3.75624">
        <ele>183.75</ele>
        <time>2013-04-28T10:09:34Z</time>
      </trkpt>
      <trkpt lat="47.56001" lon="3.75595">
        <ele>184.71</ele>
        <time>2013-04-28T10:09:49Z</time>
      </trkpt>
      <trkpt lat="47.5599" lon="3.75567">
        <ele>185.67</ele>
        <time>2013-04-28T10:10:06Z</time>
      </trkpt>
      <trkpt lat="47.55981" lon="3.75543">
        <ele>186.63</ele>
        <time>2013-04-28T10:10:20Z</time>
      </trkpt>
      <trkpt lat="47.55981" lon="3.75538">
        <ele>186.63</ele>
        <time>2013-04-28T10:10:23Z</time>
      </trkpt>
      <trkpt lat="47.55976" lon="3.75513">
        <ele>187.59</ele>
        <time>2013-04-28T10:10:39Z</time>
      </trkpt>
      <trkpt lat="47.55969" lon="3.75489">
        <ele>188.08</ele>
        <time>2013-04-28T10:10:52Z</time>
      </trkpt>
      <trkpt lat="47.55967" lon="3.75476">
        <ele>187.59</ele>
        <time>2013-04-28T10:11:00Z</time>
      </trkpt>
      <trkpt lat="47.55966" lon="3.75474">
        <ele>188.08</ele>
        <time>2013-04-28T10:11:01Z</time>
      </trkpt>
      <trkpt lat="47.55966" lon="3.75472">
        <ele>188.08</ele>
        <time>2013-04-28T10:11:02Z</time>
      </trkpt>
      <trkpt lat="47.55957" lon="3.75452">
        <ele>188.56</ele>
        <time>2013-04-28T10:11:15Z</time>
      </trkpt>
      <trkpt lat="47.55948" lon="3.75422">
        <ele>189.04</ele>
        <time>2013-04-28T10:11:29Z</time>
      </trkpt>
      <trkpt lat="47.55943" lon="3.75415">
        <ele>188.56</ele>
        <time>2013-04-28T10:11:33Z</time>
      </trkpt>
      <trkpt lat="47.5594" lon="3.75403">
        <ele>189.04</ele>
        <time>2013-04-28T10:11:40Z</time>
      </trkpt>
      <trkpt lat="47.55938" lon="3.75395">
        <ele>188.56</ele>
        <time>2013-04-28T10:11:44Z</time>
      </trkpt>
      <trkpt lat="47.55929" lon="3.75378">
        <ele>189.52</ele>
        <time>2013-04-28T10:11:57Z</time>
      </trkpt>
      <trkpt lat="47.55928" lon="3.75374">
        <ele>189.52</ele>
        <time>2013-04-28T10:11:59Z</time>
      </trkpt>
      <trkpt lat="47.55921" lon="3.75354">
        <ele>190</ele>
        <time>2013-04-28T10:12:12Z</time>
      </trkpt>
      <trkpt lat="47.55914" lon="3.75324">
        <ele>190</ele>
        <time>2013-04-28T10:12:28Z</time>
      </trkpt>
      <trkpt lat="47.55908" lon="3.75295">
        <ele>190.96</ele>
        <time>2013-04-28T10:12:44Z</time>
      </trkpt>
      <trkpt lat="47.55906" lon="3.75271">
        <ele>191.92</ele>
        <time>2013-04-28T10:12:59Z</time>
      </trkpt>
      <trkpt lat="47.55901" lon="3.75253">
        <ele>192.88</ele>
        <time>2013-04-28T10:13:12Z</time>
      </trkpt>
      <trkpt lat="47.55897" lon="3.75224">
        <ele>193.36</ele>
        <time>2013-04-28T10:13:28Z</time>
      </trkpt>
      <trkpt lat="47.55897" lon="3.75208">
        <ele>193.84</ele>
        <time>2013-04-28T10:13:36Z</time>
      </trkpt>
      <trkpt lat="47.55897" lon="3.75187">
        <ele>194.32</ele>
        <time>2013-04-28T10:13:49Z</time>
      </trkpt>
      <trkpt lat="47.55893" lon="3.75169">
        <ele>194.8</ele>
        <time>2013-04-28T10:14:01Z</time>
      </trkpt>
      <trkpt lat="47.55886" lon="3.75148">
        <ele>196.25</ele>
        <time>2013-04-28T10:14:18Z</time>
      </trkpt>
      <trkpt lat="47.55878" lon="3.75132">
        <ele>197.21</ele>
        <time>2013-04-28T10:14:32Z</time>
      </trkpt>
      <trkpt lat="47.55871" lon="3.7512">
        <ele>198.17</ele>
        <time>2013-04-28T10:14:47Z</time>
      </trkpt>
      <trkpt lat="47.55872" lon="3.75109">
        <ele>198.65</ele>
        <time>2013-04-28T10:15:05Z</time>
      </trkpt>
      <trkpt lat="47.55875" lon="3.75093">
        <ele>199.13</ele>
        <time>2013-04-28T10:15:20Z</time>
      </trkpt>
      <trkpt lat="47.55879" lon="3.75087">
        <ele>199.13</ele>
        <time>2013-04-28T10:15:34Z</time>
      </trkpt>
      <trkpt lat="47.55887" lon="3.75089">
        <ele>199.61</ele>
        <time>2013-04-28T10:15:48Z</time>
      </trkpt>
      <trkpt lat="47.55894" lon="3.75095">
        <ele>199.61</ele>
        <time>2013-04-28T10:15:54Z</time>
      </trkpt>
      <trkpt lat="47.55906" lon="3.751">
        <ele>201.05</ele>
        <time>2013-04-28T10:16:06Z</time>
      </trkpt>
      <trkpt lat="47.55914" lon="3.751">
        <ele>202.01</ele>
        <time>2013-04-28T10:16:15Z</time>
      </trkpt>
      <trkpt lat="47.55929" lon="3.75093">
        <ele>204.9</ele>
        <time>2013-04-28T10:16:28Z</time>
      </trkpt>
      <trkpt lat="47.55935" lon="3.75074">
        <ele>206.82</ele>
        <time>2013-04-28T10:16:40Z</time>
      </trkpt>
      <trkpt lat="47.55937" lon="3.75052">
        <ele>207.3</ele>
        <time>2013-04-28T10:16:53Z</time>
      </trkpt>
      <trkpt lat="47.55937" lon="3.75051">
        <ele>207.78</ele>
        <time>2013-04-28T10:16:54Z</time>
      </trkpt>
      <trkpt lat="47.55937" lon="3.75042">
        <ele>207.78</ele>
        <time>2013-04-28T10:16:59Z</time>
      </trkpt>
      <trkpt lat="47.55937" lon="3.7503">
        <ele>207.78</ele>
        <time>2013-04-28T10:17:07Z</time>
      </trkpt>
      <trkpt lat="47.55937" lon="3.75003">
        <ele>207.78</ele>
        <time>2013-04-28T10:17:20Z</time>
      </trkpt>
      <trkpt lat="47.5593" lon="3.74976">
        <ele>206.82</ele>
        <time>2013-04-28T10:17:34Z</time>
      </trkpt>
      <trkpt lat="47.55929" lon="3.74975">
        <ele>207.3</ele>
        <time>2013-04-28T10:17:35Z</time>
      </trkpt>
      <trkpt lat="47.55928" lon="3.74973">
        <ele>206.82</ele>
        <time>2013-04-28T10:17:36Z</time>
      </trkpt>
      <trkpt lat="47.55928" lon="3.74971">
        <ele>206.34</ele>
        <time>2013-04-28T10:17:37Z</time>
      </trkpt>
      <trkpt lat="47.55927" lon="3.7497">
        <ele>206.34</ele>
        <time>2013-04-28T10:17:38Z</time>
      </trkpt>
      <trkpt lat="47.55928" lon="3.74937">
        <ele>205.86</ele>
        <time>2013-04-28T10:17:55Z</time>
      </trkpt>
      <trkpt lat="47.55931" lon="3.74908">
        <ele>204.42</ele>
        <time>2013-04-28T10:18:09Z</time>
      </trkpt>
      <trkpt lat="47.55932" lon="3.74899">
        <ele>204.42</ele>
        <time>2013-04-28T10:18:14Z</time>
      </trkpt>
      <trkpt lat="47.55931" lon="3.74885">
        <ele>203.94</ele>
        <time>2013-04-28T10:18:22Z</time>
      </trkpt>
      <trkpt lat="47.55922" lon="3.74861">
        <ele>204.42</ele>
        <time>2013-04-28T10:18:36Z</time>
      </trkpt>
      <trkpt lat="47.55919" lon="3.74828">
        <ele>203.46</ele>
        <time>2013-04-28T10:18:52Z</time>
      </trkpt>
      <trkpt lat="47.5591" lon="3.74804">
        <ele>204.42</ele>
        <time>2013-04-28T10:19:04Z</time>
      </trkpt>
      <trkpt lat="47.55908" lon="3.74801">
        <ele>204.42</ele>
        <time>2013-04-28T10:19:06Z</time>
      </trkpt>
      <trkpt lat="47.55902" lon="3.74791">
        <ele>204.9</ele>
        <time>2013-04-28T10:19:13Z</time>
      </trkpt>
      <trkpt lat="47.55901" lon="3.7479">
        <ele>203.94</ele>
        <time>2013-04-28T10:19:14Z</time>
      </trkpt>
      <trkpt lat="47.55901" lon="3.74788">
        <ele>204.42</ele>
        <time>2013-04-28T10:19:15Z</time>
      </trkpt>
      <trkpt lat="47.559" lon="3.74786">
        <ele>204.42</ele>
        <time>2013-04-28T10:19:16Z</time>
      </trkpt>
      <trkpt lat="47.55891" lon="3.74761">
        <ele>203.94</ele>
        <time>2013-04-28T10:19:33Z</time>
      </trkpt>
      <trkpt lat="47.55891" lon="3.7476">
        <ele>203.94</ele>
        <time>2013-04-28T10:19:34Z</time>
      </trkpt>
      <trkpt lat="47.55877" lon="3.74734">
        <ele>204.9</ele>
        <time>2013-04-28T10:19:50Z</time>
      </trkpt>
      <trkpt lat="47.55861" lon="3.74706">
        <ele>205.38</ele>
        <time>2013-04-28T10:20:05Z</time>
      </trkpt>
      <trkpt lat="47.55852" lon="3.74687">
        <ele>205.38</ele>
        <time>2013-04-28T10:20:17Z</time>
      </trkpt>
      <trkpt lat="47.55847" lon="3.74662">
        <ele>206.34</ele>
        <time>2013-04-28T10:20:32Z</time>
      </trkpt>
      <trkpt lat="47.55837" lon="3.74638">
        <ele>206.82</ele>
        <time>2013-04-28T10:20:46Z</time>
      </trkpt>
      <trkpt lat="47.55834" lon="3.74634">
        <ele>206.82</ele>
        <time>2013-04-28T10:20:49Z</time>
      </trkpt>
      <trkpt lat="47.55822" lon="3.74605">
        <ele>207.3</ele>
        <time>2013-04-28T10:21:04Z</time>
      </trkpt>
      <trkpt lat="47.5582" lon="3.74596">
        <ele>207.3</ele>
        <time>2013-04-28T10:21:09Z</time>
      </trkpt>
      <trkpt lat="47.55808" lon="3.74569">
        <ele>207.78</ele>
        <time>2013-04-28T10:21:22Z</time>
      </trkpt>
      <trkpt lat="47.5579" lon="3.74541">
        <ele>207.78</ele>
        <time>2013-04-28T10:21:37Z</time>
      </trkpt>
      <trkpt lat="47.55774" lon="3.74521">
        <ele>208.74</ele>
        <time>2013-04-28T10:21:52Z</time>
      </trkpt>
      <trkpt lat="47.5577" lon="3.74516">
        <ele>208.26</ele>
        <time>2013-04-28T10:21:56Z</time>
      </trkpt>
      <trkpt lat="47.55769" lon="3.74515">
        <ele>208.74</ele>
        <time>2013-04-28T10:21:57Z</time>
      </trkpt>
      <trkpt lat="47.55751" lon="3.74494">
        <ele>208.74</ele>
        <time>2013-04-28T10:22:14Z</time>
      </trkpt>
      <trkpt lat="47.55735" lon="3.74472">
        <ele>210.19</ele>
        <time>2013-04-28T10:22:31Z</time>
      </trkpt>
      <trkpt lat="47.55734" lon="3.7447">
        <ele>209.7</ele>
        <time>2013-04-28T10:22:32Z</time>
      </trkpt>
      <trkpt lat="47.55733" lon="3.74469">
        <ele>210.19</ele>
        <time>2013-04-28T10:22:33Z</time>
      </trkpt>
      <trkpt lat="47.55728" lon="3.74458">
        <ele>210.67</ele>
        <time>2013-04-28T10:22:40Z</time>
      </trkpt>
      <trkpt lat="47.55724" lon="3.74444">
        <ele>213.07</ele>
        <time>2013-04-28T10:22:51Z</time>
      </trkpt>
      <trkpt lat="47.55707" lon="3.7442">
        <ele>213.55</ele>
        <time>2013-04-28T10:23:07Z</time>
      </trkpt>
      <trkpt lat="47.55694" lon="3.74395">
        <ele>215.47</ele>
        <time>2013-04-28T10:23:24Z</time>
      </trkpt>
      <trkpt lat="47.5568" lon="3.74377">
        <ele>215.95</ele>
        <time>2013-04-28T10:23:36Z</time>
      </trkpt>
      <trkpt lat="47.5568" lon="3.74376">
        <ele>217.4</ele>
        <time>2013-04-28T10:23:37Z</time>
      </trkpt>
      <trkpt lat="47.55679" lon="3.74374">
        <ele>216.43</ele>
        <time>2013-04-28T10:23:38Z</time>
      </trkpt>
      <trkpt lat="47.55677" lon="3.7437">
        <ele>216.91</ele>
        <time>2013-04-28T10:23:40Z</time>
      </trkpt>
      <trkpt lat="47.55676" lon="3.74369">
        <ele>216.91</ele>
        <time>2013-04-28T10:23:41Z</time>
      </trkpt>
      <trkpt lat="47.55675" lon="3.74368">
        <ele>216.91</ele>
        <time>2013-04-28T10:23:42Z</time>
      </trkpt>
      <trkpt lat="47.55675" lon="3.74367">
        <ele>216.91</ele>
        <time>2013-04-28T10:23:43Z</time>
      </trkpt>
      <trkpt lat="47.55674" lon="3.74366">
        <ele>216.91</ele>
        <time>2013-04-28T10:23:44Z</time>
      </trkpt>
      <trkpt lat="47.55665" lon="3.74352">
        <ele>217.88</ele>
        <time>2013-04-28T10:23:55Z</time>
      </trkpt>
      <trkpt lat="47.55657" lon="3.7434">
        <ele>221.24</ele>
        <time>2013-04-28T10:24:04Z</time>
      </trkpt>
      <trkpt lat="47.55656" lon="3.74337">
        <ele>218.84</ele>
        <time>2013-04-28T10:24:06Z</time>
      </trkpt>
      <trkpt lat="47.55654" lon="3.74333">
        <ele>219.8</ele>
        <time>2013-04-28T10:24:09Z</time>
      </trkpt>
      <trkpt lat="47.55653" lon="3.74331">
        <ele>218.84</ele>
        <time>2013-04-28T10:24:10Z</time>
      </trkpt>
      <trkpt lat="47.55651" lon="3.74329">
        <ele>219.32</ele>
        <time>2013-04-28T10:24:11Z</time>
      </trkpt>
      <trkpt lat="47.55639" lon="3.74312">
        <ele>219.8</ele>
        <time>2013-04-28T10:24:26Z</time>
      </trkpt>
      <trkpt lat="47.55622" lon="3.74286">
        <ele>221.24</ele>
        <time>2013-04-28T10:24:46Z</time>
      </trkpt>
      <trkpt lat="47.55604" lon="3.74261">
        <ele>225.57</ele>
        <time>2013-04-28T10:25:06Z</time>
      </trkpt>
      <trkpt lat="47.55603" lon="3.74261">
        <ele>225.57</ele>
        <time>2013-04-28T10:25:07Z</time>
      </trkpt>
      <trkpt lat="47.55602" lon="3.7426">
        <ele>221.72</ele>
        <time>2013-04-28T10:25:08Z</time>
      </trkpt>
      <trkpt lat="47.55589" lon="3.74245">
        <ele>221.24</ele>
        <time>2013-04-28T10:25:22Z</time>
      </trkpt>
      <trkpt lat="47.55588" lon="3.74245">
        <ele>221.72</ele>
        <time>2013-04-28T10:25:23Z</time>
      </trkpt>
      <trkpt lat="47.55585" lon="3.74257">
        <ele>220.76</ele>
        <time>2013-04-28T10:25:35Z</time>
      </trkpt>
      <trkpt lat="47.55579" lon="3.74256">
        <ele>220.76</ele>
        <time>2013-04-28T10:25:48Z</time>
      </trkpt>
      <trkpt lat="47.55575" lon="3.74258">
        <ele>221.72</ele>
        <time>2013-04-28T10:26:01Z</time>
      </trkpt>
      <trkpt lat="47.55575" lon="3.7426">
        <ele>221.24</ele>
        <time>2013-04-28T10:26:19Z</time>
      </trkpt>
      <trkpt lat="47.55574" lon="3.74261">
        <ele>220.76</ele>
        <time>2013-04-28T10:26:47Z</time>
      </trkpt>
      <trkpt lat="47.55573" lon="3.74264">
        <ele>221.24</ele>
        <time>2013-04-28T10:27:18Z</time>
      </trkpt>
      <trkpt lat="47.55574" lon="3.74263">
        <ele>221.24</ele>
        <time>2013-04-28T10:27:40Z</time>
      </trkpt>
      <trkpt lat="47.55574" lon="3.74266">
        <ele>221.24</ele>
        <time>2013-04-28T10:27:52Z</time>
      </trkpt>
      <trkpt lat="47.55576" lon="3.74267">
        <ele>220.76</ele>
        <time>2013-04-28T10:28:15Z</time>
      </trkpt>
      <trkpt lat="47.55575" lon="3.74264">
        <ele>221.24</ele>
        <time>2013-04-28T10:28:34Z</time>
      </trkpt>
      <trkpt lat="47.55575" lon="3.74261">
        <ele>221.24</ele>
        <time>2013-04-28T10:28:50Z</time>
      </trkpt>
      <trkpt lat="47.55568" lon="3.74261">
        <ele>221.24</ele>
        <time>2013-04-28T10:29:02Z</time>
      </trkpt>
      <trkpt lat="47.55567" lon="3.74259">
        <ele>221.24</ele>
        <time>2013-04-28T10:29:15Z</time>
      </trkpt>
      <trkpt lat="47.5557" lon="3.74264">
        <ele>220.76</ele>
        <time>2013-04-28T10:29:33Z</time>
      </trkpt>
      <trkpt lat="47.55568" lon="3.74266">
        <ele>221.24</ele>
        <time>2013-04-28T10:29:46Z</time>
      </trkpt>
      <trkpt lat="47.55567" lon="3.7426">
        <ele>220.76</ele>
        <time>2013-04-28T10:30:05Z</time>
      </trkpt>
      <trkpt lat="47.55566" lon="3.74264">
        <ele>220.76</ele>
        <time>2013-04-28T10:30:22Z</time>
      </trkpt>
      <trkpt lat="47.55565" lon="3.74262">
        <ele>220.28</ele>
        <time>2013-04-28T10:30:46Z</time>
      </trkpt>
      <trkpt lat="47.55569" lon="3.74266">
        <ele>221.24</ele>
        <time>2013-04-28T10:31:05Z</time>
      </trkpt>
      <trkpt lat="47.5557" lon="3.74267">
        <ele>220.76</ele>
        <time>2013-04-28T10:31:24Z</time>
      </trkpt>
      <trkpt lat="47.5557" lon="3.74268">
        <ele>220.28</ele>
        <time>2013-04-28T10:31:45Z</time>
      </trkpt>
      <trkpt lat="47.55569" lon="3.74258">
        <ele>220.76</ele>
        <time>2013-04-28T10:32:00Z</time>
      </trkpt>
      <trkpt lat="47.55574" lon="3.74263">
        <ele>220.76</ele>
        <time>2013-04-28T10:32:15Z</time>
      </trkpt>
      <trkpt lat="47.55573" lon="3.74266">
        <ele>220.28</ele>
        <time>2013-04-28T10:32:40Z</time>
      </trkpt>
      <trkpt lat="47.55571" lon="3.7426">
        <ele>220.28</ele>
        <time>2013-04-28T10:32:52Z</time>
      </trkpt>
      <trkpt lat="47.5557" lon="3.74261">
        <ele>220.28</ele>
        <time>2013-04-28T10:33:14Z</time>
      </trkpt>
      <trkpt lat="47.55572" lon="3.74268">
        <ele>220.28</ele>
        <time>2013-04-28T10:33:32Z</time>
      </trkpt>
      <trkpt lat="47.5557" lon="3.74263">
        <ele>220.76</ele>
        <time>2013-04-28T10:33:56Z</time>
      </trkpt>
      <trkpt lat="47.55571" lon="3.74269">
        <ele>219.8</ele>
        <time>2013-04-28T10:34:10Z</time>
      </trkpt>
      <trkpt lat="47.5557" lon="3.74266">
        <ele>219.8</ele>
        <time>2013-04-28T10:34:26Z</time>
      </trkpt>
      <trkpt lat="47.55574" lon="3.74265">
        <ele>220.28</ele>
        <time>2013-04-28T10:34:43Z</time>
      </trkpt>
      <trkpt lat="47.55568" lon="3.74259">
        <ele>220.28</ele>
        <time>2013-04-28T10:35:03Z</time>
      </trkpt>
      <trkpt lat="47.55571" lon="3.74266">
        <ele>219.32</ele>
        <time>2013-04-28T10:35:17Z</time>
      </trkpt>
      <trkpt lat="47.55574" lon="3.74264">
        <ele>219.32</ele>
        <time>2013-04-28T10:35:36Z</time>
      </trkpt>
      <trkpt lat="47.55577" lon="3.74266">
        <ele>219.32</ele>
        <time>2013-04-28T10:36:03Z</time>
      </trkpt>
      <trkpt lat="47.55578" lon="3.74265">
        <ele>219.32</ele>
        <time>2013-04-28T10:36:20Z</time>
      </trkpt>
      <trkpt lat="47.55577" lon="3.74264">
        <ele>218.84</ele>
        <time>2013-04-28T10:36:43Z</time>
      </trkpt>
      <trkpt lat="47.55577" lon="3.74262">
        <ele>219.32</ele>
        <time>2013-04-28T10:37:00Z</time>
      </trkpt>
      <trkpt lat="47.55585" lon="3.7426">
        <ele>219.8</ele>
        <time>2013-04-28T10:37:16Z</time>
      </trkpt>
      <trkpt lat="47.55585" lon="3.74246">
        <ele>220.28</ele>
        <time>2013-04-28T10:37:36Z</time>
      </trkpt>
      <trkpt lat="47.55575" lon="3.74231">
        <ele>220.28</ele>
        <time>2013-04-28T10:37:48Z</time>
      </trkpt>
      <trkpt lat="47.55557" lon="3.74213">
        <ele>220.28</ele>
        <time>2013-04-28T10:38:05Z</time>
      </trkpt>
      <trkpt lat="47.55536" lon="3.74202">
        <ele>219.8</ele>
        <time>2013-04-28T10:38:22Z</time>
      </trkpt>
      <trkpt lat="47.55515" lon="3.74191">
        <ele>219.8</ele>
        <time>2013-04-28T10:38:39Z</time>
      </trkpt>
      <trkpt lat="47.55497" lon="3.74181">
        <ele>218.36</ele>
        <time>2013-04-28T10:38:53Z</time>
      </trkpt>
      <trkpt lat="47.55473" lon="3.74167">
        <ele>218.36</ele>
        <time>2013-04-28T10:39:11Z</time>
      </trkpt>
      <trkpt lat="47.55448" lon="3.74152">
        <ele>217.88</ele>
        <time>2013-04-28T10:39:32Z</time>
      </trkpt>
      <trkpt lat="47.55423" lon="3.74144">
        <ele>216.43</ele>
        <time>2013-04-28T10:39:51Z</time>
      </trkpt>
      <trkpt lat="47.55398" lon="3.74144">
        <ele>216.43</ele>
        <time>2013-04-28T10:40:09Z</time>
      </trkpt>
      <trkpt lat="47.55373" lon="3.74147">
        <ele>217.4</ele>
        <time>2013-04-28T10:40:26Z</time>
      </trkpt>
      <trkpt lat="47.55343" lon="3.74147">
        <ele>218.84</ele>
        <time>2013-04-28T10:40:46Z</time>
      </trkpt>
      <trkpt lat="47.55314" lon="3.74147">
        <ele>218.84</ele>
        <time>2013-04-28T10:41:08Z</time>
      </trkpt>
      <trkpt lat="47.55283" lon="3.74142">
        <ele>218.84</ele>
        <time>2013-04-28T10:41:29Z</time>
      </trkpt>
      <trkpt lat="47.55259" lon="3.74136">
        <ele>218.36</ele>
        <time>2013-04-28T10:41:48Z</time>
      </trkpt>
      <trkpt lat="47.55227" lon="3.74131">
        <ele>218.84</ele>
        <time>2013-04-28T10:42:11Z</time>
      </trkpt>
      <trkpt lat="47.55197" lon="3.74124">
        <ele>218.84</ele>
        <time>2013-04-28T10:42:33Z</time>
      </trkpt>
      <trkpt lat="47.5517" lon="3.74122">
        <ele>218.36</ele>
        <time>2013-04-28T10:42:51Z</time>
      </trkpt>
      <trkpt lat="47.55148" lon="3.74125">
        <ele>218.84</ele>
        <time>2013-04-28T10:43:08Z</time>
      </trkpt>
      <trkpt lat="47.55128" lon="3.74134">
        <ele>220.28</ele>
        <time>2013-04-28T10:43:24Z</time>
      </trkpt>
      <trkpt lat="47.55114" lon="3.74142">
        <ele>221.24</ele>
        <time>2013-04-28T10:43:36Z</time>
      </trkpt>
      <trkpt lat="47.55095" lon="3.7416">
        <ele>221.72</ele>
        <time>2013-04-28T10:43:53Z</time>
      </trkpt>
      <trkpt lat="47.55082" lon="3.74183">
        <ele>223.16</ele>
        <time>2013-04-28T10:44:08Z</time>
      </trkpt>
      <trkpt lat="47.55067" lon="3.74211">
        <ele>224.12</ele>
        <time>2013-04-28T10:44:27Z</time>
      </trkpt>
      <trkpt lat="47.55047" lon="3.74242">
        <ele>225.57</ele>
        <time>2013-04-28T10:44:48Z</time>
      </trkpt>
      <trkpt lat="47.55029" lon="3.74263">
        <ele>226.53</ele>
        <time>2013-04-28T10:45:05Z</time>
      </trkpt>
      <trkpt lat="47.55009" lon="3.74282">
        <ele>226.53</ele>
        <time>2013-04-28T10:45:22Z</time>
      </trkpt>
      <trkpt lat="47.54991" lon="3.74304">
        <ele>227.01</ele>
        <time>2013-04-28T10:45:40Z</time>
      </trkpt>
      <trkpt lat="47.54975" lon="3.74328">
        <ele>227.97</ele>
        <time>2013-04-28T10:45:58Z</time>
      </trkpt>
      <trkpt lat="47.54975" lon="3.7433">
        <ele>227.01</ele>
        <time>2013-04-28T10:45:59Z</time>
      </trkpt>
      <trkpt lat="47.54974" lon="3.74331">
        <ele>227.97</ele>
        <time>2013-04-28T10:46:00Z</time>
      </trkpt>
      <trkpt lat="47.54973" lon="3.74333">
        <ele>227.49</ele>
        <time>2013-04-28T10:46:01Z</time>
      </trkpt>
      <trkpt lat="47.54972" lon="3.74334">
        <ele>227.49</ele>
        <time>2013-04-28T10:46:02Z</time>
      </trkpt>
      <trkpt lat="47.54972" lon="3.74336">
        <ele>227.01</ele>
        <time>2013-04-28T10:46:03Z</time>
      </trkpt>
      <trkpt lat="47.54959" lon="3.74355">
        <ele>226.53</ele>
        <time>2013-04-28T10:46:18Z</time>
      </trkpt>
      <trkpt lat="47.54955" lon="3.74361">
        <ele>226.53</ele>
        <time>2013-04-28T10:46:22Z</time>
      </trkpt>
      <trkpt lat="47.54955" lon="3.74363">
        <ele>226.05</ele>
        <time>2013-04-28T10:46:23Z</time>
      </trkpt>
      <trkpt lat="47.54935" lon="3.74388">
        <ele>225.57</ele>
        <time>2013-04-28T10:46:42Z</time>
      </trkpt>
      <trkpt lat="47.54917" lon="3.74413">
        <ele>223.64</ele>
        <time>2013-04-28T10:47:01Z</time>
      </trkpt>
      <trkpt lat="47.54903" lon="3.74439">
        <ele>222.68</ele>
        <time>2013-04-28T10:47:18Z</time>
      </trkpt>
      <trkpt lat="47.549" lon="3.74446">
        <ele>222.2</ele>
        <time>2013-04-28T10:47:22Z</time>
      </trkpt>
      <trkpt lat="47.5488" lon="3.74473">
        <ele>220.76</ele>
        <time>2013-04-28T10:47:42Z</time>
      </trkpt>
      <trkpt lat="47.54876" lon="3.74502">
        <ele>220.28</ele>
        <time>2013-04-28T10:47:58Z</time>
      </trkpt>
      <trkpt lat="47.54879" lon="3.74519">
        <ele>219.8</ele>
        <time>2013-04-28T10:48:09Z</time>
      </trkpt>
      <trkpt lat="47.54881" lon="3.74522">
        <ele>219.32</ele>
        <time>2013-04-28T10:48:11Z</time>
      </trkpt>
      <trkpt lat="47.54882" lon="3.74522">
        <ele>220.28</ele>
        <time>2013-04-28T10:48:12Z</time>
      </trkpt>
      <trkpt lat="47.54895" lon="3.74515">
        <ele>221.24</ele>
        <time>2013-04-28T10:48:25Z</time>
      </trkpt>
      <trkpt lat="47.54907" lon="3.74518">
        <ele>221.24</ele>
        <time>2013-04-28T10:48:41Z</time>
      </trkpt>
      <trkpt lat="47.54917" lon="3.745">
        <ele>220.28</ele>
        <time>2013-04-28T10:49:01Z</time>
      </trkpt>
      <trkpt lat="47.5491" lon="3.74506">
        <ele>221.24</ele>
        <time>2013-04-28T10:49:26Z</time>
      </trkpt>
      <trkpt lat="47.54901" lon="3.74517">
        <ele>219.8</ele>
        <time>2013-04-28T10:49:43Z</time>
      </trkpt>
      <trkpt lat="47.54888" lon="3.74518">
        <ele>219.32</ele>
        <time>2013-04-28T10:49:59Z</time>
      </trkpt>
      <trkpt lat="47.54881" lon="3.74525">
        <ele>218.84</ele>
        <time>2013-04-28T10:50:06Z</time>
      </trkpt>
      <trkpt lat="47.5488" lon="3.74526">
        <ele>217.88</ele>
        <time>2013-04-28T10:50:07Z</time>
      </trkpt>
      <trkpt lat="47.54879" lon="3.74527">
        <ele>217.88</ele>
        <time>2013-04-28T10:50:08Z</time>
      </trkpt>
      <trkpt lat="47.54858" lon="3.74553">
        <ele>216.91</ele>
        <time>2013-04-28T10:50:26Z</time>
      </trkpt>
      <trkpt lat="47.54836" lon="3.74568">
        <ele>215.95</ele>
        <time>2013-04-28T10:50:42Z</time>
      </trkpt>
      <trkpt lat="47.54815" lon="3.74586">
        <ele>214.99</ele>
        <time>2013-04-28T10:51:01Z</time>
      </trkpt>
      <trkpt lat="47.54801" lon="3.74599">
        <ele>214.51</ele>
        <time>2013-04-28T10:51:17Z</time>
      </trkpt>
      <trkpt lat="47.54795" lon="3.74605">
        <ele>213.55</ele>
        <time>2013-04-28T10:51:23Z</time>
      </trkpt>
      <trkpt lat="47.54791" lon="3.74608">
        <ele>213.07</ele>
        <time>2013-04-28T10:51:26Z</time>
      </trkpt>
      <trkpt lat="47.5479" lon="3.7461">
        <ele>212.59</ele>
        <time>2013-04-28T10:51:27Z</time>
      </trkpt>
      <trkpt lat="47.54789" lon="3.74612">
        <ele>213.07</ele>
        <time>2013-04-28T10:51:28Z</time>
      </trkpt>
      <trkpt lat="47.54788" lon="3.74613">
        <ele>213.55</ele>
        <time>2013-04-28T10:51:29Z</time>
      </trkpt>
      <trkpt lat="47.54787" lon="3.74615">
        <ele>212.59</ele>
        <time>2013-04-28T10:51:30Z</time>
      </trkpt>
      <trkpt lat="47.54783" lon="3.7462">
        <ele>213.07</ele>
        <time>2013-04-28T10:51:34Z</time>
      </trkpt>
      <trkpt lat="47.54782" lon="3.7462">
        <ele>212.11</ele>
        <time>2013-04-28T10:51:35Z</time>
      </trkpt>
      <trkpt lat="47.54779" lon="3.74623">
        <ele>212.59</ele>
        <time>2013-04-28T10:51:38Z</time>
      </trkpt>
      <trkpt lat="47.54775" lon="3.74626">
        <ele>212.11</ele>
        <time>2013-04-28T10:51:42Z</time>
      </trkpt>
      <trkpt lat="47.54774" lon="3.74627">
        <ele>212.59</ele>
        <time>2013-04-28T10:51:43Z</time>
      </trkpt>
      <trkpt lat="47.5475" lon="3.74648">
        <ele>211.63</ele>
        <time>2013-04-28T10:52:05Z</time>
      </trkpt>
      <trkpt lat="47.5473" lon="3.74666">
        <ele>211.15</ele>
        <time>2013-04-28T10:52:22Z</time>
      </trkpt>
      <trkpt lat="47.54706" lon="3.74691">
        <ele>210.67</ele>
        <time>2013-04-28T10:52:45Z</time>
      </trkpt>
      <trkpt lat="47.54683" lon="3.74712">
        <ele>210.19</ele>
        <time>2013-04-28T10:53:04Z</time>
      </trkpt>
      <trkpt lat="47.54663" lon="3.74733">
        <ele>209.22</ele>
        <time>2013-04-28T10:53:22Z</time>
      </trkpt>
      <trkpt lat="47.54645" lon="3.74745">
        <ele>209.7</ele>
        <time>2013-04-28T10:53:37Z</time>
      </trkpt>
      <trkpt lat="47.54644" lon="3.74746">
        <ele>209.22</ele>
        <time>2013-04-28T10:53:38Z</time>
      </trkpt>
      <trkpt lat="47.54642" lon="3.74746">
        <ele>209.7</ele>
        <time>2013-04-28T10:53:39Z</time>
      </trkpt>
      <trkpt lat="47.54641" lon="3.74747">
        <ele>209.7</ele>
        <time>2013-04-28T10:53:40Z</time>
      </trkpt>
      <trkpt lat="47.5462" lon="3.7476">
        <ele>209.7</ele>
        <time>2013-04-28T10:53:59Z</time>
      </trkpt>
      <trkpt lat="47.54605" lon="3.74773">
        <ele>210.67</ele>
        <time>2013-04-28T10:54:14Z</time>
      </trkpt>
      <trkpt lat="47.54579" lon="3.74788">
        <ele>211.15</ele>
        <time>2013-04-28T10:54:32Z</time>
      </trkpt>
      <trkpt lat="47.54562" lon="3.74802">
        <ele>212.11</ele>
        <time>2013-04-28T10:54:49Z</time>
      </trkpt>
      <trkpt lat="47.54534" lon="3.74814">
        <ele>212.59</ele>
        <time>2013-04-28T10:55:06Z</time>
      </trkpt>
      <trkpt lat="47.5451" lon="3.74828">
        <ele>213.55</ele>
        <time>2013-04-28T10:55:22Z</time>
      </trkpt>
      <trkpt lat="47.54487" lon="3.74847">
        <ele>214.03</ele>
        <time>2013-04-28T10:55:42Z</time>
      </trkpt>
      <trkpt lat="47.54466" lon="3.74866">
        <ele>214.03</ele>
        <time>2013-04-28T10:56:02Z</time>
      </trkpt>
      <trkpt lat="47.54448" lon="3.74878">
        <ele>214.51</ele>
        <time>2013-04-28T10:56:18Z</time>
      </trkpt>
      <trkpt lat="47.54432" lon="3.74884">
        <ele>214.99</ele>
        <time>2013-04-28T10:56:31Z</time>
      </trkpt>
      <trkpt lat="47.54418" lon="3.74889">
        <ele>215.47</ele>
        <time>2013-04-28T10:56:42Z</time>
      </trkpt>
      <trkpt lat="47.54417" lon="3.74891">
        <ele>214.99</ele>
        <time>2013-04-28T10:56:43Z</time>
      </trkpt>
      <trkpt lat="47.54413" lon="3.74894">
        <ele>214.51</ele>
        <time>2013-04-28T10:56:48Z</time>
      </trkpt>
      <trkpt lat="47.54396" lon="3.74896">
        <ele>215.47</ele>
        <time>2013-04-28T10:57:01Z</time>
      </trkpt>
      <trkpt lat="47.54373" lon="3.74902">
        <ele>215.95</ele>
        <time>2013-04-28T10:57:18Z</time>
      </trkpt>
      <trkpt lat="47.54369" lon="3.74904">
        <ele>215.47</ele>
        <time>2013-04-28T10:57:22Z</time>
      </trkpt>
      <trkpt lat="47.54368" lon="3.74904">
        <ele>215.95</ele>
        <time>2013-04-28T10:57:23Z</time>
      </trkpt>
      <trkpt lat="47.54343" lon="3.7491">
        <ele>216.43</ele>
        <time>2013-04-28T10:57:40Z</time>
      </trkpt>
      <trkpt lat="47.5432" lon="3.74913">
        <ele>216.43</ele>
        <time>2013-04-28T10:57:56Z</time>
      </trkpt>
      <trkpt lat="47.54299" lon="3.74916">
        <ele>217.88</ele>
        <time>2013-04-28T10:58:12Z</time>
      </trkpt>
      <trkpt lat="47.54276" lon="3.74922">
        <ele>218.36</ele>
        <time>2013-04-28T10:58:29Z</time>
      </trkpt>
      <trkpt lat="47.54266" lon="3.74923">
        <ele>218.36</ele>
        <time>2013-04-28T10:58:36Z</time>
      </trkpt>
      <trkpt lat="47.54265" lon="3.74923">
        <ele>219.32</ele>
        <time>2013-04-28T10:58:37Z</time>
      </trkpt>
      <trkpt lat="47.54247" lon="3.74929">
        <ele>220.28</ele>
        <time>2013-04-28T10:58:53Z</time>
      </trkpt>
      <trkpt lat="47.54228" lon="3.74934">
        <ele>220.76</ele>
        <time>2013-04-28T10:59:08Z</time>
      </trkpt>
      <trkpt lat="47.54207" lon="3.74944">
        <ele>222.2</ele>
        <time>2013-04-28T10:59:26Z</time>
      </trkpt>
      <trkpt lat="47.54188" lon="3.7495">
        <ele>222.68</ele>
        <time>2013-04-28T10:59:43Z</time>
      </trkpt>
      <trkpt lat="47.54163" lon="3.74954">
        <ele>223.64</ele>
        <time>2013-04-28T11:00:02Z</time>
      </trkpt>
      <trkpt lat="47.54141" lon="3.74961">
        <ele>224.61</ele>
        <time>2013-04-28T11:00:20Z</time>
      </trkpt>
      <trkpt lat="47.54119" lon="3.74967">
        <ele>226.53</ele>
        <time>2013-04-28T11:00:37Z</time>
      </trkpt>
      <trkpt lat="47.54096" lon="3.74974">
        <ele>226.05</ele>
        <time>2013-04-28T11:00:54Z</time>
      </trkpt>
      <trkpt lat="47.54075" lon="3.74984">
        <ele>227.49</ele>
        <time>2013-04-28T11:01:12Z</time>
      </trkpt>
      <trkpt lat="47.54073" lon="3.74984">
        <ele>227.97</ele>
        <time>2013-04-28T11:01:13Z</time>
      </trkpt>
      <trkpt lat="47.54056" lon="3.74992">
        <ele>228.93</ele>
        <time>2013-04-28T11:01:27Z</time>
      </trkpt>
      <trkpt lat="47.54033" lon="3.75002">
        <ele>230.37</ele>
        <time>2013-04-28T11:01:45Z</time>
      </trkpt>
      <trkpt lat="47.5401" lon="3.75015">
        <ele>231.81</ele>
        <time>2013-04-28T11:02:03Z</time>
      </trkpt>
      <trkpt lat="47.53991" lon="3.75032">
        <ele>233.26</ele>
        <time>2013-04-28T11:02:20Z</time>
      </trkpt>
      <trkpt lat="47.53984" lon="3.75038">
        <ele>233.26</ele>
        <time>2013-04-28T11:02:26Z</time>
      </trkpt>
      <trkpt lat="47.53965" lon="3.75064">
        <ele>235.18</ele>
        <time>2013-04-28T11:02:46Z</time>
      </trkpt>
      <trkpt lat="47.53946" lon="3.75077">
        <ele>235.66</ele>
        <time>2013-04-28T11:03:04Z</time>
      </trkpt>
      <trkpt lat="47.53922" lon="3.75092">
        <ele>236.62</ele>
        <time>2013-04-28T11:03:23Z</time>
      </trkpt>
      <trkpt lat="47.53901" lon="3.75106">
        <ele>236.14</ele>
        <time>2013-04-28T11:03:40Z</time>
      </trkpt>
      <trkpt lat="47.53881" lon="3.75119">
        <ele>237.58</ele>
        <time>2013-04-28T11:03:58Z</time>
      </trkpt>
      <trkpt lat="47.53865" lon="3.75134">
        <ele>239.02</ele>
        <time>2013-04-28T11:04:15Z</time>
      </trkpt>
      <trkpt lat="47.53849" lon="3.75153">
        <ele>240.47</ele>
        <time>2013-04-28T11:04:33Z</time>
      </trkpt>
      <trkpt lat="47.53829" lon="3.7517">
        <ele>241.91</ele>
        <time>2013-04-28T11:04:52Z</time>
      </trkpt>
      <trkpt lat="47.5381" lon="3.75184">
        <ele>242.39</ele>
        <time>2013-04-28T11:05:12Z</time>
      </trkpt>
      <trkpt lat="47.5379" lon="3.75188">
        <ele>242.39</ele>
        <time>2013-04-28T11:05:31Z</time>
      </trkpt>
      <trkpt lat="47.53772" lon="3.75201">
        <ele>243.83</ele>
        <time>2013-04-28T11:05:50Z</time>
      </trkpt>
      <trkpt lat="47.53751" lon="3.75204">
        <ele>244.31</ele>
        <time>2013-04-28T11:06:09Z</time>
      </trkpt>
      <trkpt lat="47.53729" lon="3.75214">
        <ele>246.23</ele>
        <time>2013-04-28T11:06:28Z</time>
      </trkpt>
      <trkpt lat="47.53708" lon="3.75231">
        <ele>246.23</ele>
        <time>2013-04-28T11:06:47Z</time>
      </trkpt>
      <trkpt lat="47.53688" lon="3.75243">
        <ele>245.75</ele>
        <time>2013-04-28T11:07:05Z</time>
      </trkpt>
      <trkpt lat="47.53665" lon="3.75248">
        <ele>246.23</ele>
        <time>2013-04-28T11:07:22Z</time>
      </trkpt>
      <trkpt lat="47.53643" lon="3.75252">
        <ele>246.72</ele>
        <time>2013-04-28T11:07:39Z</time>
      </trkpt>
      <trkpt lat="47.53619" lon="3.75259">
        <ele>245.75</ele>
        <time>2013-04-28T11:07:57Z</time>
      </trkpt>
      <trkpt lat="47.53598" lon="3.75258">
        <ele>246.72</ele>
        <time>2013-04-28T11:08:15Z</time>
      </trkpt>
      <trkpt lat="47.53574" lon="3.75254">
        <ele>246.72</ele>
        <time>2013-04-28T11:08:32Z</time>
      </trkpt>
      <trkpt lat="47.53563" lon="3.75274">
        <ele>244.31</ele>
        <time>2013-04-28T11:08:48Z</time>
      </trkpt>
      <trkpt lat="47.53559" lon="3.75307">
        <ele>242.39</ele>
        <time>2013-04-28T11:09:05Z</time>
      </trkpt>
      <trkpt lat="47.53555" lon="3.75334">
        <ele>240.47</ele>
        <time>2013-04-28T11:09:21Z</time>
      </trkpt>
      <trkpt lat="47.53554" lon="3.75373">
        <ele>237.1</ele>
        <time>2013-04-28T11:09:40Z</time>
      </trkpt>
      <trkpt lat="47.53553" lon="3.75404">
        <ele>236.14</ele>
        <time>2013-04-28T11:09:58Z</time>
      </trkpt>
      <trkpt lat="47.53553" lon="3.7544">
        <ele>234.7</ele>
        <time>2013-04-28T11:10:18Z</time>
      </trkpt>
      <trkpt lat="47.53549" lon="3.75474">
        <ele>233.26</ele>
        <time>2013-04-28T11:10:34Z</time>
      </trkpt>
      <trkpt lat="47.53547" lon="3.75498">
        <ele>232.78</ele>
        <time>2013-04-28T11:10:46Z</time>
      </trkpt>
      <trkpt lat="47.53545" lon="3.75528">
        <ele>230.85</ele>
        <time>2013-04-28T11:11:02Z</time>
      </trkpt>
      <trkpt lat="47.53542" lon="3.75555">
        <ele>229.41</ele>
        <time>2013-04-28T11:11:15Z</time>
      </trkpt>
      <trkpt lat="47.53539" lon="3.7559">
        <ele>229.41</ele>
        <time>2013-04-28T11:11:31Z</time>
      </trkpt>
      <trkpt lat="47.53537" lon="3.75603">
        <ele>228.45</ele>
        <time>2013-04-28T11:11:39Z</time>
      </trkpt>
      <trkpt lat="47.53534" lon="3.75626">
        <ele>228.45</ele>
        <time>2013-04-28T11:11:50Z</time>
      </trkpt>
      <trkpt lat="47.53534" lon="3.75629">
        <ele>227.97</ele>
        <time>2013-04-28T11:11:51Z</time>
      </trkpt>
      <trkpt lat="47.53534" lon="3.75631">
        <ele>227.97</ele>
        <time>2013-04-28T11:11:52Z</time>
      </trkpt>
      <trkpt lat="47.5352" lon="3.75653">
        <ele>227.01</ele>
        <time>2013-04-28T11:12:07Z</time>
      </trkpt>
      <trkpt lat="47.53517" lon="3.75656">
        <ele>226.53</ele>
        <time>2013-04-28T11:12:10Z</time>
      </trkpt>
      <trkpt lat="47.53515" lon="3.75659">
        <ele>226.05</ele>
        <time>2013-04-28T11:12:13Z</time>
      </trkpt>
      <trkpt lat="47.53507" lon="3.75675">
        <ele>225.57</ele>
        <time>2013-04-28T11:12:24Z</time>
      </trkpt>
      <trkpt lat="47.53505" lon="3.7568">
        <ele>226.05</ele>
        <time>2013-04-28T11:12:28Z</time>
      </trkpt>
      <trkpt lat="47.53491" lon="3.75699">
        <ele>223.64</ele>
        <time>2013-04-28T11:12:43Z</time>
      </trkpt>
      <trkpt lat="47.53479" lon="3.75719">
        <ele>223.64</ele>
        <time>2013-04-28T11:12:57Z</time>
      </trkpt>
      <trkpt lat="47.53472" lon="3.75735">
        <ele>222.68</ele>
        <time>2013-04-28T11:13:07Z</time>
      </trkpt>
      <trkpt lat="47.53469" lon="3.75742">
        <ele>222.2</ele>
        <time>2013-04-28T11:13:11Z</time>
      </trkpt>
      <trkpt lat="47.53452" lon="3.75751">
        <ele>220.76</ele>
        <time>2013-04-28T11:13:24Z</time>
      </trkpt>
      <trkpt lat="47.53431" lon="3.7577">
        <ele>219.8</ele>
        <time>2013-04-28T11:13:43Z</time>
      </trkpt>
      <trkpt lat="47.53413" lon="3.75793">
        <ele>218.36</ele>
        <time>2013-04-28T11:14:01Z</time>
      </trkpt>
      <trkpt lat="47.53394" lon="3.75818">
        <ele>217.4</ele>
        <time>2013-04-28T11:14:20Z</time>
      </trkpt>
      <trkpt lat="47.53388" lon="3.75827">
        <ele>218.36</ele>
        <time>2013-04-28T11:14:26Z</time>
      </trkpt>
      <trkpt lat="47.53382" lon="3.75847">
        <ele>219.32</ele>
        <time>2013-04-28T11:14:36Z</time>
      </trkpt>
      <trkpt lat="47.53375" lon="3.7587">
        <ele>221.72</ele>
        <time>2013-04-28T11:14:54Z</time>
      </trkpt>
      <trkpt lat="47.53359" lon="3.75861">
        <ele>223.64</ele>
        <time>2013-04-28T11:15:12Z</time>
      </trkpt>
      <trkpt lat="47.53342" lon="3.75851">
        <ele>225.09</ele>
        <time>2013-04-28T11:15:29Z</time>
      </trkpt>
      <trkpt lat="47.53322" lon="3.75841">
        <ele>227.01</ele>
        <time>2013-04-28T11:15:45Z</time>
      </trkpt>
      <trkpt lat="47.53309" lon="3.7584">
        <ele>228.45</ele>
        <time>2013-04-28T11:16:00Z</time>
      </trkpt>
      <trkpt lat="47.53289" lon="3.75833">
        <ele>230.37</ele>
        <time>2013-04-28T11:16:18Z</time>
      </trkpt>
      <trkpt lat="47.53272" lon="3.75817">
        <ele>230.85</ele>
        <time>2013-04-28T11:16:33Z</time>
      </trkpt>
      <trkpt lat="47.5325" lon="3.75809">
        <ele>232.78</ele>
        <time>2013-04-28T11:16:52Z</time>
      </trkpt>
      <trkpt lat="47.5324" lon="3.75818">
        <ele>235.66</ele>
        <time>2013-04-28T11:17:07Z</time>
      </trkpt>
      <trkpt lat="47.53236" lon="3.75824">
        <ele>236.14</ele>
        <time>2013-04-28T11:17:12Z</time>
      </trkpt>
      <trkpt lat="47.53221" lon="3.75844">
        <ele>239.02</ele>
        <time>2013-04-28T11:17:30Z</time>
      </trkpt>
      <trkpt lat="47.53207" lon="3.75855">
        <ele>240.47</ele>
        <time>2013-04-28T11:17:46Z</time>
      </trkpt>
      <trkpt lat="47.53191" lon="3.75871">
        <ele>242.87</ele>
        <time>2013-04-28T11:18:03Z</time>
      </trkpt>
      <trkpt lat="47.53174" lon="3.75889">
        <ele>245.75</ele>
        <time>2013-04-28T11:18:19Z</time>
      </trkpt>
      <trkpt lat="47.53159" lon="3.75906">
        <ele>247.2</ele>
        <time>2013-04-28T11:18:35Z</time>
      </trkpt>
      <trkpt lat="47.53143" lon="3.75924">
        <ele>248.16</ele>
        <time>2013-04-28T11:18:52Z</time>
      </trkpt>
      <trkpt lat="47.53123" lon="3.75944">
        <ele>249.12</ele>
        <time>2013-04-28T11:19:10Z</time>
      </trkpt>
      <trkpt lat="47.53107" lon="3.75958">
        <ele>249.6</ele>
        <time>2013-04-28T11:19:24Z</time>
      </trkpt>
      <trkpt lat="47.53092" lon="3.75974">
        <ele>250.56</ele>
        <time>2013-04-28T11:19:38Z</time>
      </trkpt>
      <trkpt lat="47.53074" lon="3.75991">
        <ele>250.56</ele>
        <time>2013-04-28T11:19:55Z</time>
      </trkpt>
      <trkpt lat="47.53057" lon="3.76009">
        <ele>251.52</ele>
        <time>2013-04-28T11:20:12Z</time>
      </trkpt>
      <trkpt lat="47.53042" lon="3.76027">
        <ele>251.52</ele>
        <time>2013-04-28T11:20:26Z</time>
      </trkpt>
      <trkpt lat="47.53031" lon="3.76039">
        <ele>251.52</ele>
        <time>2013-04-28T11:20:37Z</time>
      </trkpt>
      <trkpt lat="47.53014" lon="3.76055">
        <ele>252</ele>
        <time>2013-04-28T11:20:52Z</time>
      </trkpt>
      <trkpt lat="47.52999" lon="3.76073">
        <ele>251.52</ele>
        <time>2013-04-28T11:21:05Z</time>
      </trkpt>
      <trkpt lat="47.52985" lon="3.76088">
        <ele>252</ele>
        <time>2013-04-28T11:21:18Z</time>
      </trkpt>
      <trkpt lat="47.52965" lon="3.76103">
        <ele>252</ele>
        <time>2013-04-28T11:21:33Z</time>
      </trkpt>
      <trkpt lat="47.52956" lon="3.76115">
        <ele>250.08</ele>
        <time>2013-04-28T11:21:41Z</time>
      </trkpt>
      <trkpt lat="47.52952" lon="3.76119">
        <ele>252.48</ele>
        <time>2013-04-28T11:21:44Z</time>
      </trkpt>
      <trkpt lat="47.52949" lon="3.7612">
        <ele>251.04</ele>
        <time>2013-04-28T11:21:46Z</time>
      </trkpt>
      <trkpt lat="47.52938" lon="3.76126">
        <ele>250.08</ele>
        <time>2013-04-28T11:21:56Z</time>
      </trkpt>
      <trkpt lat="47.52928" lon="3.76118">
        <ele>252.96</ele>
        <time>2013-04-28T11:22:07Z</time>
      </trkpt>
      <trkpt lat="47.52927" lon="3.76117">
        <ele>249.12</ele>
        <time>2013-04-28T11:22:08Z</time>
      </trkpt>
      <trkpt lat="47.52926" lon="3.76115">
        <ele>252.96</ele>
        <time>2013-04-28T11:22:10Z</time>
      </trkpt>
      <trkpt lat="47.52912" lon="3.76095">
        <ele>251.04</ele>
        <time>2013-04-28T11:22:23Z</time>
      </trkpt>
      <trkpt lat="47.52902" lon="3.7608">
        <ele>253.44</ele>
        <time>2013-04-28T11:22:35Z</time>
      </trkpt>
      <trkpt lat="47.52894" lon="3.76069">
        <ele>252.48</ele>
        <time>2013-04-28T11:22:43Z</time>
      </trkpt>
      <trkpt lat="47.52881" lon="3.76048">
        <ele>252</ele>
        <time>2013-04-28T11:22:57Z</time>
      </trkpt>
      <trkpt lat="47.52869" lon="3.76021">
        <ele>252.96</ele>
        <time>2013-04-28T11:23:12Z</time>
      </trkpt>
      <trkpt lat="47.52856" lon="3.7599">
        <ele>253.93</ele>
        <time>2013-04-28T11:23:29Z</time>
      </trkpt>
      <trkpt lat="47.52842" lon="3.75966">
        <ele>253.44</ele>
        <time>2013-04-28T11:23:45Z</time>
      </trkpt>
      <trkpt lat="47.52828" lon="3.75945">
        <ele>253.44</ele>
        <time>2013-04-28T11:24:00Z</time>
      </trkpt>
      <trkpt lat="47.52822" lon="3.75919">
        <ele>252.96</ele>
        <time>2013-04-28T11:24:14Z</time>
      </trkpt>
      <trkpt lat="47.52813" lon="3.75885">
        <ele>253.44</ele>
        <time>2013-04-28T11:24:32Z</time>
      </trkpt>
      <trkpt lat="47.52803" lon="3.7586">
        <ele>253.44</ele>
        <time>2013-04-28T11:24:47Z</time>
      </trkpt>
      <trkpt lat="47.52789" lon="3.75842">
        <ele>252.48</ele>
        <time>2013-04-28T11:25:00Z</time>
      </trkpt>
      <trkpt lat="47.52774" lon="3.75823">
        <ele>253.44</ele>
        <time>2013-04-28T11:25:15Z</time>
      </trkpt>
      <trkpt lat="47.52771" lon="3.7582">
        <ele>252.48</ele>
        <time>2013-04-28T11:25:17Z</time>
      </trkpt>
      <trkpt lat="47.52751" lon="3.75796">
        <ele>252</ele>
        <time>2013-04-28T11:25:32Z</time>
      </trkpt>
      <trkpt lat="47.52734" lon="3.75773">
        <ele>252</ele>
        <time>2013-04-28T11:25:48Z</time>
      </trkpt>
      <trkpt lat="47.52719" lon="3.75749">
        <ele>252</ele>
        <time>2013-04-28T11:26:08Z</time>
      </trkpt>
      <trkpt lat="47.52703" lon="3.75719">
        <ele>253.44</ele>
        <time>2013-04-28T11:26:25Z</time>
      </trkpt>
      <trkpt lat="47.52684" lon="3.75702">
        <ele>254.41</ele>
        <time>2013-04-28T11:26:40Z</time>
      </trkpt>
      <trkpt lat="47.52665" lon="3.75684">
        <ele>255.37</ele>
        <time>2013-04-28T11:26:57Z</time>
      </trkpt>
      <trkpt lat="47.52644" lon="3.75665">
        <ele>255.85</ele>
        <time>2013-04-28T11:27:14Z</time>
      </trkpt>
      <trkpt lat="47.52628" lon="3.75641">
        <ele>255.85</ele>
        <time>2013-04-28T11:27:31Z</time>
      </trkpt>
      <trkpt lat="47.52613" lon="3.75623">
        <ele>255.85</ele>
        <time>2013-04-28T11:27:46Z</time>
      </trkpt>
      <trkpt lat="47.52603" lon="3.75603">
        <ele>255.85</ele>
        <time>2013-04-28T11:27:57Z</time>
      </trkpt>
      <trkpt lat="47.52595" lon="3.75594">
        <ele>256.33</ele>
        <time>2013-04-28T11:28:04Z</time>
      </trkpt>
      <trkpt lat="47.52592" lon="3.75586">
        <ele>255.85</ele>
        <time>2013-04-28T11:28:08Z</time>
      </trkpt>
      <trkpt lat="47.52588" lon="3.75581">
        <ele>256.33</ele>
        <time>2013-04-28T11:28:11Z</time>
      </trkpt>
      <trkpt lat="47.52574" lon="3.75556">
        <ele>257.77</ele>
        <time>2013-04-28T11:28:27Z</time>
      </trkpt>
      <trkpt lat="47.52565" lon="3.75534">
        <ele>258.25</ele>
        <time>2013-04-28T11:28:41Z</time>
      </trkpt>
      <trkpt lat="47.52551" lon="3.7552">
        <ele>258.73</ele>
        <time>2013-04-28T11:28:53Z</time>
      </trkpt>
      <trkpt lat="47.52538" lon="3.75515">
        <ele>259.21</ele>
        <time>2013-04-28T11:29:02Z</time>
      </trkpt>
      <trkpt lat="47.52517" lon="3.75504">
        <ele>260.17</ele>
        <time>2013-04-28T11:29:18Z</time>
      </trkpt>
      <trkpt lat="47.52491" lon="3.75504">
        <ele>261.62</ele>
        <time>2013-04-28T11:29:34Z</time>
      </trkpt>
      <trkpt lat="47.52467" lon="3.75495">
        <ele>261.14</ele>
        <time>2013-04-28T11:29:51Z</time>
      </trkpt>
      <trkpt lat="47.52444" lon="3.75483">
        <ele>260.17</ele>
        <time>2013-04-28T11:30:08Z</time>
      </trkpt>
      <trkpt lat="47.5242" lon="3.75482">
        <ele>260.17</ele>
        <time>2013-04-28T11:30:23Z</time>
      </trkpt>
      <trkpt lat="47.52402" lon="3.75472">
        <ele>258.73</ele>
        <time>2013-04-28T11:30:36Z</time>
      </trkpt>
      <trkpt lat="47.52384" lon="3.7547">
        <ele>257.29</ele>
        <time>2013-04-28T11:30:48Z</time>
      </trkpt>
      <trkpt lat="47.52366" lon="3.75468">
        <ele>255.85</ele>
        <time>2013-04-28T11:31:01Z</time>
      </trkpt>
      <trkpt lat="47.52349" lon="3.75465">
        <ele>253.44</ele>
        <time>2013-04-28T11:31:15Z</time>
      </trkpt>
      <trkpt lat="47.52341" lon="3.75461">
        <ele>252.48</ele>
        <time>2013-04-28T11:31:22Z</time>
      </trkpt>
      <trkpt lat="47.52324" lon="3.75465">
        <ele>249.6</ele>
        <time>2013-04-28T11:31:36Z</time>
      </trkpt>
      <trkpt lat="47.52312" lon="3.75473">
        <ele>246.72</ele>
        <time>2013-04-28T11:31:49Z</time>
      </trkpt>
      <trkpt lat="47.52298" lon="3.75479">
        <ele>243.35</ele>
        <time>2013-04-28T11:32:04Z</time>
      </trkpt>
      <trkpt lat="47.52285" lon="3.75478">
        <ele>240.95</ele>
        <time>2013-04-28T11:32:15Z</time>
      </trkpt>
      <trkpt lat="47.5227" lon="3.75472">
        <ele>238.54</ele>
        <time>2013-04-28T11:32:28Z</time>
      </trkpt>
      <trkpt lat="47.52258" lon="3.75455">
        <ele>235.18</ele>
        <time>2013-04-28T11:32:41Z</time>
      </trkpt>
      <trkpt lat="47.52243" lon="3.75442">
        <ele>233.74</ele>
        <time>2013-04-28T11:32:55Z</time>
      </trkpt>
      <trkpt lat="47.52228" lon="3.75432">
        <ele>231.33</ele>
        <time>2013-04-28T11:33:08Z</time>
      </trkpt>
      <trkpt lat="47.52212" lon="3.75423">
        <ele>228.45</ele>
        <time>2013-04-28T11:33:21Z</time>
      </trkpt>
      <trkpt lat="47.5221" lon="3.75422">
        <ele>228.45</ele>
        <time>2013-04-28T11:33:23Z</time>
      </trkpt>
      <trkpt lat="47.52201" lon="3.7542">
        <ele>226.53</ele>
        <time>2013-04-28T11:33:31Z</time>
      </trkpt>
      <trkpt lat="47.5219" lon="3.75413">
        <ele>223.16</ele>
        <time>2013-04-28T11:33:43Z</time>
      </trkpt>
      <trkpt lat="47.52183" lon="3.75411">
        <ele>221.24</ele>
        <time>2013-04-28T11:33:51Z</time>
      </trkpt>
      <trkpt lat="47.52169" lon="3.754">
        <ele>217.88</ele>
        <time>2013-04-28T11:34:07Z</time>
      </trkpt>
      <trkpt lat="47.52153" lon="3.75399">
        <ele>214.51</ele>
        <time>2013-04-28T11:34:23Z</time>
      </trkpt>
      <trkpt lat="47.52141" lon="3.75395">
        <ele>212.11</ele>
        <time>2013-04-28T11:34:36Z</time>
      </trkpt>
      <trkpt lat="47.52129" lon="3.75394">
        <ele>208.74</ele>
        <time>2013-04-28T11:34:46Z</time>
      </trkpt>
      <trkpt lat="47.52107" lon="3.75392">
        <ele>204.9</ele>
        <time>2013-04-28T11:35:01Z</time>
      </trkpt>
      <trkpt lat="47.52085" lon="3.75393">
        <ele>201.05</ele>
        <time>2013-04-28T11:35:17Z</time>
      </trkpt>
      <trkpt lat="47.52069" lon="3.75392">
        <ele>198.17</ele>
        <time>2013-04-28T11:35:30Z</time>
      </trkpt>
      <trkpt lat="47.52061" lon="3.75392">
        <ele>195.77</ele>
        <time>2013-04-28T11:35:37Z</time>
      </trkpt>
      <trkpt lat="47.52052" lon="3.75391">
        <ele>193.84</ele>
        <time>2013-04-28T11:35:45Z</time>
      </trkpt>
      <trkpt lat="47.52037" lon="3.75396">
        <ele>192.4</ele>
        <time>2013-04-28T11:35:58Z</time>
      </trkpt>
      <trkpt lat="47.52019" lon="3.75385">
        <ele>189.52</ele>
        <time>2013-04-28T11:36:13Z</time>
      </trkpt>
      <trkpt lat="47.52009" lon="3.75381">
        <ele>188.08</ele>
        <time>2013-04-28T11:36:21Z</time>
      </trkpt>
      <trkpt lat="47.52005" lon="3.75384">
        <ele>186.15</ele>
        <time>2013-04-28T11:36:27Z</time>
      </trkpt>
      <trkpt lat="47.52005" lon="3.75384">
        <ele>190.48</ele>
        <time>2013-04-28T11:36:28Z</time>
      </trkpt>
      <trkpt lat="47.5199" lon="3.75379">
        <ele>182.79</ele>
        <time>2013-04-28T11:36:41Z</time>
      </trkpt>
      <trkpt lat="47.51988" lon="3.75379">
        <ele>191.92</ele>
        <time>2013-04-28T11:36:42Z</time>
      </trkpt>
      <trkpt lat="47.51987" lon="3.75379">
        <ele>186.63</ele>
        <time>2013-04-28T11:36:43Z</time>
      </trkpt>
      <trkpt lat="47.51984" lon="3.75379">
        <ele>186.15</ele>
        <time>2013-04-28T11:36:45Z</time>
      </trkpt>
      <trkpt lat="47.51975" lon="3.75377">
        <ele>186.15</ele>
        <time>2013-04-28T11:36:52Z</time>
      </trkpt>
      <trkpt lat="47.51962" lon="3.75375">
        <ele>181.35</ele>
        <time>2013-04-28T11:37:02Z</time>
      </trkpt>
      <trkpt lat="47.51961" lon="3.75374">
        <ele>188.56</ele>
        <time>2013-04-28T11:37:03Z</time>
      </trkpt>
      <trkpt lat="47.51958" lon="3.75374">
        <ele>185.19</ele>
        <time>2013-04-28T11:37:05Z</time>
      </trkpt>
      <trkpt lat="47.51935" lon="3.75366">
        <ele>183.75</ele>
        <time>2013-04-28T11:37:24Z</time>
      </trkpt>
      <trkpt lat="47.51915" lon="3.75356">
        <ele>183.27</ele>
        <time>2013-04-28T11:37:41Z</time>
      </trkpt>
      <trkpt lat="47.51909" lon="3.75352">
        <ele>179.9</ele>
        <time>2013-04-28T11:37:46Z</time>
      </trkpt>
      <trkpt lat="47.51907" lon="3.75352">
        <ele>186.15</ele>
        <time>2013-04-28T11:37:47Z</time>
      </trkpt>
      <trkpt lat="47.51906" lon="3.75351">
        <ele>183.27</ele>
        <time>2013-04-28T11:37:48Z</time>
      </trkpt>
      <trkpt lat="47.51886" lon="3.75333">
        <ele>180.38</ele>
        <time>2013-04-28T11:38:06Z</time>
      </trkpt>
      <trkpt lat="47.51884" lon="3.75331">
        <ele>183.27</ele>
        <time>2013-04-28T11:38:08Z</time>
      </trkpt>
      <trkpt lat="47.51871" lon="3.75319">
        <ele>178.94</ele>
        <time>2013-04-28T11:38:20Z</time>
      </trkpt>
      <trkpt lat="47.5187" lon="3.75318">
        <ele>184.71</ele>
        <time>2013-04-28T11:38:21Z</time>
      </trkpt>
      <trkpt lat="47.51869" lon="3.75317">
        <ele>180.87</ele>
        <time>2013-04-28T11:38:22Z</time>
      </trkpt>
      <trkpt lat="47.51852" lon="3.75301">
        <ele>179.9</ele>
        <time>2013-04-28T11:38:36Z</time>
      </trkpt>
      <trkpt lat="47.51834" lon="3.75283">
        <ele>179.42</ele>
        <time>2013-04-28T11:38:51Z</time>
      </trkpt>
      <trkpt lat="47.51816" lon="3.7527">
        <ele>179.42</ele>
        <time>2013-04-28T11:39:04Z</time>
      </trkpt>
      <trkpt lat="47.51795" lon="3.75257">
        <ele>178.94</ele>
        <time>2013-04-28T11:39:16Z</time>
      </trkpt>
      <trkpt lat="47.51774" lon="3.75237">
        <ele>177.98</ele>
        <time>2013-04-28T11:39:30Z</time>
      </trkpt>
      <trkpt lat="47.51752" lon="3.75222">
        <ele>177.02</ele>
        <time>2013-04-28T11:39:46Z</time>
      </trkpt>
      <trkpt lat="47.51728" lon="3.75202">
        <ele>176.54</ele>
        <time>2013-04-28T11:40:03Z</time>
      </trkpt>
      <trkpt lat="47.51709" lon="3.75187">
        <ele>176.54</ele>
        <time>2013-04-28T11:40:19Z</time>
      </trkpt>
      <trkpt lat="47.51684" lon="3.75163">
        <ele>174.62</ele>
        <time>2013-04-28T11:40:38Z</time>
      </trkpt>
      <trkpt lat="47.51659" lon="3.75145">
        <ele>174.62</ele>
        <time>2013-04-28T11:40:58Z</time>
      </trkpt>
      <trkpt lat="47.51642" lon="3.75127">
        <ele>174.14</ele>
        <time>2013-04-28T11:41:13Z</time>
      </trkpt>
      <trkpt lat="47.51624" lon="3.7511">
        <ele>173.17</ele>
        <time>2013-04-28T11:41:30Z</time>
      </trkpt>
      <trkpt lat="47.51598" lon="3.75086">
        <ele>173.17</ele>
        <time>2013-04-28T11:41:51Z</time>
      </trkpt>
      <trkpt lat="47.51571" lon="3.75063">
        <ele>172.21</ele>
        <time>2013-04-28T11:42:11Z</time>
      </trkpt>
      <trkpt lat="47.51547" lon="3.75039">
        <ele>170.77</ele>
        <time>2013-04-28T11:42:29Z</time>
      </trkpt>
      <trkpt lat="47.51522" lon="3.75016">
        <ele>169.81</ele>
        <time>2013-04-28T11:42:49Z</time>
      </trkpt>
      <trkpt lat="47.51503" lon="3.75006">
        <ele>169.33</ele>
        <time>2013-04-28T11:43:05Z</time>
      </trkpt>
      <trkpt lat="47.51479" lon="3.74988">
        <ele>169.33</ele>
        <time>2013-04-28T11:43:21Z</time>
      </trkpt>
      <trkpt lat="47.51464" lon="3.74977">
        <ele>168.37</ele>
        <time>2013-04-28T11:43:34Z</time>
      </trkpt>
      <trkpt lat="47.51447" lon="3.74962">
        <ele>169.33</ele>
        <time>2013-04-28T11:43:50Z</time>
      </trkpt>
      <trkpt lat="47.51434" lon="3.74949">
        <ele>169.81</ele>
        <time>2013-04-28T11:44:02Z</time>
      </trkpt>
      <trkpt lat="47.51416" lon="3.74936">
        <ele>170.29</ele>
        <time>2013-04-28T11:44:19Z</time>
      </trkpt>
      <trkpt lat="47.5141" lon="3.74936">
        <ele>170.29</ele>
        <time>2013-04-28T11:44:23Z</time>
      </trkpt>
      <trkpt lat="47.51407" lon="3.74936">
        <ele>170.29</ele>
        <time>2013-04-28T11:44:25Z</time>
      </trkpt>
      <trkpt lat="47.51385" lon="3.74929">
        <ele>170.29</ele>
        <time>2013-04-28T11:44:42Z</time>
      </trkpt>
      <trkpt lat="47.51362" lon="3.74921">
        <ele>171.73</ele>
        <time>2013-04-28T11:44:58Z</time>
      </trkpt>
      <trkpt lat="47.51342" lon="3.74911">
        <ele>169.81</ele>
        <time>2013-04-28T11:45:13Z</time>
      </trkpt>
      <trkpt lat="47.51339" lon="3.74908">
        <ele>169.33</ele>
        <time>2013-04-28T11:45:16Z</time>
      </trkpt>
      <trkpt lat="47.5132" lon="3.74892">
        <ele>168.37</ele>
        <time>2013-04-28T11:45:32Z</time>
      </trkpt>
      <trkpt lat="47.51297" lon="3.7489">
        <ele>168.85</ele>
        <time>2013-04-28T11:45:48Z</time>
      </trkpt>
      <trkpt lat="47.51273" lon="3.74911">
        <ele>169.81</ele>
        <time>2013-04-28T11:46:09Z</time>
      </trkpt>
      <trkpt lat="47.51247" lon="3.74927">
        <ele>171.73</ele>
        <time>2013-04-28T11:46:29Z</time>
      </trkpt>
      <trkpt lat="47.51231" lon="3.74914">
        <ele>174.14</ele>
        <time>2013-04-28T11:46:45Z</time>
      </trkpt>
      <trkpt lat="47.51233" lon="3.7491">
        <ele>174.14</ele>
        <time>2013-04-28T11:46:48Z</time>
      </trkpt>
      <trkpt lat="47.51239" lon="3.74884">
        <ele>176.06</ele>
        <time>2013-04-28T11:47:04Z</time>
      </trkpt>
      <trkpt lat="47.51234" lon="3.7488">
        <ele>176.54</ele>
        <time>2013-04-28T11:47:10Z</time>
      </trkpt>
      <trkpt lat="47.51216" lon="3.74872">
        <ele>178.46</ele>
        <time>2013-04-28T11:47:28Z</time>
      </trkpt>
      <trkpt lat="47.51214" lon="3.7485">
        <ele>180.87</ele>
        <time>2013-04-28T11:47:45Z</time>
      </trkpt>
      <trkpt lat="47.51211" lon="3.74838">
        <ele>181.83</ele>
        <time>2013-04-28T11:48:01Z</time>
      </trkpt>
      <trkpt lat="47.51204" lon="3.74822">
        <ele>183.75</ele>
        <time>2013-04-28T11:48:17Z</time>
      </trkpt>
      <trkpt lat="47.51202" lon="3.7482">
        <ele>184.23</ele>
        <time>2013-04-28T11:48:32Z</time>
      </trkpt>
      <trkpt lat="47.51202" lon="3.74819">
        <ele>183.75</ele>
        <time>2013-04-28T11:48:51Z</time>
      </trkpt>
      <trkpt lat="47.51197" lon="3.7482">
        <ele>184.23</ele>
        <time>2013-04-28T11:49:12Z</time>
      </trkpt>
      <trkpt lat="47.51194" lon="3.74823">
        <ele>184.71</ele>
        <time>2013-04-28T11:49:30Z</time>
      </trkpt>
      <trkpt lat="47.512" lon="3.74821">
        <ele>183.75</ele>
        <time>2013-04-28T11:49:52Z</time>
      </trkpt>
      <trkpt lat="47.51199" lon="3.74817">
        <ele>184.23</ele>
        <time>2013-04-28T11:50:10Z</time>
      </trkpt>
      <trkpt lat="47.51196" lon="3.74822">
        <ele>185.19</ele>
        <time>2013-04-28T11:50:24Z</time>
      </trkpt>
      <trkpt lat="47.51192" lon="3.74831">
        <ele>183.75</ele>
        <time>2013-04-28T11:50:42Z</time>
      </trkpt>
      <trkpt lat="47.5119" lon="3.74832">
        <ele>183.27</ele>
        <time>2013-04-28T11:50:59Z</time>
      </trkpt>
      <trkpt lat="47.51187" lon="3.74832">
        <ele>183.75</ele>
        <time>2013-04-28T11:51:29Z</time>
      </trkpt>
      <trkpt lat="47.51186" lon="3.74832">
        <ele>183.27</ele>
        <time>2013-04-28T11:51:51Z</time>
      </trkpt>
      <trkpt lat="47.51188" lon="3.74834">
        <ele>176.54</ele>
        <time>2013-04-28T11:52:14Z</time>
      </trkpt>
      <trkpt lat="47.51188" lon="3.74834">
        <ele>187.11</ele>
        <time>2013-04-28T11:52:15Z</time>
      </trkpt>
      <trkpt lat="47.51189" lon="3.74834">
        <ele>182.31</ele>
        <time>2013-04-28T11:52:16Z</time>
      </trkpt>
      <trkpt lat="47.51192" lon="3.74835">
        <ele>183.27</ele>
        <time>2013-04-28T11:52:49Z</time>
      </trkpt>
      <trkpt lat="47.51189" lon="3.74835">
        <ele>182.79</ele>
        <time>2013-04-28T11:53:08Z</time>
      </trkpt>
      <trkpt lat="47.51186" lon="3.74835">
        <ele>183.27</ele>
        <time>2013-04-28T11:53:37Z</time>
      </trkpt>
      <trkpt lat="47.51186" lon="3.74833">
        <ele>183.27</ele>
        <time>2013-04-28T11:54:06Z</time>
      </trkpt>
      <trkpt lat="47.51182" lon="3.74836">
        <ele>183.27</ele>
        <time>2013-04-28T11:54:38Z</time>
      </trkpt>
      <trkpt lat="47.51183" lon="3.74833">
        <ele>183.27</ele>
        <time>2013-04-28T11:55:13Z</time>
      </trkpt>
      <trkpt lat="47.51185" lon="3.74834">
        <ele>183.27</ele>
        <time>2013-04-28T11:55:57Z</time>
      </trkpt>
      <trkpt lat="47.51188" lon="3.74833">
        <ele>182.79</ele>
        <time>2013-04-28T11:56:35Z</time>
      </trkpt>
      <trkpt lat="47.51183" lon="3.74832">
        <ele>183.27</ele>
        <time>2013-04-28T11:57:02Z</time>
      </trkpt>
      <trkpt lat="47.51189" lon="3.74834">
        <ele>182.31</ele>
        <time>2013-04-28T11:57:22Z</time>
      </trkpt>
      <trkpt lat="47.51185" lon="3.74834">
        <ele>182.79</ele>
        <time>2013-04-28T11:57:55Z</time>
      </trkpt>
      <trkpt lat="47.51185" lon="3.74835">
        <ele>183.27</ele>
        <time>2013-04-28T11:58:22Z</time>
      </trkpt>
      <trkpt lat="47.51183" lon="3.74835">
        <ele>179.9</ele>
        <time>2013-04-28T11:58:42Z</time>
      </trkpt>
      <trkpt lat="47.51183" lon="3.74835">
        <ele>187.11</ele>
        <time>2013-04-28T11:58:43Z</time>
      </trkpt>
      <trkpt lat="47.51184" lon="3.74836">
        <ele>183.75</ele>
        <time>2013-04-28T11:58:44Z</time>
      </trkpt>
      <trkpt lat="47.51185" lon="3.74838">
        <ele>183.27</ele>
        <time>2013-04-28T11:58:46Z</time>
      </trkpt>
      <trkpt lat="47.51183" lon="3.74852">
        <ele>182.31</ele>
        <time>2013-04-28T11:59:02Z</time>
      </trkpt>
      <trkpt lat="47.5117" lon="3.74844">
        <ele>183.27</ele>
        <time>2013-04-28T11:59:16Z</time>
      </trkpt>
      <trkpt lat="47.51151" lon="3.74827">
        <ele>182.79</ele>
        <time>2013-04-28T11:59:35Z</time>
      </trkpt>
      <trkpt lat="47.51145" lon="3.74829">
        <ele>182.31</ele>
        <time>2013-04-28T11:59:44Z</time>
      </trkpt>
      <trkpt lat="47.51133" lon="3.74862">
        <ele>179.42</ele>
        <time>2013-04-28T12:00:03Z</time>
      </trkpt>
      <trkpt lat="47.51121" lon="3.74887">
        <ele>176.54</ele>
        <time>2013-04-28T12:00:19Z</time>
      </trkpt>
      <trkpt lat="47.51111" lon="3.74919">
        <ele>173.66</ele>
        <time>2013-04-28T12:00:37Z</time>
      </trkpt>
      <trkpt lat="47.51103" lon="3.74954">
        <ele>170.29</ele>
        <time>2013-04-28T12:00:56Z</time>
      </trkpt>
      <trkpt lat="47.51101" lon="3.7497">
        <ele>168.37</ele>
        <time>2013-04-28T12:01:04Z</time>
      </trkpt>
      <trkpt lat="47.51092" lon="3.75006">
        <ele>165.96</ele>
        <time>2013-04-28T12:01:24Z</time>
      </trkpt>
      <trkpt lat="47.51079" lon="3.75032">
        <ele>164.04</ele>
        <time>2013-04-28T12:01:42Z</time>
      </trkpt>
      <trkpt lat="47.51063" lon="3.75069">
        <ele>162.12</ele>
        <time>2013-04-28T12:02:04Z</time>
      </trkpt>
      <trkpt lat="47.51047" lon="3.75107">
        <ele>160.2</ele>
        <time>2013-04-28T12:02:25Z</time>
      </trkpt>
      <trkpt lat="47.51029" lon="3.75147">
        <ele>159.24</ele>
        <time>2013-04-28T12:02:47Z</time>
      </trkpt>
      <trkpt lat="47.51016" lon="3.75167">
        <ele>159.24</ele>
        <time>2013-04-28T12:03:06Z</time>
      </trkpt>
      <trkpt lat="47.51006" lon="3.75178">
        <ele>158.27</ele>
        <time>2013-04-28T12:03:15Z</time>
      </trkpt>
      <trkpt lat="47.50987" lon="3.75191">
        <ele>157.79</ele>
        <time>2013-04-28T12:03:32Z</time>
      </trkpt>
      <trkpt lat="47.50984" lon="3.7519">
        <ele>158.27</ele>
        <time>2013-04-28T12:03:34Z</time>
      </trkpt>
      <trkpt lat="47.50972" lon="3.7518">
        <ele>157.79</ele>
        <time>2013-04-28T12:03:44Z</time>
      </trkpt>
      <trkpt lat="47.50967" lon="3.75177">
        <ele>157.79</ele>
        <time>2013-04-28T12:03:48Z</time>
      </trkpt>
      <trkpt lat="47.50935" lon="3.75174">
        <ele>157.31</ele>
        <time>2013-04-28T12:04:10Z</time>
      </trkpt>
      <trkpt lat="47.50905" lon="3.75168">
        <ele>157.31</ele>
        <time>2013-04-28T12:04:33Z</time>
      </trkpt>
      <trkpt lat="47.50884" lon="3.75188">
        <ele>157.79</ele>
        <time>2013-04-28T12:04:52Z</time>
      </trkpt>
      <trkpt lat="47.50874" lon="3.75203">
        <ele>156.83</ele>
        <time>2013-04-28T12:05:03Z</time>
      </trkpt>
      <trkpt lat="47.50858" lon="3.75226">
        <ele>156.83</ele>
        <time>2013-04-28T12:05:20Z</time>
      </trkpt>
      <trkpt lat="47.50838" lon="3.75253">
        <ele>156.35</ele>
        <time>2013-04-28T12:05:39Z</time>
      </trkpt>
      <trkpt lat="47.50821" lon="3.75277">
        <ele>156.83</ele>
        <time>2013-04-28T12:05:57Z</time>
      </trkpt>
      <trkpt lat="47.50804" lon="3.75299">
        <ele>156.35</ele>
        <time>2013-04-28T12:06:14Z</time>
      </trkpt>
      <trkpt lat="47.50799" lon="3.75301">
        <ele>156.35</ele>
        <time>2013-04-28T12:06:18Z</time>
      </trkpt>
      <trkpt lat="47.50787" lon="3.75302">
        <ele>158.27</ele>
        <time>2013-04-28T12:06:27Z</time>
      </trkpt>
      <trkpt lat="47.50771" lon="3.75302">
        <ele>161.16</ele>
        <time>2013-04-28T12:06:41Z</time>
      </trkpt>
      <trkpt lat="47.50749" lon="3.75308">
        <ele>164.52</ele>
        <time>2013-04-28T12:06:59Z</time>
      </trkpt>
      <trkpt lat="47.50727" lon="3.753">
        <ele>167.89</ele>
        <time>2013-04-28T12:07:19Z</time>
      </trkpt>
      <trkpt lat="47.50703" lon="3.75294">
        <ele>169.33</ele>
        <time>2013-04-28T12:07:39Z</time>
      </trkpt>
      <trkpt lat="47.507" lon="3.75294">
        <ele>169.33</ele>
        <time>2013-04-28T12:07:41Z</time>
      </trkpt>
      <trkpt lat="47.50679" lon="3.7529">
        <ele>171.25</ele>
        <time>2013-04-28T12:07:58Z</time>
      </trkpt>
      <trkpt lat="47.50663" lon="3.75291">
        <ele>171.73</ele>
        <time>2013-04-28T12:08:14Z</time>
      </trkpt>
      <trkpt lat="47.50654" lon="3.75285">
        <ele>171.73</ele>
        <time>2013-04-28T12:08:21Z</time>
      </trkpt>
      <trkpt lat="47.50629" lon="3.75265">
        <ele>169.81</ele>
        <time>2013-04-28T12:08:40Z</time>
      </trkpt>
      <trkpt lat="47.50609" lon="3.75253">
        <ele>168.85</ele>
        <time>2013-04-28T12:08:57Z</time>
      </trkpt>
      <trkpt lat="47.50583" lon="3.75233">
        <ele>167.89</ele>
        <time>2013-04-28T12:09:17Z</time>
      </trkpt>
      <trkpt lat="47.50561" lon="3.75229">
        <ele>167.41</ele>
        <time>2013-04-28T12:09:35Z</time>
      </trkpt>
      <trkpt lat="47.50535" lon="3.75222">
        <ele>167.89</ele>
        <time>2013-04-28T12:09:52Z</time>
      </trkpt>
      <trkpt lat="47.5051" lon="3.7522">
        <ele>168.85</ele>
        <time>2013-04-28T12:10:11Z</time>
      </trkpt>
      <trkpt lat="47.50487" lon="3.75221">
        <ele>169.33</ele>
        <time>2013-04-28T12:10:28Z</time>
      </trkpt>
      <trkpt lat="47.50476" lon="3.75222">
        <ele>169.81</ele>
        <time>2013-04-28T12:10:37Z</time>
      </trkpt>
      <trkpt lat="47.50453" lon="3.75221">
        <ele>171.25</ele>
        <time>2013-04-28T12:10:54Z</time>
      </trkpt>
      <trkpt lat="47.50432" lon="3.75215">
        <ele>173.66</ele>
        <time>2013-04-28T12:11:13Z</time>
      </trkpt>
      <trkpt lat="47.50413" lon="3.75209">
        <ele>174.14</ele>
        <time>2013-04-28T12:11:29Z</time>
      </trkpt>
      <trkpt lat="47.50394" lon="3.75198">
        <ele>176.06</ele>
        <time>2013-04-28T12:11:46Z</time>
      </trkpt>
      <trkpt lat="47.50378" lon="3.75189">
        <ele>177.98</ele>
        <time>2013-04-28T12:12:00Z</time>
      </trkpt>
      <trkpt lat="47.50358" lon="3.75169">
        <ele>180.38</ele>
        <time>2013-04-28T12:12:17Z</time>
      </trkpt>
      <trkpt lat="47.50339" lon="3.75162">
        <ele>183.27</ele>
        <time>2013-04-28T12:12:37Z</time>
      </trkpt>
      <trkpt lat="47.50322" lon="3.75157">
        <ele>184.71</ele>
        <time>2013-04-28T12:12:55Z</time>
      </trkpt>
      <trkpt lat="47.50304" lon="3.7515">
        <ele>187.59</ele>
        <time>2013-04-28T12:13:15Z</time>
      </trkpt>
      <trkpt lat="47.50287" lon="3.75141">
        <ele>189.52</ele>
        <time>2013-04-28T12:13:33Z</time>
      </trkpt>
      <trkpt lat="47.50275" lon="3.75131">
        <ele>191.44</ele>
        <time>2013-04-28T12:13:45Z</time>
      </trkpt>
      <trkpt lat="47.50258" lon="3.75119">
        <ele>193.84</ele>
        <time>2013-04-28T12:14:01Z</time>
      </trkpt>
      <trkpt lat="47.50244" lon="3.75104">
        <ele>196.73</ele>
        <time>2013-04-28T12:14:15Z</time>
      </trkpt>
      <trkpt lat="47.50233" lon="3.75113">
        <ele>198.17</ele>
        <time>2013-04-28T12:14:30Z</time>
      </trkpt>
      <trkpt lat="47.5022" lon="3.75127">
        <ele>200.09</ele>
        <time>2013-04-28T12:14:45Z</time>
      </trkpt>
      <trkpt lat="47.50214" lon="3.75135">
        <ele>201.05</ele>
        <time>2013-04-28T12:14:51Z</time>
      </trkpt>
      <trkpt lat="47.50209" lon="3.7514">
        <ele>202.01</ele>
        <time>2013-04-28T12:14:57Z</time>
      </trkpt>
      <trkpt lat="47.50194" lon="3.75156">
        <ele>202.98</ele>
        <time>2013-04-28T12:15:13Z</time>
      </trkpt>
      <trkpt lat="47.50177" lon="3.75166">
        <ele>204.42</ele>
        <time>2013-04-28T12:15:28Z</time>
      </trkpt>
      <trkpt lat="47.50158" lon="3.7518">
        <ele>205.38</ele>
        <time>2013-04-28T12:15:45Z</time>
      </trkpt>
      <trkpt lat="47.50135" lon="3.75188">
        <ele>205.86</ele>
        <time>2013-04-28T12:16:03Z</time>
      </trkpt>
      <trkpt lat="47.5011" lon="3.75203">
        <ele>206.34</ele>
        <time>2013-04-28T12:16:22Z</time>
      </trkpt>
      <trkpt lat="47.50099" lon="3.75207">
        <ele>206.82</ele>
        <time>2013-04-28T12:16:31Z</time>
      </trkpt>
      <trkpt lat="47.50075" lon="3.7522">
        <ele>206.82</ele>
        <time>2013-04-28T12:16:50Z</time>
      </trkpt>
      <trkpt lat="47.50053" lon="3.75233">
        <ele>206.82</ele>
        <time>2013-04-28T12:17:08Z</time>
      </trkpt>
      <trkpt lat="47.50025" lon="3.75244">
        <ele>206.34</ele>
        <time>2013-04-28T12:17:28Z</time>
      </trkpt>
      <trkpt lat="47.5" lon="3.75248">
        <ele>206.82</ele>
        <time>2013-04-28T12:17:45Z</time>
      </trkpt>
      <trkpt lat="47.49974" lon="3.75253">
        <ele>206.82</ele>
        <time>2013-04-28T12:18:03Z</time>
      </trkpt>
      <trkpt lat="47.49949" lon="3.75254">
        <ele>207.3</ele>
        <time>2013-04-28T12:18:21Z</time>
      </trkpt>
      <trkpt lat="47.49927" lon="3.75255">
        <ele>207.78</ele>
        <time>2013-04-28T12:18:37Z</time>
      </trkpt>
      <trkpt lat="47.49904" lon="3.75253">
        <ele>207.78</ele>
        <time>2013-04-28T12:18:53Z</time>
      </trkpt>
      <trkpt lat="47.4988" lon="3.75255">
        <ele>209.22</ele>
        <time>2013-04-28T12:19:11Z</time>
      </trkpt>
      <trkpt lat="47.4986" lon="3.75255">
        <ele>210.19</ele>
        <time>2013-04-28T12:19:27Z</time>
      </trkpt>
      <trkpt lat="47.49831" lon="3.75248">
        <ele>211.63</ele>
        <time>2013-04-28T12:19:49Z</time>
      </trkpt>
      <trkpt lat="47.49804" lon="3.75242">
        <ele>213.07</ele>
        <time>2013-04-28T12:20:09Z</time>
      </trkpt>
      <trkpt lat="47.49783" lon="3.75234">
        <ele>214.03</ele>
        <time>2013-04-28T12:20:26Z</time>
      </trkpt>
      <trkpt lat="47.49756" lon="3.75228">
        <ele>215.47</ele>
        <time>2013-04-28T12:20:46Z</time>
      </trkpt>
      <trkpt lat="47.49735" lon="3.75228">
        <ele>216.91</ele>
        <time>2013-04-28T12:21:03Z</time>
      </trkpt>
      <trkpt lat="47.49705" lon="3.75229">
        <ele>216.91</ele>
        <time>2013-04-28T12:21:25Z</time>
      </trkpt>
      <trkpt lat="47.49682" lon="3.75229">
        <ele>216.43</ele>
        <time>2013-04-28T12:21:44Z</time>
      </trkpt>
      <trkpt lat="47.49652" lon="3.75232">
        <ele>216.91</ele>
        <time>2013-04-28T12:22:04Z</time>
      </trkpt>
      <trkpt lat="47.49628" lon="3.75228">
        <ele>216.43</ele>
        <time>2013-04-28T12:22:24Z</time>
      </trkpt>
      <trkpt lat="47.49606" lon="3.75223">
        <ele>215.95</ele>
        <time>2013-04-28T12:22:40Z</time>
      </trkpt>
      <trkpt lat="47.49584" lon="3.75217">
        <ele>215.47</ele>
        <time>2013-04-28T12:22:57Z</time>
      </trkpt>
      <trkpt lat="47.49552" lon="3.7521">
        <ele>214.99</ele>
        <time>2013-04-28T12:23:19Z</time>
      </trkpt>
      <trkpt lat="47.49549" lon="3.75209">
        <ele>214.51</ele>
        <time>2013-04-28T12:23:22Z</time>
      </trkpt>
      <trkpt lat="47.49543" lon="3.75207">
        <ele>214.51</ele>
        <time>2013-04-28T12:23:27Z</time>
      </trkpt>
      <trkpt lat="47.49513" lon="3.75198">
        <ele>214.03</ele>
        <time>2013-04-28T12:23:51Z</time>
      </trkpt>
      <trkpt lat="47.49488" lon="3.75187">
        <ele>212.59</ele>
        <time>2013-04-28T12:24:11Z</time>
      </trkpt>
      <trkpt lat="47.49468" lon="3.75178">
        <ele>213.07</ele>
        <time>2013-04-28T12:24:27Z</time>
      </trkpt>
      <trkpt lat="47.49448" lon="3.75167">
        <ele>211.63</ele>
        <time>2013-04-28T12:24:47Z</time>
      </trkpt>
      <trkpt lat="47.4943" lon="3.75159">
        <ele>210.19</ele>
        <time>2013-04-28T12:25:02Z</time>
      </trkpt>
      <trkpt lat="47.49414" lon="3.75147">
        <ele>207.78</ele>
        <time>2013-04-28T12:25:17Z</time>
      </trkpt>
      <trkpt lat="47.49394" lon="3.75143">
        <ele>205.38</ele>
        <time>2013-04-28T12:25:35Z</time>
      </trkpt>
      <trkpt lat="47.49375" lon="3.75143">
        <ele>202.01</ele>
        <time>2013-04-28T12:25:52Z</time>
      </trkpt>
      <trkpt lat="47.49359" lon="3.75143">
        <ele>198.65</ele>
        <time>2013-04-28T12:26:09Z</time>
      </trkpt>
      <trkpt lat="47.49344" lon="3.75143">
        <ele>195.28</ele>
        <time>2013-04-28T12:26:25Z</time>
      </trkpt>
      <trkpt lat="47.49343" lon="3.75143">
        <ele>195.28</ele>
        <time>2013-04-28T12:26:26Z</time>
      </trkpt>
      <trkpt lat="47.49342" lon="3.75143">
        <ele>195.28</ele>
        <time>2013-04-28T12:26:27Z</time>
      </trkpt>
      <trkpt lat="47.49316" lon="3.75139">
        <ele>192.4</ele>
        <time>2013-04-28T12:26:45Z</time>
      </trkpt>
      <trkpt lat="47.49303" lon="3.75136">
        <ele>191.44</ele>
        <time>2013-04-28T12:26:54Z</time>
      </trkpt>
      <trkpt lat="47.49281" lon="3.75129">
        <ele>187.59</ele>
        <time>2013-04-28T12:27:13Z</time>
      </trkpt>
      <trkpt lat="47.49252" lon="3.75117">
        <ele>185.19</ele>
        <time>2013-04-28T12:27:37Z</time>
      </trkpt>
      <trkpt lat="47.49226" lon="3.75104">
        <ele>183.75</ele>
        <time>2013-04-28T12:27:56Z</time>
      </trkpt>
      <trkpt lat="47.49201" lon="3.75094">
        <ele>181.83</ele>
        <time>2013-04-28T12:28:16Z</time>
      </trkpt>
      <trkpt lat="47.4918" lon="3.75081">
        <ele>179.9</ele>
        <time>2013-04-28T12:28:35Z</time>
      </trkpt>
      <trkpt lat="47.49155" lon="3.75077">
        <ele>177.98</ele>
        <time>2013-04-28T12:28:52Z</time>
      </trkpt>
      <trkpt lat="47.4913" lon="3.75075">
        <ele>176.06</ele>
        <time>2013-04-28T12:29:12Z</time>
      </trkpt>
      <trkpt lat="47.49105" lon="3.75063">
        <ele>175.1</ele>
        <time>2013-04-28T12:29:34Z</time>
      </trkpt>
      <trkpt lat="47.49085" lon="3.75058">
        <ele>173.17</ele>
        <time>2013-04-28T12:29:49Z</time>
      </trkpt>
      <trkpt lat="47.49075" lon="3.75056">
        <ele>172.69</ele>
        <time>2013-04-28T12:29:57Z</time>
      </trkpt>
      <trkpt lat="47.49047" lon="3.75051">
        <ele>171.73</ele>
        <time>2013-04-28T12:30:19Z</time>
      </trkpt>
      <trkpt lat="47.4902" lon="3.75047">
        <ele>170.29</ele>
        <time>2013-04-28T12:30:40Z</time>
      </trkpt>
      <trkpt lat="47.48992" lon="3.75039">
        <ele>168.85</ele>
        <time>2013-04-28T12:31:02Z</time>
      </trkpt>
      <trkpt lat="47.48967" lon="3.75032">
        <ele>167.41</ele>
        <time>2013-04-28T12:31:21Z</time>
      </trkpt>
      <trkpt lat="47.48942" lon="3.75025">
        <ele>166.93</ele>
        <time>2013-04-28T12:31:40Z</time>
      </trkpt>
      <trkpt lat="47.48913" lon="3.75011">
        <ele>165.48</ele>
        <time>2013-04-28T12:32:03Z</time>
      </trkpt>
      <trkpt lat="47.48889" lon="3.74998">
        <ele>165</ele>
        <time>2013-04-28T12:32:23Z</time>
      </trkpt>
      <trkpt lat="47.48863" lon="3.74987">
        <ele>163.56</ele>
        <time>2013-04-28T12:32:44Z</time>
      </trkpt>
      <trkpt lat="47.48833" lon="3.74975">
        <ele>162.6</ele>
        <time>2013-04-28T12:33:08Z</time>
      </trkpt>
      <trkpt lat="47.4881" lon="3.74973">
        <ele>162.6</ele>
        <time>2013-04-28T12:33:25Z</time>
      </trkpt>
      <trkpt lat="47.48785" lon="3.74972">
        <ele>162.12</ele>
        <time>2013-04-28T12:33:44Z</time>
      </trkpt>
      <trkpt lat="47.48764" lon="3.74966">
        <ele>161.16</ele>
        <time>2013-04-28T12:34:02Z</time>
      </trkpt>
      <trkpt lat="47.48731" lon="3.74961">
        <ele>158.27</ele>
        <time>2013-04-28T12:34:27Z</time>
      </trkpt>
      <trkpt lat="47.48713" lon="3.74962">
        <ele>157.79</ele>
        <time>2013-04-28T12:34:45Z</time>
      </trkpt>
      <trkpt lat="47.4871" lon="3.74959">
        <ele>157.31</ele>
        <time>2013-04-28T12:34:48Z</time>
      </trkpt>
      <trkpt lat="47.48709" lon="3.74947">
        <ele>156.83</ele>
        <time>2013-04-28T12:34:54Z</time>
      </trkpt>
      <trkpt lat="47.48722" lon="3.74914">
        <ele>156.83</ele>
        <time>2013-04-28T12:35:15Z</time>
      </trkpt>
      <trkpt lat="47.48727" lon="3.7489">
        <ele>156.35</ele>
        <time>2013-04-28T12:35:28Z</time>
      </trkpt>
      <trkpt lat="47.4871" lon="3.74872">
        <ele>155.39</ele>
        <time>2013-04-28T12:35:44Z</time>
      </trkpt>
      <trkpt lat="47.48687" lon="3.74883">
        <ele>155.39</ele>
        <time>2013-04-28T12:36:03Z</time>
      </trkpt>
      <trkpt lat="47.48658" lon="3.74895">
        <ele>154.43</ele>
        <time>2013-04-28T12:36:26Z</time>
      </trkpt>
      <trkpt lat="47.48639" lon="3.74903">
        <ele>154.91</ele>
        <time>2013-04-28T12:36:41Z</time>
      </trkpt>
      <trkpt lat="47.48616" lon="3.74911">
        <ele>154.43</ele>
        <time>2013-04-28T12:36:58Z</time>
      </trkpt>
      <trkpt lat="47.48597" lon="3.74926">
        <ele>154.43</ele>
        <time>2013-04-28T12:37:16Z</time>
      </trkpt>
      <trkpt lat="47.48581" lon="3.74952">
        <ele>154.43</ele>
        <time>2013-04-28T12:37:34Z</time>
      </trkpt>
      <trkpt lat="47.48581" lon="3.74953">
        <ele>154.43</ele>
        <time>2013-04-28T12:37:35Z</time>
      </trkpt>
      <trkpt lat="47.48564" lon="3.7498">
        <ele>155.39</ele>
        <time>2013-04-28T12:37:56Z</time>
      </trkpt>
      <trkpt lat="47.48544" lon="3.75001">
        <ele>155.87</ele>
        <time>2013-04-28T12:38:14Z</time>
      </trkpt>
      <trkpt lat="47.48515" lon="3.75013">
        <ele>157.31</ele>
        <time>2013-04-28T12:38:37Z</time>
      </trkpt>
      <trkpt lat="47.4849" lon="3.75021">
        <ele>157.79</ele>
        <time>2013-04-28T12:38:56Z</time>
      </trkpt>
      <trkpt lat="47.48465" lon="3.75025">
        <ele>157.79</ele>
        <time>2013-04-28T12:39:16Z</time>
      </trkpt>
      <trkpt lat="47.48439" lon="3.75035">
        <ele>158.75</ele>
        <time>2013-04-28T12:39:35Z</time>
      </trkpt>
      <trkpt lat="47.48416" lon="3.75048">
        <ele>158.75</ele>
        <time>2013-04-28T12:39:53Z</time>
      </trkpt>
      <trkpt lat="47.4839" lon="3.75062">
        <ele>159.72</ele>
        <time>2013-04-28T12:40:13Z</time>
      </trkpt>
      <trkpt lat="47.48369" lon="3.75068">
        <ele>162.12</ele>
        <time>2013-04-28T12:40:32Z</time>
      </trkpt>
      <trkpt lat="47.4835" lon="3.75076">
        <ele>164.52</ele>
        <time>2013-04-28T12:40:48Z</time>
      </trkpt>
      <trkpt lat="47.48325" lon="3.75083">
        <ele>165.96</ele>
        <time>2013-04-28T12:41:08Z</time>
      </trkpt>
      <trkpt lat="47.48301" lon="3.7508">
        <ele>166.45</ele>
        <time>2013-04-28T12:41:29Z</time>
      </trkpt>
      <trkpt lat="47.48287" lon="3.75078">
        <ele>165.48</ele>
        <time>2013-04-28T12:41:42Z</time>
      </trkpt>
      <trkpt lat="47.48255" lon="3.7507">
        <ele>163.56</ele>
        <time>2013-04-28T12:42:05Z</time>
      </trkpt>
      <trkpt lat="47.48225" lon="3.75068">
        <ele>161.64</ele>
        <time>2013-04-28T12:42:28Z</time>
      </trkpt>
      <trkpt lat="47.48198" lon="3.75069">
        <ele>160.2</ele>
        <time>2013-04-28T12:42:48Z</time>
      </trkpt>
      <trkpt lat="47.48169" lon="3.75064">
        <ele>160.2</ele>
        <time>2013-04-28T12:43:10Z</time>
      </trkpt>
      <trkpt lat="47.48146" lon="3.7506">
        <ele>160.2</ele>
        <time>2013-04-28T12:43:28Z</time>
      </trkpt>
      <trkpt lat="47.48118" lon="3.75059">
        <ele>160.68</ele>
        <time>2013-04-28T12:43:49Z</time>
      </trkpt>
      <trkpt lat="47.48087" lon="3.7506">
        <ele>161.64</ele>
        <time>2013-04-28T12:44:11Z</time>
      </trkpt>
      <trkpt lat="47.48063" lon="3.75062">
        <ele>162.12</ele>
        <time>2013-04-28T12:44:29Z</time>
      </trkpt>
      <trkpt lat="47.48038" lon="3.75054">
        <ele>162.6</ele>
        <time>2013-04-28T12:44:49Z</time>
      </trkpt>
      <trkpt lat="47.48018" lon="3.75049">
        <ele>163.56</ele>
        <time>2013-04-28T12:45:05Z</time>
      </trkpt>
      <trkpt lat="47.47996" lon="3.75034">
        <ele>165</ele>
        <time>2013-04-28T12:45:24Z</time>
      </trkpt>
      <trkpt lat="47.47976" lon="3.75025">
        <ele>165</ele>
        <time>2013-04-28T12:45:40Z</time>
      </trkpt>
      <trkpt lat="47.47952" lon="3.7504">
        <ele>164.04</ele>
        <time>2013-04-28T12:46:02Z</time>
      </trkpt>
      <trkpt lat="47.47934" lon="3.75051">
        <ele>162.6</ele>
        <time>2013-04-28T12:46:18Z</time>
      </trkpt>
      <trkpt lat="47.47927" lon="3.7505">
        <ele>161.64</ele>
        <time>2013-04-28T12:46:23Z</time>
      </trkpt>
      <trkpt lat="47.47911" lon="3.75055">
        <ele>160.2</ele>
        <time>2013-04-28T12:46:36Z</time>
      </trkpt>
      <trkpt lat="47.47903" lon="3.75055">
        <ele>159.72</ele>
        <time>2013-04-28T12:46:41Z</time>
      </trkpt>
      <trkpt lat="47.47894" lon="3.75054">
        <ele>158.27</ele>
        <time>2013-04-28T12:46:49Z</time>
      </trkpt>
      <trkpt lat="47.47879" lon="3.75049">
        <ele>157.31</ele>
        <time>2013-04-28T12:47:00Z</time>
      </trkpt>
      <trkpt lat="47.47874" lon="3.75049">
        <ele>156.83</ele>
        <time>2013-04-28T12:47:03Z</time>
      </trkpt>
      <trkpt lat="47.4785" lon="3.75039">
        <ele>156.35</ele>
        <time>2013-04-28T12:47:23Z</time>
      </trkpt>
      <trkpt lat="47.47826" lon="3.75035">
        <ele>154.91</ele>
        <time>2013-04-28T12:47:42Z</time>
      </trkpt>
      <trkpt lat="47.47808" lon="3.75028">
        <ele>154.43</ele>
        <time>2013-04-28T12:48:00Z</time>
      </trkpt>
      <trkpt lat="47.47803" lon="3.75036">
        <ele>154.43</ele>
        <time>2013-04-28T12:48:10Z</time>
      </trkpt>
      <trkpt lat="47.47791" lon="3.7504">
        <ele>154.43</ele>
        <time>2013-04-28T12:48:26Z</time>
      </trkpt>
      <trkpt lat="47.47785" lon="3.75045">
        <ele>154.43</ele>
        <time>2013-04-28T12:48:45Z</time>
      </trkpt>
      <trkpt lat="47.47788" lon="3.75044">
        <ele>154.43</ele>
        <time>2013-04-28T12:48:52Z</time>
      </trkpt>
      <trkpt lat="47.47784" lon="3.75063">
        <ele>154.91</ele>
        <time>2013-04-28T12:49:02Z</time>
      </trkpt>
      <trkpt lat="47.47769" lon="3.7509">
        <ele>156.35</ele>
        <time>2013-04-28T12:49:17Z</time>
      </trkpt>
      <trkpt lat="47.47749" lon="3.75111">
        <ele>158.27</ele>
        <time>2013-04-28T12:49:35Z</time>
      </trkpt>
      <trkpt lat="47.4773" lon="3.75128">
        <ele>160.68</ele>
        <time>2013-04-28T12:49:53Z</time>
      </trkpt>
      <trkpt lat="47.4772" lon="3.75132">
        <ele>161.64</ele>
        <time>2013-04-28T12:50:02Z</time>
      </trkpt>
      <trkpt lat="47.47701" lon="3.75129">
        <ele>164.04</ele>
        <time>2013-04-28T12:50:21Z</time>
      </trkpt>
      <trkpt lat="47.4768" lon="3.75124">
        <ele>165.96</ele>
        <time>2013-04-28T12:50:41Z</time>
      </trkpt>
      <trkpt lat="47.47661" lon="3.75114">
        <ele>167.89</ele>
        <time>2013-04-28T12:50:57Z</time>
      </trkpt>
      <trkpt lat="47.47656" lon="3.75111">
        <ele>169.33</ele>
        <time>2013-04-28T12:51:02Z</time>
      </trkpt>
      <trkpt lat="47.47637" lon="3.75101">
        <ele>169.33</ele>
        <time>2013-04-28T12:51:21Z</time>
      </trkpt>
      <trkpt lat="47.47615" lon="3.75091">
        <ele>170.29</ele>
        <time>2013-04-28T12:51:40Z</time>
      </trkpt>
      <trkpt lat="47.47593" lon="3.75078">
        <ele>171.73</ele>
        <time>2013-04-28T12:51:59Z</time>
      </trkpt>
      <trkpt lat="47.47572" lon="3.75069">
        <ele>172.69</ele>
        <time>2013-04-28T12:52:17Z</time>
      </trkpt>
      <trkpt lat="47.47552" lon="3.75058">
        <ele>174.14</ele>
        <time>2013-04-28T12:52:36Z</time>
      </trkpt>
      <trkpt lat="47.47529" lon="3.75043">
        <ele>176.06</ele>
        <time>2013-04-28T12:52:58Z</time>
      </trkpt>
      <trkpt lat="47.4751" lon="3.75033">
        <ele>175.1</ele>
        <time>2013-04-28T12:53:16Z</time>
      </trkpt>
      <trkpt lat="47.4749" lon="3.75025">
        <ele>177.02</ele>
        <time>2013-04-28T12:53:34Z</time>
      </trkpt>
      <trkpt lat="47.47467" lon="3.75018">
        <ele>177.5</ele>
        <time>2013-04-28T12:53:54Z</time>
      </trkpt>
      <trkpt lat="47.47445" lon="3.75008">
        <ele>178.46</ele>
        <time>2013-04-28T12:54:12Z</time>
      </trkpt>
      <trkpt lat="47.47423" lon="3.75001">
        <ele>178.94</ele>
        <time>2013-04-28T12:54:32Z</time>
      </trkpt>
      <trkpt lat="47.47401" lon="3.74992">
        <ele>179.9</ele>
        <time>2013-04-28T12:54:51Z</time>
      </trkpt>
      <trkpt lat="47.47388" lon="3.74984">
        <ele>180.38</ele>
        <time>2013-04-28T12:55:09Z</time>
      </trkpt>
      <trkpt lat="47.47364" lon="3.7498">
        <ele>181.35</ele>
        <time>2013-04-28T12:55:27Z</time>
      </trkpt>
      <trkpt lat="47.47342" lon="3.74981">
        <ele>181.83</ele>
        <time>2013-04-28T12:55:44Z</time>
      </trkpt>
      <trkpt lat="47.47328" lon="3.74981">
        <ele>182.79</ele>
        <time>2013-04-28T12:55:54Z</time>
      </trkpt>
      <trkpt lat="47.47318" lon="3.74982">
        <ele>183.27</ele>
        <time>2013-04-28T12:56:01Z</time>
      </trkpt>
      <trkpt lat="47.47292" lon="3.74987">
        <ele>184.71</ele>
        <time>2013-04-28T12:56:21Z</time>
      </trkpt>
      <trkpt lat="47.4727" lon="3.7499">
        <ele>185.19</ele>
        <time>2013-04-28T12:56:40Z</time>
      </trkpt>
      <trkpt lat="47.47264" lon="3.74996">
        <ele>185.67</ele>
        <time>2013-04-28T12:56:57Z</time>
      </trkpt>
      <trkpt lat="47.4726" lon="3.74993">
        <ele>185.19</ele>
        <time>2013-04-28T12:57:19Z</time>
      </trkpt>
      <trkpt lat="47.47237" lon="3.74996">
        <ele>187.59</ele>
        <time>2013-04-28T12:57:38Z</time>
      </trkpt>
      <trkpt lat="47.47218" lon="3.75">
        <ele>190</ele>
        <time>2013-04-28T12:57:56Z</time>
      </trkpt>
      <trkpt lat="47.47201" lon="3.75001">
        <ele>191.92</ele>
        <time>2013-04-28T12:58:12Z</time>
      </trkpt>
      <trkpt lat="47.47182" lon="3.75004">
        <ele>194.8</ele>
        <time>2013-04-28T12:58:31Z</time>
      </trkpt>
      <trkpt lat="47.47162" lon="3.75005">
        <ele>196.73</ele>
        <time>2013-04-28T12:58:50Z</time>
      </trkpt>
      <trkpt lat="47.47145" lon="3.75006">
        <ele>199.13</ele>
        <time>2013-04-28T12:59:06Z</time>
      </trkpt>
      <trkpt lat="47.47127" lon="3.75013">
        <ele>202.01</ele>
        <time>2013-04-28T12:59:22Z</time>
      </trkpt>
      <trkpt lat="47.47118" lon="3.7502">
        <ele>203.46</ele>
        <time>2013-04-28T12:59:31Z</time>
      </trkpt>
      <trkpt lat="47.47099" lon="3.75039">
        <ele>204.9</ele>
        <time>2013-04-28T12:59:50Z</time>
      </trkpt>
      <trkpt lat="47.47082" lon="3.75048">
        <ele>207.3</ele>
        <time>2013-04-28T13:00:07Z</time>
      </trkpt>
      <trkpt lat="47.47061" lon="3.75052">
        <ele>210.19</ele>
        <time>2013-04-28T13:00:26Z</time>
      </trkpt>
      <trkpt lat="47.47038" lon="3.75052">
        <ele>212.11</ele>
        <time>2013-04-28T13:00:45Z</time>
      </trkpt>
      <trkpt lat="47.47021" lon="3.75051">
        <ele>215.47</ele>
        <time>2013-04-28T13:01:01Z</time>
      </trkpt>
      <trkpt lat="47.47002" lon="3.75051">
        <ele>217.88</ele>
        <time>2013-04-28T13:01:19Z</time>
      </trkpt>
      <trkpt lat="47.46999" lon="3.75052">
        <ele>218.36</ele>
        <time>2013-04-28T13:01:25Z</time>
      </trkpt>
      <trkpt lat="47.46978" lon="3.75055">
        <ele>220.76</ele>
        <time>2013-04-28T13:01:44Z</time>
      </trkpt>
      <trkpt lat="47.46963" lon="3.75057">
        <ele>224.12</ele>
        <time>2013-04-28T13:01:58Z</time>
      </trkpt>
      <trkpt lat="47.46954" lon="3.75061">
        <ele>223.64</ele>
        <time>2013-04-28T13:02:21Z</time>
      </trkpt>
      <trkpt lat="47.46948" lon="3.75062">
        <ele>227.01</ele>
        <time>2013-04-28T13:02:36Z</time>
      </trkpt>
      <trkpt lat="47.46934" lon="3.7506">
        <ele>229.41</ele>
        <time>2013-04-28T13:02:55Z</time>
      </trkpt>
      <trkpt lat="47.46922" lon="3.75056">
        <ele>232.3</ele>
        <time>2013-04-28T13:03:10Z</time>
      </trkpt>
      <trkpt lat="47.46913" lon="3.75039">
        <ele>235.66</ele>
        <time>2013-04-28T13:03:32Z</time>
      </trkpt>
      <trkpt lat="47.46905" lon="3.75023">
        <ele>238.54</ele>
        <time>2013-04-28T13:03:52Z</time>
      </trkpt>
      <trkpt lat="47.46898" lon="3.75007">
        <ele>239.99</ele>
        <time>2013-04-28T13:04:10Z</time>
      </trkpt>
      <trkpt lat="47.46894" lon="3.74993">
        <ele>242.87</ele>
        <time>2013-04-28T13:04:27Z</time>
      </trkpt>
      <trkpt lat="47.46886" lon="3.74981">
        <ele>246.23</ele>
        <time>2013-04-28T13:04:43Z</time>
      </trkpt>
      <trkpt lat="47.4688" lon="3.74971">
        <ele>248.64</ele>
        <time>2013-04-28T13:04:56Z</time>
      </trkpt>
      <trkpt lat="47.46873" lon="3.74951">
        <ele>251.04</ele>
        <time>2013-04-28T13:05:16Z</time>
      </trkpt>
      <trkpt lat="47.46866" lon="3.74932">
        <ele>254.41</ele>
        <time>2013-04-28T13:05:33Z</time>
      </trkpt>
      <trkpt lat="47.46859" lon="3.74913">
        <ele>256.81</ele>
        <time>2013-04-28T13:05:52Z</time>
      </trkpt>
      <trkpt lat="47.46847" lon="3.74897">
        <ele>258.73</ele>
        <time>2013-04-28T13:06:12Z</time>
      </trkpt>
      <trkpt lat="47.46837" lon="3.74883">
        <ele>261.62</ele>
        <time>2013-04-28T13:06:30Z</time>
      </trkpt>
      <trkpt lat="47.46828" lon="3.74875">
        <ele>264.98</ele>
        <time>2013-04-28T13:06:45Z</time>
      </trkpt>
      <trkpt lat="47.46819" lon="3.74869">
        <ele>265.46</ele>
        <time>2013-04-28T13:06:59Z</time>
      </trkpt>
      <trkpt lat="47.46811" lon="3.74858">
        <ele>268.83</ele>
        <time>2013-04-28T13:07:16Z</time>
      </trkpt>
      <trkpt lat="47.46805" lon="3.74853">
        <ele>269.79</ele>
        <time>2013-04-28T13:07:38Z</time>
      </trkpt>
      <trkpt lat="47.46793" lon="3.74842">
        <ele>272.67</ele>
        <time>2013-04-28T13:07:57Z</time>
      </trkpt>
      <trkpt lat="47.4678" lon="3.74833">
        <ele>275.07</ele>
        <time>2013-04-28T13:08:15Z</time>
      </trkpt>
      <trkpt lat="47.46769" lon="3.74818">
        <ele>277</ele>
        <time>2013-04-28T13:08:33Z</time>
      </trkpt>
      <trkpt lat="47.4676" lon="3.74807">
        <ele>278.92</ele>
        <time>2013-04-28T13:08:51Z</time>
      </trkpt>
      <trkpt lat="47.46754" lon="3.74791">
        <ele>280.84</ele>
        <time>2013-04-28T13:09:11Z</time>
      </trkpt>
      <trkpt lat="47.46745" lon="3.74775">
        <ele>283.73</ele>
        <time>2013-04-28T13:09:31Z</time>
      </trkpt>
      <trkpt lat="47.4674" lon="3.74771">
        <ele>284.69</ele>
        <time>2013-04-28T13:09:38Z</time>
      </trkpt>
      <trkpt lat="47.4673" lon="3.7476">
        <ele>286.13</ele>
        <time>2013-04-28T13:09:59Z</time>
      </trkpt>
      <trkpt lat="47.46721" lon="3.7475">
        <ele>289.01</ele>
        <time>2013-04-28T13:10:18Z</time>
      </trkpt>
      <trkpt lat="47.46696" lon="3.74746">
        <ele>290.94</ele>
        <time>2013-04-28T13:10:39Z</time>
      </trkpt>
      <trkpt lat="47.46688" lon="3.74747">
        <ele>292.86</ele>
        <time>2013-04-28T13:10:45Z</time>
      </trkpt>
      <trkpt lat="47.46684" lon="3.74751">
        <ele>292.86</ele>
        <time>2013-04-28T13:10:49Z</time>
      </trkpt>
      <trkpt lat="47.46671" lon="3.74762">
        <ele>295.74</ele>
        <time>2013-04-28T13:11:06Z</time>
      </trkpt>
      <trkpt lat="47.46672" lon="3.74763">
        <ele>296.22</ele>
        <time>2013-04-28T13:11:26Z</time>
      </trkpt>
      <trkpt lat="47.46659" lon="3.74776">
        <ele>297.18</ele>
        <time>2013-04-28T13:11:47Z</time>
      </trkpt>
      <trkpt lat="47.46648" lon="3.74777">
        <ele>298.15</ele>
        <time>2013-04-28T13:12:06Z</time>
      </trkpt>
      <trkpt lat="47.46641" lon="3.74764">
        <ele>297.18</ele>
        <time>2013-04-28T13:12:22Z</time>
      </trkpt>
      <trkpt lat="47.46632" lon="3.74755">
        <ele>297.18</ele>
        <time>2013-04-28T13:12:37Z</time>
      </trkpt>
      <trkpt lat="47.46626" lon="3.74762">
        <ele>297.67</ele>
        <time>2013-04-28T13:12:58Z</time>
      </trkpt>
      <trkpt lat="47.46641" lon="3.74747">
        <ele>298.63</ele>
        <time>2013-04-28T13:13:18Z</time>
      </trkpt>
      <trkpt lat="47.46638" lon="3.74747">
        <ele>298.63</ele>
        <time>2013-04-28T13:13:35Z</time>
      </trkpt>
      <trkpt lat="47.46622" lon="3.74759">
        <ele>298.63</ele>
        <time>2013-04-28T13:13:43Z</time>
      </trkpt>
      <trkpt lat="47.46624" lon="3.74755">
        <ele>297.67</ele>
        <time>2013-04-28T13:13:57Z</time>
      </trkpt>
    </trkseg>
  </trk>
</gpx>